<?xml version="1.0" encoding="UTF-8"?>
<gpx version="1.0" creator="Trackator Lite" xmlns:xsi="http://www.w3.org/2001/XMLSchema-instance" xmlns="http://www.topografix.com/GPX/1/0" xmlns:topografix="http://www.topografix.com/GPX/Private/TopoGrafix/0/1" xsi:schemaLocation="http://www.topografix.com/GPX/1/0 http://www.topografix.com/GPX/1/0/gpx.xsd http://www.topografix.com/GPX/Private/TopoGrafix/0/1 http://www.topografix.com/GPX/Private/TopoGrafix/0/1/topografix.xsd">
<metadata>
<link href="http://www.trackalia.com"><text>Trackator</text>
</link>
</metadata>
<time>2014-10-05T17:47:51Z</time>
<trk>
<name>Track: </name>
<desc>Parapente</desc>
<trkseg>
<trkpt lat="42.87121" lon="-2.1148808">
<ele>1113</ele>
<time>2014-10-05T17:47:57Z</time>
</trkpt>
<trkpt lat="42.871212" lon="-2.1148798">
<ele>1112</ele>
<time>2014-10-05T17:47:59Z</time>
</trkpt>
<trkpt lat="42.871212" lon="-2.1148818">
<ele>1112</ele>
<time>2014-10-05T17:48:01Z</time>
</trkpt>
<trkpt lat="42.87121" lon="-2.1148837">
<ele>1112</ele>
<time>2014-10-05T17:48:03Z</time>
</trkpt>
<trkpt lat="42.87121" lon="-2.114878">
<ele>1111</ele>
<time>2014-10-05T17:48:05Z</time>
</trkpt>
<trkpt lat="42.871212" lon="-2.1148741">
<ele>1111</ele>
<time>2014-10-05T17:48:07Z</time>
</trkpt>
<trkpt lat="42.871212" lon="-2.1148655">
<ele>1110</ele>
<time>2014-10-05T17:48:09Z</time>
</trkpt>
<trkpt lat="42.871216" lon="-2.1148682">
<ele>1110</ele>
<time>2014-10-05T17:48:11Z</time>
</trkpt>
<trkpt lat="42.871212" lon="-2.1148477">
<ele>1111</ele>
<time>2014-10-05T17:48:13Z</time>
</trkpt>
<trkpt lat="42.871212" lon="-2.1148458">
<ele>1111</ele>
<time>2014-10-05T17:48:15Z</time>
</trkpt>
<trkpt lat="42.871216" lon="-2.114841">
<ele>1111</ele>
<time>2014-10-05T17:48:17Z</time>
</trkpt>
<trkpt lat="42.871212" lon="-2.1148407">
<ele>1111</ele>
<time>2014-10-05T17:48:19Z</time>
</trkpt>
<trkpt lat="42.871216" lon="-2.114836">
<ele>1110</ele>
<time>2014-10-05T17:48:21Z</time>
</trkpt>
<trkpt lat="42.871216" lon="-2.1148324">
<ele>1110</ele>
<time>2014-10-05T17:48:23Z</time>
</trkpt>
<trkpt lat="42.871223" lon="-2.1148365">
<ele>1111</ele>
<time>2014-10-05T17:48:25Z</time>
</trkpt>
<trkpt lat="42.871227" lon="-2.1148398">
<ele>1111</ele>
<time>2014-10-05T17:48:27Z</time>
</trkpt>
<trkpt lat="42.871223" lon="-2.1148405">
<ele>1111</ele>
<time>2014-10-05T17:48:29Z</time>
</trkpt>
<trkpt lat="42.871227" lon="-2.1148405">
<ele>1111</ele>
<time>2014-10-05T17:48:31Z</time>
</trkpt>
<trkpt lat="42.871227" lon="-2.1148398">
<ele>1111</ele>
<time>2014-10-05T17:48:33Z</time>
</trkpt>
<trkpt lat="42.87123" lon="-2.1148357">
<ele>1111</ele>
<time>2014-10-05T17:48:35Z</time>
</trkpt>
<trkpt lat="42.871235" lon="-2.1148314">
<ele>1111</ele>
<time>2014-10-05T17:48:37Z</time>
</trkpt>
<trkpt lat="42.87124" lon="-2.1148312">
<ele>1110</ele>
<time>2014-10-05T17:48:39Z</time>
</trkpt>
<trkpt lat="42.871235" lon="-2.114818">
<ele>1111</ele>
<time>2014-10-05T17:48:41Z</time>
</trkpt>
<trkpt lat="42.87125" lon="-2.1148057">
<ele>1110</ele>
<time>2014-10-05T17:48:43Z</time>
</trkpt>
<trkpt lat="42.871243" lon="-2.1147962">
<ele>1109</ele>
<time>2014-10-05T17:48:45Z</time>
</trkpt>
<trkpt lat="42.87124" lon="-2.1147885">
<ele>1109</ele>
<time>2014-10-05T17:48:47Z</time>
</trkpt>
<trkpt lat="42.87124" lon="-2.114783">
<ele>1109</ele>
<time>2014-10-05T17:48:49Z</time>
</trkpt>
<trkpt lat="42.871235" lon="-2.1147888">
<ele>1110</ele>
<time>2014-10-05T17:48:51Z</time>
</trkpt>
<trkpt lat="42.871235" lon="-2.1147866">
<ele>1110</ele>
<time>2014-10-05T17:48:53Z</time>
</trkpt>
<trkpt lat="42.87124" lon="-2.1147883">
<ele>1109</ele>
<time>2014-10-05T17:48:55Z</time>
</trkpt>
<trkpt lat="42.871243" lon="-2.1147852">
<ele>1110</ele>
<time>2014-10-05T17:48:57Z</time>
</trkpt>
<trkpt lat="42.871243" lon="-2.1147861">
<ele>1110</ele>
<time>2014-10-05T17:48:59Z</time>
</trkpt>
<trkpt lat="42.87124" lon="-2.1147857">
<ele>1110</ele>
<time>2014-10-05T17:49:01Z</time>
</trkpt>
<trkpt lat="42.87124" lon="-2.1147811">
<ele>1110</ele>
<time>2014-10-05T17:49:03Z</time>
</trkpt>
<trkpt lat="42.87124" lon="-2.1147788">
<ele>1110</ele>
<time>2014-10-05T17:49:05Z</time>
</trkpt>
<trkpt lat="42.87124" lon="-2.1147816">
<ele>1110</ele>
<time>2014-10-05T17:49:07Z</time>
</trkpt>
<trkpt lat="42.87124" lon="-2.1147842">
<ele>1110</ele>
<time>2014-10-05T17:49:09Z</time>
</trkpt>
<trkpt lat="42.871243" lon="-2.1147833">
<ele>1110</ele>
<time>2014-10-05T17:49:11Z</time>
</trkpt>
<trkpt lat="42.87124" lon="-2.114783">
<ele>1110</ele>
<time>2014-10-05T17:49:13Z</time>
</trkpt>
<trkpt lat="42.871243" lon="-2.11478">
<ele>1109</ele>
<time>2014-10-05T17:49:15Z</time>
</trkpt>
<trkpt lat="42.871243" lon="-2.1147804">
<ele>1109</ele>
<time>2014-10-05T17:49:17Z</time>
</trkpt>
<trkpt lat="42.871243" lon="-2.1147807">
<ele>1109</ele>
<time>2014-10-05T17:49:19Z</time>
</trkpt>
<trkpt lat="42.871243" lon="-2.1147797">
<ele>1109</ele>
<time>2014-10-05T17:49:21Z</time>
</trkpt>
<trkpt lat="42.87124" lon="-2.1147783">
<ele>1109</ele>
<time>2014-10-05T17:49:23Z</time>
</trkpt>
<trkpt lat="42.871243" lon="-2.1147828">
<ele>1109</ele>
<time>2014-10-05T17:49:25Z</time>
</trkpt>
<trkpt lat="42.87124" lon="-2.1147826">
<ele>1109</ele>
<time>2014-10-05T17:49:27Z</time>
</trkpt>
<trkpt lat="42.871235" lon="-2.1147797">
<ele>1109</ele>
<time>2014-10-05T17:49:29Z</time>
</trkpt>
<trkpt lat="42.871235" lon="-2.1147807">
<ele>1109</ele>
<time>2014-10-05T17:49:31Z</time>
</trkpt>
<trkpt lat="42.871235" lon="-2.1147788">
<ele>1109</ele>
<time>2014-10-05T17:49:33Z</time>
</trkpt>
<trkpt lat="42.871235" lon="-2.1147778">
<ele>1109</ele>
<time>2014-10-05T17:49:35Z</time>
</trkpt>
<trkpt lat="42.871235" lon="-2.1147757">
<ele>1109</ele>
<time>2014-10-05T17:49:37Z</time>
</trkpt>
<trkpt lat="42.871235" lon="-2.1147733">
<ele>1109</ele>
<time>2014-10-05T17:49:39Z</time>
</trkpt>
<trkpt lat="42.871235" lon="-2.1147716">
<ele>1109</ele>
<time>2014-10-05T17:49:41Z</time>
</trkpt>
<trkpt lat="42.871235" lon="-2.1147726">
<ele>1109</ele>
<time>2014-10-05T17:49:43Z</time>
</trkpt>
<trkpt lat="42.871235" lon="-2.1147726">
<ele>1109</ele>
<time>2014-10-05T17:49:45Z</time>
</trkpt>
<trkpt lat="42.87123" lon="-2.1147683">
<ele>1109</ele>
<time>2014-10-05T17:49:47Z</time>
</trkpt>
<trkpt lat="42.87123" lon="-2.1147664">
<ele>1109</ele>
<time>2014-10-05T17:49:49Z</time>
</trkpt>
<trkpt lat="42.87123" lon="-2.1147656">
<ele>1109</ele>
<time>2014-10-05T17:49:51Z</time>
</trkpt>
<trkpt lat="42.87124" lon="-2.114764">
<ele>1108</ele>
<time>2014-10-05T17:49:53Z</time>
</trkpt>
<trkpt lat="42.871246" lon="-2.1147716">
<ele>1109</ele>
<time>2014-10-05T17:49:55Z</time>
</trkpt>
<trkpt lat="42.87124" lon="-2.1147661">
<ele>1109</ele>
<time>2014-10-05T17:49:56Z</time>
</trkpt>
<trkpt lat="42.871235" lon="-2.1147614">
<ele>1108</ele>
<time>2014-10-05T17:49:59Z</time>
</trkpt>
<trkpt lat="42.871235" lon="-2.1147559">
<ele>1108</ele>
<time>2014-10-05T17:50:01Z</time>
</trkpt>
<trkpt lat="42.871243" lon="-2.1147468">
<ele>1106</ele>
<time>2014-10-05T17:50:02Z</time>
</trkpt>
<trkpt lat="42.87124" lon="-2.1147492">
<ele>1107</ele>
<time>2014-10-05T17:50:05Z</time>
</trkpt>
<trkpt lat="42.87124" lon="-2.1147516">
<ele>1107</ele>
<time>2014-10-05T17:50:07Z</time>
</trkpt>
<trkpt lat="42.871243" lon="-2.1147487">
<ele>1106</ele>
<time>2014-10-05T17:50:09Z</time>
</trkpt>
<trkpt lat="42.87124" lon="-2.1147466">
<ele>1106</ele>
<time>2014-10-05T17:50:11Z</time>
</trkpt>
<trkpt lat="42.871235" lon="-2.1147451">
<ele>1106</ele>
<time>2014-10-05T17:50:13Z</time>
</trkpt>
<trkpt lat="42.871235" lon="-2.1147425">
<ele>1106</ele>
<time>2014-10-05T17:50:15Z</time>
</trkpt>
<trkpt lat="42.87124" lon="-2.1147425">
<ele>1106</ele>
<time>2014-10-05T17:50:17Z</time>
</trkpt>
<trkpt lat="42.87124" lon="-2.1147401">
<ele>1106</ele>
<time>2014-10-05T17:50:19Z</time>
</trkpt>
<trkpt lat="42.87124" lon="-2.1147406">
<ele>1107</ele>
<time>2014-10-05T17:50:20Z</time>
</trkpt>
<trkpt lat="42.87124" lon="-2.114741">
<ele>1107</ele>
<time>2014-10-05T17:50:23Z</time>
</trkpt>
<trkpt lat="42.87123" lon="-2.1147053">
<ele>1107</ele>
<time>2014-10-05T17:50:25Z</time>
</trkpt>
<trkpt lat="42.871246" lon="-2.1146393">
<ele>1106</ele>
<time>2014-10-05T17:50:27Z</time>
</trkpt>
<trkpt lat="42.87133" lon="-2.1145751">
<ele>1102</ele>
<time>2014-10-05T17:50:29Z</time>
</trkpt>
<trkpt lat="42.87142" lon="-2.1145136">
<ele>1101</ele>
<time>2014-10-05T17:50:31Z</time>
</trkpt>
<trkpt lat="42.87155" lon="-2.1144621">
<ele>1102</ele>
<time>2014-10-05T17:50:32Z</time>
</trkpt>
<trkpt lat="42.871655" lon="-2.1143813">
<ele>1102</ele>
<time>2014-10-05T17:50:35Z</time>
</trkpt>
<trkpt lat="42.871685" lon="-2.1141818">
<ele>1102</ele>
<time>2014-10-05T17:50:37Z</time>
</trkpt>
<trkpt lat="42.871704" lon="-2.1139297">
<ele>1098</ele>
<time>2014-10-05T17:50:39Z</time>
</trkpt>
<trkpt lat="42.871746" lon="-2.113687">
<ele>1098</ele>
<time>2014-10-05T17:50:41Z</time>
</trkpt>
<trkpt lat="42.87175" lon="-2.1134338">
<ele>1100</ele>
<time>2014-10-05T17:50:43Z</time>
</trkpt>
<trkpt lat="42.871758" lon="-2.11319">
<ele>1098</ele>
<time>2014-10-05T17:50:45Z</time>
</trkpt>
<trkpt lat="42.871777" lon="-2.1129377">
<ele>1096</ele>
<time>2014-10-05T17:50:47Z</time>
</trkpt>
<trkpt lat="42.871815" lon="-2.112679">
<ele>1098</ele>
<time>2014-10-05T17:50:49Z</time>
</trkpt>
<trkpt lat="42.871853" lon="-2.1124504">
<ele>1100</ele>
<time>2014-10-05T17:50:51Z</time>
</trkpt>
<trkpt lat="42.871914" lon="-2.112227">
<ele>1098</ele>
<time>2014-10-05T17:50:53Z</time>
</trkpt>
<trkpt lat="42.871967" lon="-2.1119483">
<ele>1097</ele>
<time>2014-10-05T17:50:55Z</time>
</trkpt>
<trkpt lat="42.872044" lon="-2.1117303">
<ele>1097</ele>
<time>2014-10-05T17:50:57Z</time>
</trkpt>
<trkpt lat="42.872097" lon="-2.111512">
<ele>1097</ele>
<time>2014-10-05T17:50:59Z</time>
</trkpt>
<trkpt lat="42.872135" lon="-2.1112988">
<ele>1098</ele>
<time>2014-10-05T17:51:01Z</time>
</trkpt>
<trkpt lat="42.872192" lon="-2.1110957">
<ele>1097</ele>
<time>2014-10-05T17:51:03Z</time>
</trkpt>
<trkpt lat="42.87225" lon="-2.11089">
<ele>1098</ele>
<time>2014-10-05T17:51:05Z</time>
</trkpt>
<trkpt lat="42.872307" lon="-2.1106846">
<ele>1098</ele>
<time>2014-10-05T17:51:07Z</time>
</trkpt>
<trkpt lat="42.87237" lon="-2.1105225">
<ele>1098</ele>
<time>2014-10-05T17:51:09Z</time>
</trkpt>
<trkpt lat="42.872437" lon="-2.1103377">
<ele>1098</ele>
<time>2014-10-05T17:51:11Z</time>
</trkpt>
<trkpt lat="42.872505" lon="-2.1101387">
<ele>1098</ele>
<time>2014-10-05T17:51:13Z</time>
</trkpt>
<trkpt lat="42.872578" lon="-2.1099386">
<ele>1099</ele>
<time>2014-10-05T17:51:15Z</time>
</trkpt>
<trkpt lat="42.872643" lon="-2.1097498">
<ele>1100</ele>
<time>2014-10-05T17:51:17Z</time>
</trkpt>
<trkpt lat="42.872692" lon="-2.1095486">
<ele>1100</ele>
<time>2014-10-05T17:51:19Z</time>
</trkpt>
<trkpt lat="42.87274" lon="-2.1093514">
<ele>1101</ele>
<time>2014-10-05T17:51:21Z</time>
</trkpt>
<trkpt lat="42.872772" lon="-2.109147">
<ele>1101</ele>
<time>2014-10-05T17:51:23Z</time>
</trkpt>
<trkpt lat="42.87283" lon="-2.1089427">
<ele>1103</ele>
<time>2014-10-05T17:51:25Z</time>
</trkpt>
<trkpt lat="42.87289" lon="-2.1087327">
<ele>1105</ele>
<time>2014-10-05T17:51:27Z</time>
</trkpt>
<trkpt lat="42.87294" lon="-2.1084964">
<ele>1107</ele>
<time>2014-10-05T17:51:29Z</time>
</trkpt>
<trkpt lat="42.87297" lon="-2.1082258">
<ele>1107</ele>
<time>2014-10-05T17:51:31Z</time>
</trkpt>
<trkpt lat="42.87302" lon="-2.1079433">
<ele>1109</ele>
<time>2014-10-05T17:51:33Z</time>
</trkpt>
<trkpt lat="42.87307" lon="-2.107703">
<ele>1110</ele>
<time>2014-10-05T17:51:35Z</time>
</trkpt>
<trkpt lat="42.873123" lon="-2.1074598">
<ele>1110</ele>
<time>2014-10-05T17:51:37Z</time>
</trkpt>
<trkpt lat="42.87318" lon="-2.1071932">
<ele>1111</ele>
<time>2014-10-05T17:51:39Z</time>
</trkpt>
<trkpt lat="42.87322" lon="-2.1069496">
<ele>1113</ele>
<time>2014-10-05T17:51:41Z</time>
</trkpt>
<trkpt lat="42.873287" lon="-2.1067169">
<ele>1114</ele>
<time>2014-10-05T17:51:43Z</time>
</trkpt>
<trkpt lat="42.873344" lon="-2.1064887">
<ele>1117</ele>
<time>2014-10-05T17:51:45Z</time>
</trkpt>
<trkpt lat="42.873398" lon="-2.1062577">
<ele>1116</ele>
<time>2014-10-05T17:51:47Z</time>
</trkpt>
<trkpt lat="42.87341" lon="-2.1060174">
<ele>1115</ele>
<time>2014-10-05T17:51:49Z</time>
</trkpt>
<trkpt lat="42.873447" lon="-2.1057541">
<ele>1114</ele>
<time>2014-10-05T17:51:51Z</time>
</trkpt>
<trkpt lat="42.87349" lon="-2.1054828">
<ele>1116</ele>
<time>2014-10-05T17:51:53Z</time>
</trkpt>
<trkpt lat="42.87354" lon="-2.105251">
<ele>1116</ele>
<time>2014-10-05T17:51:55Z</time>
</trkpt>
<trkpt lat="42.873608" lon="-2.105012">
<ele>1117</ele>
<time>2014-10-05T17:51:57Z</time>
</trkpt>
<trkpt lat="42.873684" lon="-2.104767">
<ele>1117</ele>
<time>2014-10-05T17:51:58Z</time>
</trkpt>
<trkpt lat="42.873703" lon="-2.1045172">
<ele>1121</ele>
<time>2014-10-05T17:52:01Z</time>
</trkpt>
<trkpt lat="42.873756" lon="-2.104353">
<ele>1122</ele>
<time>2014-10-05T17:52:03Z</time>
</trkpt>
<trkpt lat="42.87386" lon="-2.104183">
<ele>1122</ele>
<time>2014-10-05T17:52:05Z</time>
</trkpt>
<trkpt lat="42.87395" lon="-2.1039865">
<ele>1125</ele>
<time>2014-10-05T17:52:07Z</time>
</trkpt>
<trkpt lat="42.874012" lon="-2.1038005">
<ele>1126</ele>
<time>2014-10-05T17:52:09Z</time>
</trkpt>
<trkpt lat="42.87407" lon="-2.1035912">
<ele>1125</ele>
<time>2014-10-05T17:52:11Z</time>
</trkpt>
<trkpt lat="42.87412" lon="-2.1033487">
<ele>1126</ele>
<time>2014-10-05T17:52:13Z</time>
</trkpt>
<trkpt lat="42.874172" lon="-2.1031685">
<ele>1129</ele>
<time>2014-10-05T17:52:15Z</time>
</trkpt>
<trkpt lat="42.874245" lon="-2.1029723">
<ele>1131</ele>
<time>2014-10-05T17:52:17Z</time>
</trkpt>
<trkpt lat="42.874317" lon="-2.1028094">
<ele>1134</ele>
<time>2014-10-05T17:52:19Z</time>
</trkpt>
<trkpt lat="42.874413" lon="-2.1026554">
<ele>1134</ele>
<time>2014-10-05T17:52:21Z</time>
</trkpt>
<trkpt lat="42.87452" lon="-2.1024854">
<ele>1137</ele>
<time>2014-10-05T17:52:23Z</time>
</trkpt>
<trkpt lat="42.874577" lon="-2.1023777">
<ele>1137</ele>
<time>2014-10-05T17:52:25Z</time>
</trkpt>
<trkpt lat="42.87467" lon="-2.1022608">
<ele>1138</ele>
<time>2014-10-05T17:52:27Z</time>
</trkpt>
<trkpt lat="42.874775" lon="-2.1022027">
<ele>1138</ele>
<time>2014-10-05T17:52:29Z</time>
</trkpt>
<trkpt lat="42.874878" lon="-2.1021826">
<ele>1139</ele>
<time>2014-10-05T17:52:31Z</time>
</trkpt>
<trkpt lat="42.87498" lon="-2.1021132">
<ele>1138</ele>
<time>2014-10-05T17:52:33Z</time>
</trkpt>
<trkpt lat="42.87508" lon="-2.1020253">
<ele>1140</ele>
<time>2014-10-05T17:52:35Z</time>
</trkpt>
<trkpt lat="42.875183" lon="-2.1019413">
<ele>1141</ele>
<time>2014-10-05T17:52:37Z</time>
</trkpt>
<trkpt lat="42.875282" lon="-2.101807">
<ele>1142</ele>
<time>2014-10-05T17:52:39Z</time>
</trkpt>
<trkpt lat="42.875385" lon="-2.1016917">
<ele>1142</ele>
<time>2014-10-05T17:52:41Z</time>
</trkpt>
<trkpt lat="42.875504" lon="-2.1016014">
<ele>1142</ele>
<time>2014-10-05T17:52:43Z</time>
</trkpt>
<trkpt lat="42.87563" lon="-2.1014736">
<ele>1144</ele>
<time>2014-10-05T17:52:45Z</time>
</trkpt>
<trkpt lat="42.875744" lon="-2.101318">
<ele>1145</ele>
<time>2014-10-05T17:52:47Z</time>
</trkpt>
<trkpt lat="42.87585" lon="-2.1012034">
<ele>1149</ele>
<time>2014-10-05T17:52:49Z</time>
</trkpt>
<trkpt lat="42.875908" lon="-2.101104">
<ele>1150</ele>
<time>2014-10-05T17:52:51Z</time>
</trkpt>
<trkpt lat="42.876038" lon="-2.1011128">
<ele>1146</ele>
<time>2014-10-05T17:52:53Z</time>
</trkpt>
<trkpt lat="42.87606" lon="-2.101304">
<ele>1146</ele>
<time>2014-10-05T17:52:55Z</time>
</trkpt>
<trkpt lat="42.876003" lon="-2.1014292">
<ele>1147</ele>
<time>2014-10-05T17:52:57Z</time>
</trkpt>
<trkpt lat="42.875904" lon="-2.1015093">
<ele>1148</ele>
<time>2014-10-05T17:52:59Z</time>
</trkpt>
<trkpt lat="42.875713" lon="-2.10157">
<ele>1149</ele>
<time>2014-10-05T17:53:01Z</time>
</trkpt>
<trkpt lat="42.87554" lon="-2.1016045">
<ele>1149</ele>
<time>2014-10-05T17:53:03Z</time>
</trkpt>
<trkpt lat="42.875378" lon="-2.1016266">
<ele>1149</ele>
<time>2014-10-05T17:53:05Z</time>
</trkpt>
<trkpt lat="42.875183" lon="-2.1016788">
<ele>1149</ele>
<time>2014-10-05T17:53:07Z</time>
</trkpt>
<trkpt lat="42.874996" lon="-2.101789">
<ele>1152</ele>
<time>2014-10-05T17:53:09Z</time>
</trkpt>
<trkpt lat="42.874836" lon="-2.10187">
<ele>1152</ele>
<time>2014-10-05T17:53:11Z</time>
</trkpt>
<trkpt lat="42.87475" lon="-2.102018">
<ele>1152</ele>
<time>2014-10-05T17:53:13Z</time>
</trkpt>
<trkpt lat="42.87471" lon="-2.102227">
<ele>1154</ele>
<time>2014-10-05T17:53:15Z</time>
</trkpt>
<trkpt lat="42.874683" lon="-2.102434">
<ele>1156</ele>
<time>2014-10-05T17:53:17Z</time>
</trkpt>
<trkpt lat="42.87472" lon="-2.1025145">
<ele>1159</ele>
<time>2014-10-05T17:53:19Z</time>
</trkpt>
<trkpt lat="42.87472" lon="-2.1026149">
<ele>1160</ele>
<time>2014-10-05T17:53:21Z</time>
</trkpt>
<trkpt lat="42.874687" lon="-2.1027892">
<ele>1160</ele>
<time>2014-10-05T17:53:23Z</time>
</trkpt>
<trkpt lat="42.87466" lon="-2.1029396">
<ele>1162</ele>
<time>2014-10-05T17:53:25Z</time>
</trkpt>
<trkpt lat="42.8746" lon="-2.103093">
<ele>1163</ele>
<time>2014-10-05T17:53:27Z</time>
</trkpt>
<trkpt lat="42.87454" lon="-2.1032732">
<ele>1163</ele>
<time>2014-10-05T17:53:29Z</time>
</trkpt>
<trkpt lat="42.874516" lon="-2.103439">
<ele>1166</ele>
<time>2014-10-05T17:53:31Z</time>
</trkpt>
<trkpt lat="42.8745" lon="-2.1036015">
<ele>1167</ele>
<time>2014-10-05T17:53:33Z</time>
</trkpt>
<trkpt lat="42.87445" lon="-2.1037285">
<ele>1167</ele>
<time>2014-10-05T17:53:35Z</time>
</trkpt>
<trkpt lat="42.874386" lon="-2.1038697">
<ele>1167</ele>
<time>2014-10-05T17:53:37Z</time>
</trkpt>
<trkpt lat="42.87434" lon="-2.104011">
<ele>1167</ele>
<time>2014-10-05T17:53:39Z</time>
</trkpt>
<trkpt lat="42.874294" lon="-2.1041613">
<ele>1167</ele>
<time>2014-10-05T17:53:41Z</time>
</trkpt>
<trkpt lat="42.874264" lon="-2.1043534">
<ele>1169</ele>
<time>2014-10-05T17:53:43Z</time>
</trkpt>
<trkpt lat="42.8742" lon="-2.1045296">
<ele>1170</ele>
<time>2014-10-05T17:53:45Z</time>
</trkpt>
<trkpt lat="42.874184" lon="-2.1046605">
<ele>1172</ele>
<time>2014-10-05T17:53:46Z</time>
</trkpt>
<trkpt lat="42.87422" lon="-2.1047883">
<ele>1172</ele>
<time>2014-10-05T17:53:49Z</time>
</trkpt>
<trkpt lat="42.874348" lon="-2.1048427">
<ele>1173</ele>
<time>2014-10-05T17:53:51Z</time>
</trkpt>
<trkpt lat="42.87446" lon="-2.1048698">
<ele>1174</ele>
<time>2014-10-05T17:53:53Z</time>
</trkpt>
<trkpt lat="42.874516" lon="-2.1048365">
<ele>1174</ele>
<time>2014-10-05T17:53:55Z</time>
</trkpt>
<trkpt lat="42.874615" lon="-2.104851">
<ele>1173</ele>
<time>2014-10-05T17:53:57Z</time>
</trkpt>
<trkpt lat="42.874695" lon="-2.1049318">
<ele>1171</ele>
<time>2014-10-05T17:53:59Z</time>
</trkpt>
<trkpt lat="42.874733" lon="-2.1050596">
<ele>1171</ele>
<time>2014-10-05T17:54:01Z</time>
</trkpt>
<trkpt lat="42.874744" lon="-2.1052184">
<ele>1170</ele>
<time>2014-10-05T17:54:03Z</time>
</trkpt>
<trkpt lat="42.874763" lon="-2.1053884">
<ele>1172</ele>
<time>2014-10-05T17:54:05Z</time>
</trkpt>
<trkpt lat="42.87477" lon="-2.1055284">
<ele>1173</ele>
<time>2014-10-05T17:54:07Z</time>
</trkpt>
<trkpt lat="42.874756" lon="-2.1056736">
<ele>1173</ele>
<time>2014-10-05T17:54:09Z</time>
</trkpt>
<trkpt lat="42.874756" lon="-2.105833">
<ele>1172</ele>
<time>2014-10-05T17:54:11Z</time>
</trkpt>
<trkpt lat="42.874767" lon="-2.1059926">
<ele>1170</ele>
<time>2014-10-05T17:54:13Z</time>
</trkpt>
<trkpt lat="42.874775" lon="-2.1061532">
<ele>1166</ele>
<time>2014-10-05T17:54:15Z</time>
</trkpt>
<trkpt lat="42.87478" lon="-2.1063347">
<ele>1162</ele>
<time>2014-10-05T17:54:17Z</time>
</trkpt>
<trkpt lat="42.874866" lon="-2.106449">
<ele>1157</ele>
<time>2014-10-05T17:54:19Z</time>
</trkpt>
<trkpt lat="42.87496" lon="-2.1065564">
<ele>1152</ele>
<time>2014-10-05T17:54:21Z</time>
</trkpt>
<trkpt lat="42.87494" lon="-2.1067786">
<ele>1147</ele>
<time>2014-10-05T17:54:23Z</time>
</trkpt>
<trkpt lat="42.874863" lon="-2.1069813">
<ele>1146</ele>
<time>2014-10-05T17:54:25Z</time>
</trkpt>
<trkpt lat="42.87481" lon="-2.107158">
<ele>1145</ele>
<time>2014-10-05T17:54:27Z</time>
</trkpt>
<trkpt lat="42.874763" lon="-2.1073427">
<ele>1143</ele>
<time>2014-10-05T17:54:29Z</time>
</trkpt>
<trkpt lat="42.874695" lon="-2.1075158">
<ele>1140</ele>
<time>2014-10-05T17:54:31Z</time>
</trkpt>
<trkpt lat="42.87462" lon="-2.10768">
<ele>1136</ele>
<time>2014-10-05T17:54:33Z</time>
</trkpt>
<trkpt lat="42.874504" lon="-2.107826">
<ele>1133</ele>
<time>2014-10-05T17:54:35Z</time>
</trkpt>
<trkpt lat="42.874344" lon="-2.1079721">
<ele>1131</ele>
<time>2014-10-05T17:54:37Z</time>
</trkpt>
<trkpt lat="42.87425" lon="-2.1081169">
<ele>1130</ele>
<time>2014-10-05T17:54:39Z</time>
</trkpt>
<trkpt lat="42.87422" lon="-2.1082242">
<ele>1130</ele>
<time>2014-10-05T17:54:41Z</time>
</trkpt>
<trkpt lat="42.874146" lon="-2.108363">
<ele>1129</ele>
<time>2014-10-05T17:54:42Z</time>
</trkpt>
<trkpt lat="42.873882" lon="-2.108515">
<ele>1127</ele>
<time>2014-10-05T17:54:46Z</time>
</trkpt>
<trkpt lat="42.873726" lon="-2.1086195">
<ele>1124</ele>
<time>2014-10-05T17:54:48Z</time>
</trkpt>
<trkpt lat="42.873592" lon="-2.1087403">
<ele>1122</ele>
<time>2014-10-05T17:54:50Z</time>
</trkpt>
<trkpt lat="42.873493" lon="-2.108817">
<ele>1124</ele>
<time>2014-10-05T17:54:52Z</time>
</trkpt>
<trkpt lat="42.873425" lon="-2.1089487">
<ele>1123</ele>
<time>2014-10-05T17:54:54Z</time>
</trkpt>
<trkpt lat="42.873367" lon="-2.1091142">
<ele>1123</ele>
<time>2014-10-05T17:54:56Z</time>
</trkpt>
<trkpt lat="42.873394" lon="-2.1091778">
<ele>1123</ele>
<time>2014-10-05T17:54:58Z</time>
</trkpt>
<trkpt lat="42.87342" lon="-2.109285">
<ele>1123</ele>
<time>2014-10-05T17:55:00Z</time>
</trkpt>
<trkpt lat="42.87344" lon="-2.1094325">
<ele>1123</ele>
<time>2014-10-05T17:55:02Z</time>
</trkpt>
<trkpt lat="42.87345" lon="-2.109558">
<ele>1126</ele>
<time>2014-10-05T17:55:04Z</time>
</trkpt>
<trkpt lat="42.873486" lon="-2.1096668">
<ele>1128</ele>
<time>2014-10-05T17:55:06Z</time>
</trkpt>
<trkpt lat="42.873512" lon="-2.1097932">
<ele>1129</ele>
<time>2014-10-05T17:55:08Z</time>
</trkpt>
<trkpt lat="42.87354" lon="-2.109939">
<ele>1130</ele>
<time>2014-10-05T17:55:10Z</time>
</trkpt>
<trkpt lat="42.87335" lon="-2.110035">
<ele>1128</ele>
<time>2014-10-05T17:55:12Z</time>
</trkpt>
<trkpt lat="42.873203" lon="-2.1101513">
<ele>1128</ele>
<time>2014-10-05T17:55:14Z</time>
</trkpt>
<trkpt lat="42.873013" lon="-2.110151">
<ele>1129</ele>
<time>2014-10-05T17:55:16Z</time>
</trkpt>
<trkpt lat="42.873123" lon="-2.1095085">
<ele>1131</ele>
<time>2014-10-05T17:55:18Z</time>
</trkpt>
<trkpt lat="42.873085" lon="-2.1092575">
<ele>1127</ele>
<time>2014-10-05T17:55:20Z</time>
</trkpt>
<trkpt lat="42.873123" lon="-2.1089714">
<ele>1127</ele>
<time>2014-10-05T17:55:22Z</time>
</trkpt>
<trkpt lat="42.87317" lon="-2.1087096">
<ele>1129</ele>
<time>2014-10-05T17:55:23Z</time>
</trkpt>
<trkpt lat="42.87319" lon="-2.108446">
<ele>1128</ele>
<time>2014-10-05T17:55:26Z</time>
</trkpt>
<trkpt lat="42.87319" lon="-2.1081269">
<ele>1126</ele>
<time>2014-10-05T17:55:28Z</time>
</trkpt>
<trkpt lat="42.873222" lon="-2.1078386">
<ele>1127</ele>
<time>2014-10-05T17:55:29Z</time>
</trkpt>
<trkpt lat="42.873264" lon="-2.107552">
<ele>1127</ele>
<time>2014-10-05T17:55:32Z</time>
</trkpt>
<trkpt lat="42.873314" lon="-2.1073217">
<ele>1125</ele>
<time>2014-10-05T17:55:34Z</time>
</trkpt>
<trkpt lat="42.87339" lon="-2.1070786">
<ele>1125</ele>
<time>2014-10-05T17:55:36Z</time>
</trkpt>
<trkpt lat="42.87346" lon="-2.106837">
<ele>1129</ele>
<time>2014-10-05T17:55:38Z</time>
</trkpt>
<trkpt lat="42.87351" lon="-2.1065977">
<ele>1129</ele>
<time>2014-10-05T17:55:40Z</time>
</trkpt>
<trkpt lat="42.873566" lon="-2.1063654">
<ele>1130</ele>
<time>2014-10-05T17:55:42Z</time>
</trkpt>
<trkpt lat="42.873573" lon="-2.1060722">
<ele>1130</ele>
<time>2014-10-05T17:55:44Z</time>
</trkpt>
<trkpt lat="42.873573" lon="-2.105802">
<ele>1131</ele>
<time>2014-10-05T17:55:46Z</time>
</trkpt>
<trkpt lat="42.873608" lon="-2.105536">
<ele>1133</ele>
<time>2014-10-05T17:55:48Z</time>
</trkpt>
<trkpt lat="42.873608" lon="-2.1052785">
<ele>1136</ele>
<time>2014-10-05T17:55:50Z</time>
</trkpt>
<trkpt lat="42.873634" lon="-2.105028">
<ele>1135</ele>
<time>2014-10-05T17:55:52Z</time>
</trkpt>
<trkpt lat="42.87368" lon="-2.1047935">
<ele>1137</ele>
<time>2014-10-05T17:55:54Z</time>
</trkpt>
<trkpt lat="42.873787" lon="-2.1046665">
<ele>1136</ele>
<time>2014-10-05T17:55:56Z</time>
</trkpt>
<trkpt lat="42.873894" lon="-2.1046755">
<ele>1136</ele>
<time>2014-10-05T17:55:58Z</time>
</trkpt>
<trkpt lat="42.87399" lon="-2.1047113">
<ele>1135</ele>
<time>2014-10-05T17:56:00Z</time>
</trkpt>
<trkpt lat="42.8741" lon="-2.1047277">
<ele>1136</ele>
<time>2014-10-05T17:56:02Z</time>
</trkpt>
<trkpt lat="42.8742" lon="-2.1047697">
<ele>1137</ele>
<time>2014-10-05T17:56:04Z</time>
</trkpt>
<trkpt lat="42.874306" lon="-2.104813">
<ele>1136</ele>
<time>2014-10-05T17:56:06Z</time>
</trkpt>
<trkpt lat="42.87444" lon="-2.1047971">
<ele>1137</ele>
<time>2014-10-05T17:56:08Z</time>
</trkpt>
<trkpt lat="42.87455" lon="-2.1047778">
<ele>1138</ele>
<time>2014-10-05T17:56:10Z</time>
</trkpt>
<trkpt lat="42.87466" lon="-2.1047442">
<ele>1138</ele>
<time>2014-10-05T17:56:12Z</time>
</trkpt>
<trkpt lat="42.874786" lon="-2.1046782">
<ele>1138</ele>
<time>2014-10-05T17:56:14Z</time>
</trkpt>
<trkpt lat="42.8749" lon="-2.104563">
<ele>1136</ele>
<time>2014-10-05T17:56:16Z</time>
</trkpt>
<trkpt lat="42.87502" lon="-2.1044307">
<ele>1137</ele>
<time>2014-10-05T17:56:18Z</time>
</trkpt>
<trkpt lat="42.875153" lon="-2.1042438">
<ele>1136</ele>
<time>2014-10-05T17:56:20Z</time>
</trkpt>
<trkpt lat="42.875248" lon="-2.104061">
<ele>1136</ele>
<time>2014-10-05T17:56:21Z</time>
</trkpt>
<trkpt lat="42.875317" lon="-2.1038353">
<ele>1134</ele>
<time>2014-10-05T17:56:24Z</time>
</trkpt>
<trkpt lat="42.875378" lon="-2.1035948">
<ele>1134</ele>
<time>2014-10-05T17:56:26Z</time>
</trkpt>
<trkpt lat="42.875473" lon="-2.103399">
<ele>1132</ele>
<time>2014-10-05T17:56:28Z</time>
</trkpt>
<trkpt lat="42.87558" lon="-2.1031685">
<ele>1133</ele>
<time>2014-10-05T17:56:30Z</time>
</trkpt>
<trkpt lat="42.87568" lon="-2.1030476">
<ele>1133</ele>
<time>2014-10-05T17:56:32Z</time>
</trkpt>
<trkpt lat="42.875813" lon="-2.1029475">
<ele>1130</ele>
<time>2014-10-05T17:56:34Z</time>
</trkpt>
<trkpt lat="42.87592" lon="-2.1027784">
<ele>1129</ele>
<time>2014-10-05T17:56:36Z</time>
</trkpt>
<trkpt lat="42.876053" lon="-2.102644">
<ele>1127</ele>
<time>2014-10-05T17:56:38Z</time>
</trkpt>
<trkpt lat="42.876156" lon="-2.1025426">
<ele>1126</ele>
<time>2014-10-05T17:56:40Z</time>
</trkpt>
<trkpt lat="42.876236" lon="-2.1023214">
<ele>1127</ele>
<time>2014-10-05T17:56:41Z</time>
</trkpt>
<trkpt lat="42.876312" lon="-2.102079">
<ele>1129</ele>
<time>2014-10-05T17:56:44Z</time>
</trkpt>
<trkpt lat="42.876446" lon="-2.101883">
<ele>1130</ele>
<time>2014-10-05T17:56:46Z</time>
</trkpt>
<trkpt lat="42.87654" lon="-2.1016917">
<ele>1130</ele>
<time>2014-10-05T17:56:48Z</time>
</trkpt>
<trkpt lat="42.87666" lon="-2.1016824">
<ele>1133</ele>
<time>2014-10-05T17:56:50Z</time>
</trkpt>
<trkpt lat="42.876755" lon="-2.1015441">
<ele>1131</ele>
<time>2014-10-05T17:56:52Z</time>
</trkpt>
<trkpt lat="42.87689" lon="-2.1014314">
<ele>1131</ele>
<time>2014-10-05T17:56:54Z</time>
</trkpt>
<trkpt lat="42.877007" lon="-2.1012866">
<ele>1131</ele>
<time>2014-10-05T17:56:56Z</time>
</trkpt>
<trkpt lat="42.87713" lon="-2.101142">
<ele>1129</ele>
<time>2014-10-05T17:56:58Z</time>
</trkpt>
<trkpt lat="42.877235" lon="-2.1010094">
<ele>1131</ele>
<time>2014-10-05T17:57:00Z</time>
</trkpt>
<trkpt lat="42.877357" lon="-2.1008763">
<ele>1133</ele>
<time>2014-10-05T17:57:02Z</time>
</trkpt>
<trkpt lat="42.87747" lon="-2.1007926">
<ele>1134</ele>
<time>2014-10-05T17:57:04Z</time>
</trkpt>
<trkpt lat="42.87758" lon="-2.1008105">
<ele>1133</ele>
<time>2014-10-05T17:57:06Z</time>
</trkpt>
<trkpt lat="42.8776" lon="-2.1009097">
<ele>1131</ele>
<time>2014-10-05T17:57:08Z</time>
</trkpt>
<trkpt lat="42.87733" lon="-2.1010923">
<ele>1136</ele>
<time>2014-10-05T17:57:10Z</time>
</trkpt>
<trkpt lat="42.877216" lon="-2.1011858">
<ele>1133</ele>
<time>2014-10-05T17:57:12Z</time>
</trkpt>
<trkpt lat="42.87707" lon="-2.1012745">
<ele>1133</ele>
<time>2014-10-05T17:57:13Z</time>
</trkpt>
<trkpt lat="42.876915" lon="-2.1014402">
<ele>1133</ele>
<time>2014-10-05T17:57:16Z</time>
</trkpt>
<trkpt lat="42.876766" lon="-2.1015465">
<ele>1133</ele>
<time>2014-10-05T17:57:18Z</time>
</trkpt>
<trkpt lat="42.876644" lon="-2.1017246">
<ele>1133</ele>
<time>2014-10-05T17:57:20Z</time>
</trkpt>
<trkpt lat="42.876556" lon="-2.101901">
<ele>1136</ele>
<time>2014-10-05T17:57:22Z</time>
</trkpt>
<trkpt lat="42.876472" lon="-2.1020372">
<ele>1138</ele>
<time>2014-10-05T17:57:24Z</time>
</trkpt>
<trkpt lat="42.876434" lon="-2.10216">
<ele>1138</ele>
<time>2014-10-05T17:57:26Z</time>
</trkpt>
<trkpt lat="42.876328" lon="-2.102316">
<ele>1138</ele>
<time>2014-10-05T17:57:28Z</time>
</trkpt>
<trkpt lat="42.87629" lon="-2.1024601">
<ele>1139</ele>
<time>2014-10-05T17:57:30Z</time>
</trkpt>
<trkpt lat="42.87624" lon="-2.1026168">
<ele>1138</ele>
<time>2014-10-05T17:57:31Z</time>
</trkpt>
<trkpt lat="42.876217" lon="-2.1028118">
<ele>1138</ele>
<time>2014-10-05T17:57:34Z</time>
</trkpt>
<trkpt lat="42.87617" lon="-2.1029727">
<ele>1137</ele>
<time>2014-10-05T17:57:36Z</time>
</trkpt>
<trkpt lat="42.876106" lon="-2.1031387">
<ele>1136</ele>
<time>2014-10-05T17:57:38Z</time>
</trkpt>
<trkpt lat="42.876038" lon="-2.1033177">
<ele>1136</ele>
<time>2014-10-05T17:57:40Z</time>
</trkpt>
<trkpt lat="42.875996" lon="-2.10348">
<ele>1135</ele>
<time>2014-10-05T17:57:42Z</time>
</trkpt>
<trkpt lat="42.875957" lon="-2.1036246">
<ele>1135</ele>
<time>2014-10-05T17:57:44Z</time>
</trkpt>
<trkpt lat="42.875847" lon="-2.103771">
<ele>1134</ele>
<time>2014-10-05T17:57:46Z</time>
</trkpt>
<trkpt lat="42.875725" lon="-2.1038425">
<ele>1134</ele>
<time>2014-10-05T17:57:48Z</time>
</trkpt>
<trkpt lat="42.87557" lon="-2.1038513">
<ele>1133</ele>
<time>2014-10-05T17:57:50Z</time>
</trkpt>
<trkpt lat="42.87538" lon="-2.1039803">
<ele>1135</ele>
<time>2014-10-05T17:57:52Z</time>
</trkpt>
<trkpt lat="42.87519" lon="-2.1040914">
<ele>1136</ele>
<time>2014-10-05T17:57:54Z</time>
</trkpt>
<trkpt lat="42.875042" lon="-2.104211">
<ele>1138</ele>
<time>2014-10-05T17:57:55Z</time>
</trkpt>
<trkpt lat="42.874878" lon="-2.1042824">
<ele>1139</ele>
<time>2014-10-05T17:57:58Z</time>
</trkpt>
<trkpt lat="42.87472" lon="-2.1044037">
<ele>1141</ele>
<time>2014-10-05T17:58:00Z</time>
</trkpt>
<trkpt lat="42.874565" lon="-2.1045313">
<ele>1142</ele>
<time>2014-10-05T17:58:02Z</time>
</trkpt>
<trkpt lat="42.8745" lon="-2.1046627">
<ele>1142</ele>
<time>2014-10-05T17:58:04Z</time>
</trkpt>
<trkpt lat="42.87445" lon="-2.104797">
<ele>1141</ele>
<time>2014-10-05T17:58:06Z</time>
</trkpt>
<trkpt lat="42.87438" lon="-2.1048994">
<ele>1140</ele>
<time>2014-10-05T17:58:08Z</time>
</trkpt>
<trkpt lat="42.874325" lon="-2.1050398">
<ele>1140</ele>
<time>2014-10-05T17:58:10Z</time>
</trkpt>
<trkpt lat="42.87422" lon="-2.105209">
<ele>1140</ele>
<time>2014-10-05T17:58:12Z</time>
</trkpt>
<trkpt lat="42.874104" lon="-2.1053538">
<ele>1141</ele>
<time>2014-10-05T17:58:13Z</time>
</trkpt>
<trkpt lat="42.874023" lon="-2.1055548">
<ele>1143</ele>
<time>2014-10-05T17:58:15Z</time>
</trkpt>
<trkpt lat="42.873943" lon="-2.105756">
<ele>1143</ele>
<time>2014-10-05T17:58:18Z</time>
</trkpt>
<trkpt lat="42.873844" lon="-2.105948">
<ele>1144</ele>
<time>2014-10-05T17:58:20Z</time>
</trkpt>
<trkpt lat="42.873734" lon="-2.1061857">
<ele>1144</ele>
<time>2014-10-05T17:58:21Z</time>
</trkpt>
<trkpt lat="42.87371" lon="-2.1062958">
<ele>1143</ele>
<time>2014-10-05T17:58:23Z</time>
</trkpt>
<trkpt lat="42.873608" lon="-2.1064706">
<ele>1144</ele>
<time>2014-10-05T17:58:25Z</time>
</trkpt>
<trkpt lat="42.873577" lon="-2.1065607">
<ele>1144</ele>
<time>2014-10-05T17:58:27Z</time>
</trkpt>
<trkpt lat="42.873524" lon="-2.1066742">
<ele>1144</ele>
<time>2014-10-05T17:58:30Z</time>
</trkpt>
<trkpt lat="42.87347" lon="-2.106851">
<ele>1145</ele>
<time>2014-10-05T17:58:32Z</time>
</trkpt>
<trkpt lat="42.873432" lon="-2.107028">
<ele>1145</ele>
<time>2014-10-05T17:58:34Z</time>
</trkpt>
<trkpt lat="42.873398" lon="-2.1071916">
<ele>1145</ele>
<time>2014-10-05T17:58:36Z</time>
</trkpt>
<trkpt lat="42.873356" lon="-2.1073875">
<ele>1144</ele>
<time>2014-10-05T17:58:38Z</time>
</trkpt>
<trkpt lat="42.873394" lon="-2.1075954">
<ele>1146</ele>
<time>2014-10-05T17:58:40Z</time>
</trkpt>
<trkpt lat="42.873398" lon="-2.1077254">
<ele>1145</ele>
<time>2014-10-05T17:58:42Z</time>
</trkpt>
<trkpt lat="42.87338" lon="-2.1078715">
<ele>1145</ele>
<time>2014-10-05T17:58:44Z</time>
</trkpt>
<trkpt lat="42.873394" lon="-2.10803">
<ele>1148</ele>
<time>2014-10-05T17:58:46Z</time>
</trkpt>
<trkpt lat="42.87341" lon="-2.108172">
<ele>1150</ele>
<time>2014-10-05T17:58:48Z</time>
</trkpt>
<trkpt lat="42.87342" lon="-2.1083524">
<ele>1150</ele>
<time>2014-10-05T17:58:50Z</time>
</trkpt>
<trkpt lat="42.87346" lon="-2.1085172">
<ele>1152</ele>
<time>2014-10-05T17:58:52Z</time>
</trkpt>
<trkpt lat="42.873447" lon="-2.1086748">
<ele>1155</ele>
<time>2014-10-05T17:58:54Z</time>
</trkpt>
<trkpt lat="42.87347" lon="-2.1087952">
<ele>1155</ele>
<time>2014-10-05T17:58:56Z</time>
</trkpt>
<trkpt lat="42.873444" lon="-2.108993">
<ele>1155</ele>
<time>2014-10-05T17:58:58Z</time>
</trkpt>
<trkpt lat="42.873444" lon="-2.1091118">
<ele>1155</ele>
<time>2014-10-05T17:59:00Z</time>
</trkpt>
<trkpt lat="42.87348" lon="-2.1092565">
<ele>1154</ele>
<time>2014-10-05T17:59:02Z</time>
</trkpt>
<trkpt lat="42.87352" lon="-2.1094065">
<ele>1155</ele>
<time>2014-10-05T17:59:04Z</time>
</trkpt>
<trkpt lat="42.873493" lon="-2.1095428">
<ele>1156</ele>
<time>2014-10-05T17:59:06Z</time>
</trkpt>
<trkpt lat="42.87343" lon="-2.109705">
<ele>1156</ele>
<time>2014-10-05T17:59:08Z</time>
</trkpt>
<trkpt lat="42.87332" lon="-2.1099033">
<ele>1154</ele>
<time>2014-10-05T17:59:10Z</time>
</trkpt>
<trkpt lat="42.873253" lon="-2.110055">
<ele>1154</ele>
<time>2014-10-05T17:59:12Z</time>
</trkpt>
<trkpt lat="42.87315" lon="-2.1101885">
<ele>1154</ele>
<time>2014-10-05T17:59:14Z</time>
</trkpt>
<trkpt lat="42.873066" lon="-2.1103835">
<ele>1155</ele>
<time>2014-10-05T17:59:16Z</time>
</trkpt>
<trkpt lat="42.872967" lon="-2.1105075">
<ele>1155</ele>
<time>2014-10-05T17:59:18Z</time>
</trkpt>
<trkpt lat="42.872894" lon="-2.110675">
<ele>1154</ele>
<time>2014-10-05T17:59:20Z</time>
</trkpt>
<trkpt lat="42.87283" lon="-2.1108754">
<ele>1154</ele>
<time>2014-10-05T17:59:22Z</time>
</trkpt>
<trkpt lat="42.872765" lon="-2.1110158">
<ele>1156</ele>
<time>2014-10-05T17:59:24Z</time>
</trkpt>
<trkpt lat="42.872707" lon="-2.1111891">
<ele>1155</ele>
<time>2014-10-05T17:59:26Z</time>
</trkpt>
<trkpt lat="42.87265" lon="-2.1113427">
<ele>1156</ele>
<time>2014-10-05T17:59:28Z</time>
</trkpt>
<trkpt lat="42.87256" lon="-2.1115146">
<ele>1156</ele>
<time>2014-10-05T17:59:30Z</time>
</trkpt>
<trkpt lat="42.872414" lon="-2.1117084">
<ele>1157</ele>
<time>2014-10-05T17:59:32Z</time>
</trkpt>
<trkpt lat="42.872284" lon="-2.1119044">
<ele>1156</ele>
<time>2014-10-05T17:59:33Z</time>
</trkpt>
<trkpt lat="42.8722" lon="-2.112021">
<ele>1157</ele>
<time>2014-10-05T17:59:36Z</time>
</trkpt>
<trkpt lat="42.872135" lon="-2.1121652">
<ele>1157</ele>
<time>2014-10-05T17:59:38Z</time>
</trkpt>
<trkpt lat="42.872063" lon="-2.112312">
<ele>1157</ele>
<time>2014-10-05T17:59:40Z</time>
</trkpt>
<trkpt lat="42.872036" lon="-2.11246">
<ele>1156</ele>
<time>2014-10-05T17:59:42Z</time>
</trkpt>
<trkpt lat="42.871994" lon="-2.112616">
<ele>1155</ele>
<time>2014-10-05T17:59:44Z</time>
</trkpt>
<trkpt lat="42.87192" lon="-2.1127636">
<ele>1155</ele>
<time>2014-10-05T17:59:46Z</time>
</trkpt>
<trkpt lat="42.871925" lon="-2.1129382">
<ele>1153</ele>
<time>2014-10-05T17:59:48Z</time>
</trkpt>
<trkpt lat="42.87191" lon="-2.1130798">
<ele>1153</ele>
<time>2014-10-05T17:59:50Z</time>
</trkpt>
<trkpt lat="42.87191" lon="-2.1132317">
<ele>1152</ele>
<time>2014-10-05T17:59:52Z</time>
</trkpt>
<trkpt lat="42.87189" lon="-2.1133547">
<ele>1148</ele>
<time>2014-10-05T17:59:54Z</time>
</trkpt>
<trkpt lat="42.871902" lon="-2.1134906">
<ele>1145</ele>
<time>2014-10-05T17:59:56Z</time>
</trkpt>
<trkpt lat="42.87195" lon="-2.1136339">
<ele>1143</ele>
<time>2014-10-05T17:59:58Z</time>
</trkpt>
<trkpt lat="42.872" lon="-2.113725">
<ele>1140</ele>
<time>2014-10-05T18:00:00Z</time>
</trkpt>
<trkpt lat="42.872044" lon="-2.1138623">
<ele>1138</ele>
<time>2014-10-05T18:00:02Z</time>
</trkpt>
<trkpt lat="42.872036" lon="-2.1140258">
<ele>1137</ele>
<time>2014-10-05T18:00:04Z</time>
</trkpt>
<trkpt lat="42.872017" lon="-2.1141794">
<ele>1137</ele>
<time>2014-10-05T18:00:06Z</time>
</trkpt>
<trkpt lat="42.87202" lon="-2.114285">
<ele>1137</ele>
<time>2014-10-05T18:00:08Z</time>
</trkpt>
<trkpt lat="42.872036" lon="-2.1144204">
<ele>1134</ele>
<time>2014-10-05T18:00:10Z</time>
</trkpt>
<trkpt lat="42.872063" lon="-2.11457">
<ele>1132</ele>
<time>2014-10-05T18:00:12Z</time>
</trkpt>
<trkpt lat="42.872074" lon="-2.114708">
<ele>1133</ele>
<time>2014-10-05T18:00:14Z</time>
</trkpt>
<trkpt lat="42.872074" lon="-2.1148548">
<ele>1131</ele>
<time>2014-10-05T18:00:16Z</time>
</trkpt>
<trkpt lat="42.87208" lon="-2.115007">
<ele>1129</ele>
<time>2014-10-05T18:00:18Z</time>
</trkpt>
<trkpt lat="42.872066" lon="-2.1151307">
<ele>1128</ele>
<time>2014-10-05T18:00:20Z</time>
</trkpt>
<trkpt lat="42.87208" lon="-2.1152442">
<ele>1128</ele>
<time>2014-10-05T18:00:22Z</time>
</trkpt>
<trkpt lat="42.8721" lon="-2.1153767">
<ele>1126</ele>
<time>2014-10-05T18:00:24Z</time>
</trkpt>
<trkpt lat="42.872093" lon="-2.1155276">
<ele>1126</ele>
<time>2014-10-05T18:00:26Z</time>
</trkpt>
<trkpt lat="42.87211" lon="-2.1156497">
<ele>1124</ele>
<time>2014-10-05T18:00:28Z</time>
</trkpt>
<trkpt lat="42.872135" lon="-2.1157517">
<ele>1124</ele>
<time>2014-10-05T18:00:30Z</time>
</trkpt>
<trkpt lat="42.87215" lon="-2.115889">
<ele>1124</ele>
<time>2014-10-05T18:00:32Z</time>
</trkpt>
<trkpt lat="42.872147" lon="-2.1159964">
<ele>1119</ele>
<time>2014-10-05T18:00:33Z</time>
</trkpt>
<trkpt lat="42.87217" lon="-2.1160555">
<ele>1116</ele>
<time>2014-10-05T18:00:36Z</time>
</trkpt>
<trkpt lat="42.87222" lon="-2.1161764">
<ele>1114</ele>
<time>2014-10-05T18:00:38Z</time>
</trkpt>
<trkpt lat="42.872242" lon="-2.1163185">
<ele>1113</ele>
<time>2014-10-05T18:00:40Z</time>
</trkpt>
<trkpt lat="42.872257" lon="-2.1164167">
<ele>1112</ele>
<time>2014-10-05T18:00:42Z</time>
</trkpt>
<trkpt lat="42.872337" lon="-2.1164985">
<ele>1109</ele>
<time>2014-10-05T18:00:44Z</time>
</trkpt>
<trkpt lat="42.8724" lon="-2.1165855">
<ele>1110</ele>
<time>2014-10-05T18:00:46Z</time>
</trkpt>
<trkpt lat="42.8724" lon="-2.1167374">
<ele>1108</ele>
<time>2014-10-05T18:00:48Z</time>
</trkpt>
<trkpt lat="42.8724" lon="-2.116863">
<ele>1106</ele>
<time>2014-10-05T18:00:50Z</time>
</trkpt>
<trkpt lat="42.872513" lon="-2.116993">
<ele>1106</ele>
<time>2014-10-05T18:00:51Z</time>
</trkpt>
<trkpt lat="42.872616" lon="-2.1171067">
<ele>1106</ele>
<time>2014-10-05T18:00:54Z</time>
</trkpt>
<trkpt lat="42.87264" lon="-2.1172233">
<ele>1106</ele>
<time>2014-10-05T18:00:56Z</time>
</trkpt>
<trkpt lat="42.87265" lon="-2.1173742">
<ele>1105</ele>
<time>2014-10-05T18:00:58Z</time>
</trkpt>
<trkpt lat="42.872684" lon="-2.1175025">
<ele>1104</ele>
<time>2014-10-05T18:01:00Z</time>
</trkpt>
<trkpt lat="42.872738" lon="-2.1175895">
<ele>1103</ele>
<time>2014-10-05T18:01:02Z</time>
</trkpt>
<trkpt lat="42.872795" lon="-2.1176581">
<ele>1100</ele>
<time>2014-10-05T18:01:03Z</time>
</trkpt>
<trkpt lat="42.872887" lon="-2.117667">
<ele>1096</ele>
<time>2014-10-05T18:01:06Z</time>
</trkpt>
<trkpt lat="42.87299" lon="-2.1173391">
<ele>1094</ele>
<time>2014-10-05T18:01:08Z</time>
</trkpt>
<trkpt lat="42.872997" lon="-2.1171105">
<ele>1093</ele>
<time>2014-10-05T18:01:09Z</time>
</trkpt>
<trkpt lat="42.873028" lon="-2.1169164">
<ele>1090</ele>
<time>2014-10-05T18:01:12Z</time>
</trkpt>
<trkpt lat="42.87306" lon="-2.1166859">
<ele>1088</ele>
<time>2014-10-05T18:01:14Z</time>
</trkpt>
<trkpt lat="42.872986" lon="-2.1163757">
<ele>1088</ele>
<time>2014-10-05T18:01:16Z</time>
</trkpt>
<trkpt lat="42.872917" lon="-2.1161416">
<ele>1085</ele>
<time>2014-10-05T18:01:18Z</time>
</trkpt>
<trkpt lat="42.872852" lon="-2.115872">
<ele>1083</ele>
<time>2014-10-05T18:01:20Z</time>
</trkpt>
<trkpt lat="42.872746" lon="-2.115597">
<ele>1081</ele>
<time>2014-10-05T18:01:22Z</time>
</trkpt>
<trkpt lat="42.872654" lon="-2.115343">
<ele>1079</ele>
<time>2014-10-05T18:01:24Z</time>
</trkpt>
<trkpt lat="42.872562" lon="-2.115108">
<ele>1077</ele>
<time>2014-10-05T18:01:26Z</time>
</trkpt>
<trkpt lat="42.87245" lon="-2.1148348">
<ele>1076</ele>
<time>2014-10-05T18:01:28Z</time>
</trkpt>
<trkpt lat="42.872387" lon="-2.114567">
<ele>1074</ele>
<time>2014-10-05T18:01:30Z</time>
</trkpt>
<trkpt lat="42.872387" lon="-2.1142392">
<ele>1070</ele>
<time>2014-10-05T18:01:31Z</time>
</trkpt>
<trkpt lat="42.87245" lon="-2.1139889">
<ele>1073</ele>
<time>2014-10-05T18:01:34Z</time>
</trkpt>
<trkpt lat="42.872467" lon="-2.1138408">
<ele>1072</ele>
<time>2014-10-05T18:01:36Z</time>
</trkpt>
<trkpt lat="42.872528" lon="-2.1136267">
<ele>1068</ele>
<time>2014-10-05T18:01:38Z</time>
</trkpt>
<trkpt lat="42.872585" lon="-2.113355">
<ele>1066</ele>
<time>2014-10-05T18:01:40Z</time>
</trkpt>
<trkpt lat="42.872578" lon="-2.1130908">
<ele>1066</ele>
<time>2014-10-05T18:01:42Z</time>
</trkpt>
<trkpt lat="42.872528" lon="-2.1127713">
<ele>1062</ele>
<time>2014-10-05T18:01:44Z</time>
</trkpt>
<trkpt lat="42.872475" lon="-2.1125">
<ele>1062</ele>
<time>2014-10-05T18:01:46Z</time>
</trkpt>
<trkpt lat="42.872437" lon="-2.1122274">
<ele>1061</ele>
<time>2014-10-05T18:01:48Z</time>
</trkpt>
<trkpt lat="42.872448" lon="-2.111947">
<ele>1058</ele>
<time>2014-10-05T18:01:50Z</time>
</trkpt>
<trkpt lat="42.872444" lon="-2.1117036">
<ele>1058</ele>
<time>2014-10-05T18:01:52Z</time>
</trkpt>
<trkpt lat="42.87246" lon="-2.1114588">
<ele>1058</ele>
<time>2014-10-05T18:01:54Z</time>
</trkpt>
<trkpt lat="42.87252" lon="-2.1112287">
<ele>1059</ele>
<time>2014-10-05T18:01:56Z</time>
</trkpt>
<trkpt lat="42.87262" lon="-2.111022">
<ele>1056</ele>
<time>2014-10-05T18:01:58Z</time>
</trkpt>
<trkpt lat="42.872757" lon="-2.1108992">
<ele>1053</ele>
<time>2014-10-05T18:02:00Z</time>
</trkpt>
<trkpt lat="42.872868" lon="-2.110764">
<ele>1052</ele>
<time>2014-10-05T18:02:02Z</time>
</trkpt>
<trkpt lat="42.872963" lon="-2.110616">
<ele>1052</ele>
<time>2014-10-05T18:02:04Z</time>
</trkpt>
<trkpt lat="42.873062" lon="-2.110464">
<ele>1049</ele>
<time>2014-10-05T18:02:06Z</time>
</trkpt>
<trkpt lat="42.873158" lon="-2.1102571">
<ele>1049</ele>
<time>2014-10-05T18:02:07Z</time>
</trkpt>
<trkpt lat="42.87325" lon="-2.1100643">
<ele>1050</ele>
<time>2014-10-05T18:02:10Z</time>
</trkpt>
<trkpt lat="42.873344" lon="-2.1099527">
<ele>1050</ele>
<time>2014-10-05T18:02:12Z</time>
</trkpt>
<trkpt lat="42.873463" lon="-2.1098013">
<ele>1050</ele>
<time>2014-10-05T18:02:14Z</time>
</trkpt>
<trkpt lat="42.873566" lon="-2.109652">
<ele>1048</ele>
<time>2014-10-05T18:02:16Z</time>
</trkpt>
<trkpt lat="42.873634" lon="-2.1094873">
<ele>1047</ele>
<time>2014-10-05T18:02:18Z</time>
</trkpt>
<trkpt lat="42.87374" lon="-2.1091917">
<ele>1046</ele>
<time>2014-10-05T18:02:21Z</time>
</trkpt>
<trkpt lat="42.87381" lon="-2.1089919">
<ele>1047</ele>
<time>2014-10-05T18:02:23Z</time>
</trkpt>
<trkpt lat="42.873814" lon="-2.1088011">
<ele>1047</ele>
<time>2014-10-05T18:02:25Z</time>
</trkpt>
<trkpt lat="42.87378" lon="-2.1084993">
<ele>1047</ele>
<time>2014-10-05T18:02:27Z</time>
</trkpt>
<trkpt lat="42.8738" lon="-2.1081748">
<ele>1048</ele>
<time>2014-10-05T18:02:29Z</time>
</trkpt>
<trkpt lat="42.873825" lon="-2.107897">
<ele>1049</ele>
<time>2014-10-05T18:02:30Z</time>
</trkpt>
<trkpt lat="42.87381" lon="-2.1076589">
<ele>1047</ele>
<time>2014-10-05T18:02:33Z</time>
</trkpt>
<trkpt lat="42.87379" lon="-2.1074195">
<ele>1046</ele>
<time>2014-10-05T18:02:35Z</time>
</trkpt>
<trkpt lat="42.873795" lon="-2.107178">
<ele>1046</ele>
<time>2014-10-05T18:02:37Z</time>
</trkpt>
<trkpt lat="42.873817" lon="-2.1069534">
<ele>1047</ele>
<time>2014-10-05T18:02:39Z</time>
</trkpt>
<trkpt lat="42.873856" lon="-2.1067846">
<ele>1046</ele>
<time>2014-10-05T18:02:41Z</time>
</trkpt>
<trkpt lat="42.87391" lon="-2.1066527">
<ele>1045</ele>
<time>2014-10-05T18:02:42Z</time>
</trkpt>
<trkpt lat="42.874004" lon="-2.1063864">
<ele>1046</ele>
<time>2014-10-05T18:02:45Z</time>
</trkpt>
<trkpt lat="42.874004" lon="-2.1062138">
<ele>1047</ele>
<time>2014-10-05T18:02:47Z</time>
</trkpt>
<trkpt lat="42.87404" lon="-2.1060498">
<ele>1045</ele>
<time>2014-10-05T18:02:49Z</time>
</trkpt>
<trkpt lat="42.874184" lon="-2.105866">
<ele>1044</ele>
<time>2014-10-05T18:02:51Z</time>
</trkpt>
<trkpt lat="42.87426" lon="-2.1056886">
<ele>1044</ele>
<time>2014-10-05T18:02:52Z</time>
</trkpt>
<trkpt lat="42.87433" lon="-2.1054559">
<ele>1046</ele>
<time>2014-10-05T18:02:55Z</time>
</trkpt>
<trkpt lat="42.874416" lon="-2.1052747">
<ele>1049</ele>
<time>2014-10-05T18:02:57Z</time>
</trkpt>
<trkpt lat="42.87451" lon="-2.1050866">
<ele>1050</ele>
<time>2014-10-05T18:02:59Z</time>
</trkpt>
<trkpt lat="42.87458" lon="-2.1048954">
<ele>1050</ele>
<time>2014-10-05T18:03:00Z</time>
</trkpt>
<trkpt lat="42.874626" lon="-2.1046143">
<ele>1050</ele>
<time>2014-10-05T18:03:03Z</time>
</trkpt>
<trkpt lat="42.87473" lon="-2.104364">
<ele>1050</ele>
<time>2014-10-05T18:03:05Z</time>
</trkpt>
<trkpt lat="42.874783" lon="-2.1042042">
<ele>1051</ele>
<time>2014-10-05T18:03:07Z</time>
</trkpt>
<trkpt lat="42.87501" lon="-2.104154">
<ele>1051</ele>
<time>2014-10-05T18:03:09Z</time>
</trkpt>
<trkpt lat="42.87509" lon="-2.1040378">
<ele>1050</ele>
<time>2014-10-05T18:03:11Z</time>
</trkpt>
<trkpt lat="42.875225" lon="-2.1039867">
<ele>1050</ele>
<time>2014-10-05T18:03:13Z</time>
</trkpt>
<trkpt lat="42.875347" lon="-2.1038656">
<ele>1050</ele>
<time>2014-10-05T18:03:15Z</time>
</trkpt>
<trkpt lat="42.875454" lon="-2.1037676">
<ele>1050</ele>
<time>2014-10-05T18:03:17Z</time>
</trkpt>
<trkpt lat="42.875576" lon="-2.1036658">
<ele>1051</ele>
<time>2014-10-05T18:03:19Z</time>
</trkpt>
<trkpt lat="42.875687" lon="-2.1035905">
<ele>1050</ele>
<time>2014-10-05T18:03:21Z</time>
</trkpt>
<trkpt lat="42.8758" lon="-2.1035287">
<ele>1052</ele>
<time>2014-10-05T18:03:23Z</time>
</trkpt>
<trkpt lat="42.87591" lon="-2.1034396">
<ele>1050</ele>
<time>2014-10-05T18:03:25Z</time>
</trkpt>
<trkpt lat="42.87605" lon="-2.1033576">
<ele>1048</ele>
<time>2014-10-05T18:03:26Z</time>
</trkpt>
<trkpt lat="42.87618" lon="-2.103241">
<ele>1050</ele>
<time>2014-10-05T18:03:29Z</time>
</trkpt>
<trkpt lat="42.876266" lon="-2.1031358">
<ele>1053</ele>
<time>2014-10-05T18:03:31Z</time>
</trkpt>
<trkpt lat="42.87638" lon="-2.1029918">
<ele>1050</ele>
<time>2014-10-05T18:03:33Z</time>
</trkpt>
<trkpt lat="42.87649" lon="-2.1028137">
<ele>1052</ele>
<time>2014-10-05T18:03:35Z</time>
</trkpt>
<trkpt lat="42.87662" lon="-2.102663">
<ele>1054</ele>
<time>2014-10-05T18:03:37Z</time>
</trkpt>
<trkpt lat="42.876728" lon="-2.102494">
<ele>1055</ele>
<time>2014-10-05T18:03:39Z</time>
</trkpt>
<trkpt lat="42.87682" lon="-2.1023517">
<ele>1059</ele>
<time>2014-10-05T18:03:41Z</time>
</trkpt>
<trkpt lat="42.87692" lon="-2.1022084">
<ele>1060</ele>
<time>2014-10-05T18:03:43Z</time>
</trkpt>
<trkpt lat="42.877037" lon="-2.102075">
<ele>1061</ele>
<time>2014-10-05T18:03:45Z</time>
</trkpt>
<trkpt lat="42.87716" lon="-2.1019566">
<ele>1061</ele>
<time>2014-10-05T18:03:47Z</time>
</trkpt>
<trkpt lat="42.877254" lon="-2.1018136">
<ele>1062</ele>
<time>2014-10-05T18:03:49Z</time>
</trkpt>
<trkpt lat="42.877323" lon="-2.1015604">
<ele>1062</ele>
<time>2014-10-05T18:03:51Z</time>
</trkpt>
<trkpt lat="42.877483" lon="-2.1014526">
<ele>1062</ele>
<time>2014-10-05T18:03:53Z</time>
</trkpt>
<trkpt lat="42.877598" lon="-2.1013253">
<ele>1061</ele>
<time>2014-10-05T18:03:55Z</time>
</trkpt>
<trkpt lat="42.87769" lon="-2.1011982">
<ele>1061</ele>
<time>2014-10-05T18:03:57Z</time>
</trkpt>
<trkpt lat="42.877754" lon="-2.1010702">
<ele>1062</ele>
<time>2014-10-05T18:03:58Z</time>
</trkpt>
<trkpt lat="42.8778" lon="-2.1008804">
<ele>1063</ele>
<time>2014-10-05T18:04:00Z</time>
</trkpt>
<trkpt lat="42.877865" lon="-2.1007547">
<ele>1062</ele>
<time>2014-10-05T18:04:03Z</time>
</trkpt>
<trkpt lat="42.87794" lon="-2.1006134">
<ele>1061</ele>
<time>2014-10-05T18:04:05Z</time>
</trkpt>
<trkpt lat="42.87798" lon="-2.1003609">
<ele>1061</ele>
<time>2014-10-05T18:04:07Z</time>
</trkpt>
<trkpt lat="42.878098" lon="-2.0998943">
<ele>1061</ele>
<time>2014-10-05T18:04:09Z</time>
</trkpt>
<trkpt lat="42.878212" lon="-2.0997803">
<ele>1060</ele>
<time>2014-10-05T18:04:11Z</time>
</trkpt>
<trkpt lat="42.87834" lon="-2.0998306">
<ele>1058</ele>
<time>2014-10-05T18:04:13Z</time>
</trkpt>
<trkpt lat="42.878353" lon="-2.1000283">
<ele>1059</ele>
<time>2014-10-05T18:04:15Z</time>
</trkpt>
<trkpt lat="42.878334" lon="-2.100187">
<ele>1057</ele>
<time>2014-10-05T18:04:17Z</time>
</trkpt>
<trkpt lat="42.87826" lon="-2.1003141">
<ele>1057</ele>
<time>2014-10-05T18:04:19Z</time>
</trkpt>
<trkpt lat="42.878174" lon="-2.1004577">
<ele>1057</ele>
<time>2014-10-05T18:04:21Z</time>
</trkpt>
<trkpt lat="42.878086" lon="-2.100606">
<ele>1056</ele>
<time>2014-10-05T18:04:23Z</time>
</trkpt>
<trkpt lat="42.87797" lon="-2.100744">
<ele>1056</ele>
<time>2014-10-05T18:04:25Z</time>
</trkpt>
<trkpt lat="42.87784" lon="-2.100885">
<ele>1057</ele>
<time>2014-10-05T18:04:27Z</time>
</trkpt>
<trkpt lat="42.87778" lon="-2.1011496">
<ele>1059</ele>
<time>2014-10-05T18:04:29Z</time>
</trkpt>
<trkpt lat="42.87768" lon="-2.1012595">
<ele>1060</ele>
<time>2014-10-05T18:04:31Z</time>
</trkpt>
<trkpt lat="42.87757" lon="-2.101355">
<ele>1061</ele>
<time>2014-10-05T18:04:33Z</time>
</trkpt>
<trkpt lat="42.877476" lon="-2.101478">
<ele>1062</ele>
<time>2014-10-05T18:04:35Z</time>
</trkpt>
<trkpt lat="42.8774" lon="-2.1016338">
<ele>1062</ele>
<time>2014-10-05T18:04:37Z</time>
</trkpt>
<trkpt lat="42.877285" lon="-2.1017592">
<ele>1061</ele>
<time>2014-10-05T18:04:39Z</time>
</trkpt>
<trkpt lat="42.877163" lon="-2.1018612">
<ele>1061</ele>
<time>2014-10-05T18:04:41Z</time>
</trkpt>
<trkpt lat="42.87703" lon="-2.1019955">
<ele>1062</ele>
<time>2014-10-05T18:04:43Z</time>
</trkpt>
<trkpt lat="42.876926" lon="-2.1021225">
<ele>1064</ele>
<time>2014-10-05T18:04:44Z</time>
</trkpt>
<trkpt lat="42.876812" lon="-2.1022644">
<ele>1063</ele>
<time>2014-10-05T18:04:47Z</time>
</trkpt>
<trkpt lat="42.876675" lon="-2.1024075">
<ele>1063</ele>
<time>2014-10-05T18:04:49Z</time>
</trkpt>
<trkpt lat="42.876556" lon="-2.1025512">
<ele>1063</ele>
<time>2014-10-05T18:04:51Z</time>
</trkpt>
<trkpt lat="42.876446" lon="-2.1027002">
<ele>1063</ele>
<time>2014-10-05T18:04:53Z</time>
</trkpt>
<trkpt lat="42.87633" lon="-2.1028633">
<ele>1063</ele>
<time>2014-10-05T18:04:55Z</time>
</trkpt>
<trkpt lat="42.876244" lon="-2.103005">
<ele>1064</ele>
<time>2014-10-05T18:04:57Z</time>
</trkpt>
<trkpt lat="42.87616" lon="-2.103179">
<ele>1064</ele>
<time>2014-10-05T18:04:59Z</time>
</trkpt>
<trkpt lat="42.876106" lon="-2.1032636">
<ele>1065</ele>
<time>2014-10-05T18:05:01Z</time>
</trkpt>
<trkpt lat="42.87608" lon="-2.1033483">
<ele>1068</ele>
<time>2014-10-05T18:05:03Z</time>
</trkpt>
<trkpt lat="42.87592" lon="-2.103462">
<ele>1073</ele>
<time>2014-10-05T18:05:05Z</time>
</trkpt>
<trkpt lat="42.875763" lon="-2.1034734">
<ele>1076</ele>
<time>2014-10-05T18:05:07Z</time>
</trkpt>
<trkpt lat="42.8756" lon="-2.10346">
<ele>1076</ele>
<time>2014-10-05T18:05:09Z</time>
</trkpt>
<trkpt lat="42.8754" lon="-2.1035185">
<ele>1077</ele>
<time>2014-10-05T18:05:11Z</time>
</trkpt>
<trkpt lat="42.87523" lon="-2.1035404">
<ele>1080</ele>
<time>2014-10-05T18:05:13Z</time>
</trkpt>
<trkpt lat="42.87507" lon="-2.1035438">
<ele>1081</ele>
<time>2014-10-05T18:05:15Z</time>
</trkpt>
<trkpt lat="42.87491" lon="-2.103615">
<ele>1083</ele>
<time>2014-10-05T18:05:17Z</time>
</trkpt>
<trkpt lat="42.87477" lon="-2.1037307">
<ele>1085</ele>
<time>2014-10-05T18:05:19Z</time>
</trkpt>
<trkpt lat="42.874676" lon="-2.1038682">
<ele>1085</ele>
<time>2014-10-05T18:05:21Z</time>
</trkpt>
<trkpt lat="42.87466" lon="-2.1040242">
<ele>1086</ele>
<time>2014-10-05T18:05:23Z</time>
</trkpt>
<trkpt lat="42.87464" lon="-2.1041706">
<ele>1087</ele>
<time>2014-10-05T18:05:25Z</time>
</trkpt>
<trkpt lat="42.87468" lon="-2.1042688">
<ele>1088</ele>
<time>2014-10-05T18:05:27Z</time>
</trkpt>
<trkpt lat="42.874695" lon="-2.1043746">
<ele>1088</ele>
<time>2014-10-05T18:05:29Z</time>
</trkpt>
<trkpt lat="42.874687" lon="-2.1044822">
<ele>1088</ele>
<time>2014-10-05T18:05:31Z</time>
</trkpt>
<trkpt lat="42.874657" lon="-2.1045387">
<ele>1089</ele>
<time>2014-10-05T18:05:33Z</time>
</trkpt>
<trkpt lat="42.87462" lon="-2.1046715">
<ele>1091</ele>
<time>2014-10-05T18:05:35Z</time>
</trkpt>
<trkpt lat="42.874535" lon="-2.1047945">
<ele>1090</ele>
<time>2014-10-05T18:05:36Z</time>
</trkpt>
<trkpt lat="42.87441" lon="-2.1048753">
<ele>1092</ele>
<time>2014-10-05T18:05:39Z</time>
</trkpt>
<trkpt lat="42.874313" lon="-2.1049502">
<ele>1092</ele>
<time>2014-10-05T18:05:41Z</time>
</trkpt>
<trkpt lat="42.874214" lon="-2.1050463">
<ele>1096</ele>
<time>2014-10-05T18:05:43Z</time>
</trkpt>
<trkpt lat="42.874023" lon="-2.105173">
<ele>1100</ele>
<time>2014-10-05T18:05:45Z</time>
</trkpt>
<trkpt lat="42.87385" lon="-2.1052308">
<ele>1103</ele>
<time>2014-10-05T18:05:47Z</time>
</trkpt>
<trkpt lat="42.873695" lon="-2.1052861">
<ele>1103</ele>
<time>2014-10-05T18:05:49Z</time>
</trkpt>
<trkpt lat="42.873543" lon="-2.1054215">
<ele>1105</ele>
<time>2014-10-05T18:05:51Z</time>
</trkpt>
<trkpt lat="42.873417" lon="-2.105599">
<ele>1107</ele>
<time>2014-10-05T18:05:53Z</time>
</trkpt>
<trkpt lat="42.873333" lon="-2.1057394">
<ele>1107</ele>
<time>2014-10-05T18:05:55Z</time>
</trkpt>
<trkpt lat="42.87325" lon="-2.1058896">
<ele>1108</ele>
<time>2014-10-05T18:05:57Z</time>
</trkpt>
<trkpt lat="42.87323" lon="-2.1059823">
<ele>1108</ele>
<time>2014-10-05T18:05:59Z</time>
</trkpt>
<trkpt lat="42.873196" lon="-2.1060874">
<ele>1108</ele>
<time>2014-10-05T18:06:01Z</time>
</trkpt>
<trkpt lat="42.87319" lon="-2.1062248">
<ele>1109</ele>
<time>2014-10-05T18:06:03Z</time>
</trkpt>
<trkpt lat="42.873165" lon="-2.1063876">
<ele>1110</ele>
<time>2014-10-05T18:06:05Z</time>
</trkpt>
<trkpt lat="42.873142" lon="-2.106439">
<ele>1110</ele>
<time>2014-10-05T18:06:07Z</time>
</trkpt>
<trkpt lat="42.873093" lon="-2.1065528">
<ele>1112</ele>
<time>2014-10-05T18:06:09Z</time>
</trkpt>
<trkpt lat="42.87309" lon="-2.1067166">
<ele>1113</ele>
<time>2014-10-05T18:06:11Z</time>
</trkpt>
<trkpt lat="42.873074" lon="-2.1068215">
<ele>1112</ele>
<time>2014-10-05T18:06:13Z</time>
</trkpt>
<trkpt lat="42.87305" lon="-2.106949">
<ele>1115</ele>
<time>2014-10-05T18:06:15Z</time>
</trkpt>
<trkpt lat="42.873028" lon="-2.107099">
<ele>1117</ele>
<time>2014-10-05T18:06:17Z</time>
</trkpt>
<trkpt lat="42.873005" lon="-2.1072288">
<ele>1117</ele>
<time>2014-10-05T18:06:19Z</time>
</trkpt>
<trkpt lat="42.873005" lon="-2.107312">
<ele>1120</ele>
<time>2014-10-05T18:06:21Z</time>
</trkpt>
<trkpt lat="42.872967" lon="-2.1074693">
<ele>1122</ele>
<time>2014-10-05T18:06:23Z</time>
</trkpt>
<trkpt lat="42.87295" lon="-2.1075385">
<ele>1122</ele>
<time>2014-10-05T18:06:25Z</time>
</trkpt>
<trkpt lat="42.87293" lon="-2.1076162">
<ele>1124</ele>
<time>2014-10-05T18:06:27Z</time>
</trkpt>
<trkpt lat="42.87288" lon="-2.1077352">
<ele>1125</ele>
<time>2014-10-05T18:06:29Z</time>
</trkpt>
<trkpt lat="42.872856" lon="-2.1078641">
<ele>1126</ele>
<time>2014-10-05T18:06:31Z</time>
</trkpt>
<trkpt lat="42.8728" lon="-2.108028">
<ele>1131</ele>
<time>2014-10-05T18:06:33Z</time>
</trkpt>
<trkpt lat="42.872787" lon="-2.108158">
<ele>1132</ele>
<time>2014-10-05T18:06:35Z</time>
</trkpt>
<trkpt lat="42.872753" lon="-2.108282">
<ele>1133</ele>
<time>2014-10-05T18:06:37Z</time>
</trkpt>
<trkpt lat="42.87271" lon="-2.1084118">
<ele>1133</ele>
<time>2014-10-05T18:06:39Z</time>
</trkpt>
<trkpt lat="42.87289" lon="-2.10834">
<ele>1136</ele>
<time>2014-10-05T18:06:41Z</time>
</trkpt>
<trkpt lat="42.873016" lon="-2.1081345">
<ele>1141</ele>
<time>2014-10-05T18:06:43Z</time>
</trkpt>
<trkpt lat="42.873066" lon="-2.1078982">
<ele>1143</ele>
<time>2014-10-05T18:06:45Z</time>
</trkpt>
<trkpt lat="42.873142" lon="-2.107666">
<ele>1141</ele>
<time>2014-10-05T18:06:47Z</time>
</trkpt>
<trkpt lat="42.873196" lon="-2.1074123">
<ele>1140</ele>
<time>2014-10-05T18:06:49Z</time>
</trkpt>
<trkpt lat="42.873234" lon="-2.1071627">
<ele>1138</ele>
<time>2014-10-05T18:06:51Z</time>
</trkpt>
<trkpt lat="42.873302" lon="-2.1069272">
<ele>1135</ele>
<time>2014-10-05T18:06:53Z</time>
</trkpt>
<trkpt lat="42.87337" lon="-2.1067176">
<ele>1132</ele>
<time>2014-10-05T18:06:55Z</time>
</trkpt>
<trkpt lat="42.87345" lon="-2.1065204">
<ele>1130</ele>
<time>2014-10-05T18:06:57Z</time>
</trkpt>
<trkpt lat="42.87353" lon="-2.1063383">
<ele>1128</ele>
<time>2014-10-05T18:06:59Z</time>
</trkpt>
<trkpt lat="42.8736" lon="-2.1061637">
<ele>1126</ele>
<time>2014-10-05T18:07:01Z</time>
</trkpt>
<trkpt lat="42.87368" lon="-2.1060317">
<ele>1125</ele>
<time>2014-10-05T18:07:03Z</time>
</trkpt>
<trkpt lat="42.87378" lon="-2.105818">
<ele>1123</ele>
<time>2014-10-05T18:07:05Z</time>
</trkpt>
<trkpt lat="42.873844" lon="-2.1056318">
<ele>1123</ele>
<time>2014-10-05T18:07:07Z</time>
</trkpt>
<trkpt lat="42.87391" lon="-2.1054256">
<ele>1124</ele>
<time>2014-10-05T18:07:09Z</time>
</trkpt>
<trkpt lat="42.87398" lon="-2.1052618">
<ele>1126</ele>
<time>2014-10-05T18:07:11Z</time>
</trkpt>
<trkpt lat="42.874012" lon="-2.1049972">
<ele>1125</ele>
<time>2014-10-05T18:07:13Z</time>
</trkpt>
<trkpt lat="42.874016" lon="-2.1046944">
<ele>1128</ele>
<time>2014-10-05T18:07:15Z</time>
</trkpt>
<trkpt lat="42.874" lon="-2.1044347">
<ele>1131</ele>
<time>2014-10-05T18:07:17Z</time>
</trkpt>
<trkpt lat="42.873978" lon="-2.104163">
<ele>1131</ele>
<time>2014-10-05T18:07:19Z</time>
</trkpt>
<trkpt lat="42.873974" lon="-2.1038578">
<ele>1134</ele>
<time>2014-10-05T18:07:21Z</time>
</trkpt>
<trkpt lat="42.87399" lon="-2.1035855">
<ele>1136</ele>
<time>2014-10-05T18:07:23Z</time>
</trkpt>
<trkpt lat="42.874016" lon="-2.1033218">
<ele>1136</ele>
<time>2014-10-05T18:07:25Z</time>
</trkpt>
<trkpt lat="42.874084" lon="-2.1030385">
<ele>1136</ele>
<time>2014-10-05T18:07:27Z</time>
</trkpt>
<trkpt lat="42.874165" lon="-2.1028855">
<ele>1141</ele>
<time>2014-10-05T18:07:29Z</time>
</trkpt>
<trkpt lat="42.87428" lon="-2.1027422">
<ele>1139</ele>
<time>2014-10-05T18:07:31Z</time>
</trkpt>
<trkpt lat="42.874393" lon="-2.1026099">
<ele>1141</ele>
<time>2014-10-05T18:07:33Z</time>
</trkpt>
<trkpt lat="42.8745" lon="-2.102549">
<ele>1142</ele>
<time>2014-10-05T18:07:35Z</time>
</trkpt>
<trkpt lat="42.87459" lon="-2.10238">
<ele>1142</ele>
<time>2014-10-05T18:07:37Z</time>
</trkpt>
<trkpt lat="42.874702" lon="-2.1022227">
<ele>1145</ele>
<time>2014-10-05T18:07:39Z</time>
</trkpt>
<trkpt lat="42.874763" lon="-2.10209">
<ele>1148</ele>
<time>2014-10-05T18:07:41Z</time>
</trkpt>
<trkpt lat="42.874836" lon="-2.1021268">
<ele>1144</ele>
<time>2014-10-05T18:07:43Z</time>
</trkpt>
<trkpt lat="42.874928" lon="-2.102292">
<ele>1145</ele>
<time>2014-10-05T18:07:45Z</time>
</trkpt>
<trkpt lat="42.874947" lon="-2.102393">
<ele>1147</ele>
<time>2014-10-05T18:07:47Z</time>
</trkpt>
<trkpt lat="42.87493" lon="-2.1023853">
<ele>1149</ele>
<time>2014-10-05T18:07:49Z</time>
</trkpt>
<trkpt lat="42.87493" lon="-2.102495">
<ele>1149</ele>
<time>2014-10-05T18:07:51Z</time>
</trkpt>
<trkpt lat="42.875008" lon="-2.102643">
<ele>1156</ele>
<time>2014-10-05T18:07:53Z</time>
</trkpt>
<trkpt lat="42.87505" lon="-2.1027033">
<ele>1158</ele>
<time>2014-10-05T18:07:55Z</time>
</trkpt>
<trkpt lat="42.875107" lon="-2.1028273">
<ele>1157</ele>
<time>2014-10-05T18:07:57Z</time>
</trkpt>
<trkpt lat="42.87516" lon="-2.1029608">
<ele>1158</ele>
<time>2014-10-05T18:07:59Z</time>
</trkpt>
<trkpt lat="42.875214" lon="-2.1030579">
<ele>1160</ele>
<time>2014-10-05T18:08:01Z</time>
</trkpt>
<trkpt lat="42.875286" lon="-2.1031299">
<ele>1159</ele>
<time>2014-10-05T18:08:03Z</time>
</trkpt>
<trkpt lat="42.875374" lon="-2.1031713">
<ele>1163</ele>
<time>2014-10-05T18:08:05Z</time>
</trkpt>
<trkpt lat="42.87546" lon="-2.1031735">
<ele>1165</ele>
<time>2014-10-05T18:08:07Z</time>
</trkpt>
<trkpt lat="42.875553" lon="-2.1032012">
<ele>1166</ele>
<time>2014-10-05T18:08:09Z</time>
</trkpt>
<trkpt lat="42.87564" lon="-2.1032267">
<ele>1167</ele>
<time>2014-10-05T18:08:11Z</time>
</trkpt>
<trkpt lat="42.875725" lon="-2.1032946">
<ele>1168</ele>
<time>2014-10-05T18:08:13Z</time>
</trkpt>
<trkpt lat="42.87576" lon="-2.1034067">
<ele>1167</ele>
<time>2014-10-05T18:08:15Z</time>
</trkpt>
<trkpt lat="42.875782" lon="-2.1035678">
<ele>1168</ele>
<time>2014-10-05T18:08:17Z</time>
</trkpt>
<trkpt lat="42.87578" lon="-2.103697">
<ele>1169</ele>
<time>2014-10-05T18:08:19Z</time>
</trkpt>
<trkpt lat="42.87578" lon="-2.103837">
<ele>1169</ele>
<time>2014-10-05T18:08:21Z</time>
</trkpt>
<trkpt lat="42.875744" lon="-2.1039906">
<ele>1171</ele>
<time>2014-10-05T18:08:23Z</time>
</trkpt>
<trkpt lat="42.875774" lon="-2.1041527">
<ele>1172</ele>
<time>2014-10-05T18:08:25Z</time>
</trkpt>
<trkpt lat="42.875793" lon="-2.1043448">
<ele>1173</ele>
<time>2014-10-05T18:08:27Z</time>
</trkpt>
<trkpt lat="42.875797" lon="-2.1044695">
<ele>1175</ele>
<time>2014-10-05T18:08:29Z</time>
</trkpt>
<trkpt lat="42.875828" lon="-2.104644">
<ele>1176</ele>
<time>2014-10-05T18:08:31Z</time>
</trkpt>
<trkpt lat="42.875862" lon="-2.1047142">
<ele>1175</ele>
<time>2014-10-05T18:08:33Z</time>
</trkpt>
<trkpt lat="42.87592" lon="-2.1047933">
<ele>1175</ele>
<time>2014-10-05T18:08:35Z</time>
</trkpt>
<trkpt lat="42.875977" lon="-2.1048837">
<ele>1176</ele>
<time>2014-10-05T18:08:36Z</time>
</trkpt>
<trkpt lat="42.876026" lon="-2.10501">
<ele>1179</ele>
<time>2014-10-05T18:08:39Z</time>
</trkpt>
<trkpt lat="42.876064" lon="-2.1051342">
<ele>1178</ele>
<time>2014-10-05T18:08:41Z</time>
</trkpt>
<trkpt lat="42.876137" lon="-2.1052318">
<ele>1178</ele>
<time>2014-10-05T18:08:43Z</time>
</trkpt>
<trkpt lat="42.87619" lon="-2.1053667">
<ele>1178</ele>
<time>2014-10-05T18:08:45Z</time>
</trkpt>
<trkpt lat="42.876255" lon="-2.1054745">
<ele>1179</ele>
<time>2014-10-05T18:08:47Z</time>
</trkpt>
<trkpt lat="42.876328" lon="-2.1055806">
<ele>1178</ele>
<time>2014-10-05T18:08:49Z</time>
</trkpt>
<trkpt lat="42.87639" lon="-2.1056938">
<ele>1177</ele>
<time>2014-10-05T18:08:51Z</time>
</trkpt>
<trkpt lat="42.87644" lon="-2.1058033">
<ele>1177</ele>
<time>2014-10-05T18:08:53Z</time>
</trkpt>
<trkpt lat="42.87649" lon="-2.1059086">
<ele>1177</ele>
<time>2014-10-05T18:08:55Z</time>
</trkpt>
<trkpt lat="42.876545" lon="-2.1060305">
<ele>1177</ele>
<time>2014-10-05T18:08:57Z</time>
</trkpt>
<trkpt lat="42.87658" lon="-2.106149">
<ele>1177</ele>
<time>2014-10-05T18:08:59Z</time>
</trkpt>
<trkpt lat="42.876534" lon="-2.1063435">
<ele>1175</ele>
<time>2014-10-05T18:09:01Z</time>
</trkpt>
<trkpt lat="42.876495" lon="-2.106516">
<ele>1174</ele>
<time>2014-10-05T18:09:03Z</time>
</trkpt>
<trkpt lat="42.876457" lon="-2.1066687">
<ele>1174</ele>
<time>2014-10-05T18:09:05Z</time>
</trkpt>
<trkpt lat="42.876385" lon="-2.1067903">
<ele>1173</ele>
<time>2014-10-05T18:09:07Z</time>
</trkpt>
<trkpt lat="42.87628" lon="-2.1069393">
<ele>1173</ele>
<time>2014-10-05T18:09:09Z</time>
</trkpt>
<trkpt lat="42.87617" lon="-2.1071084">
<ele>1171</ele>
<time>2014-10-05T18:09:11Z</time>
</trkpt>
<trkpt lat="42.876095" lon="-2.107282">
<ele>1170</ele>
<time>2014-10-05T18:09:13Z</time>
</trkpt>
<trkpt lat="42.87604" lon="-2.1074302">
<ele>1169</ele>
<time>2014-10-05T18:09:15Z</time>
</trkpt>
<trkpt lat="42.875977" lon="-2.1075845">
<ele>1170</ele>
<time>2014-10-05T18:09:17Z</time>
</trkpt>
<trkpt lat="42.87594" lon="-2.1077504">
<ele>1171</ele>
<time>2014-10-05T18:09:19Z</time>
</trkpt>
<trkpt lat="42.875908" lon="-2.107929">
<ele>1171</ele>
<time>2014-10-05T18:09:21Z</time>
</trkpt>
<trkpt lat="42.875835" lon="-2.108048">
<ele>1168</ele>
<time>2014-10-05T18:09:22Z</time>
</trkpt>
<trkpt lat="42.875786" lon="-2.1082373">
<ele>1169</ele>
<time>2014-10-05T18:09:25Z</time>
</trkpt>
<trkpt lat="42.875755" lon="-2.1083958">
<ele>1168</ele>
<time>2014-10-05T18:09:27Z</time>
</trkpt>
<trkpt lat="42.87571" lon="-2.1085458">
<ele>1167</ele>
<time>2014-10-05T18:09:29Z</time>
</trkpt>
<trkpt lat="42.875664" lon="-2.1087105">
<ele>1166</ele>
<time>2014-10-05T18:09:31Z</time>
</trkpt>
<trkpt lat="42.875614" lon="-2.1088386">
<ele>1164</ele>
<time>2014-10-05T18:09:33Z</time>
</trkpt>
<trkpt lat="42.8756" lon="-2.109">
<ele>1163</ele>
<time>2014-10-05T18:09:35Z</time>
</trkpt>
<trkpt lat="42.875553" lon="-2.1091316">
<ele>1162</ele>
<time>2014-10-05T18:09:37Z</time>
</trkpt>
<trkpt lat="42.875526" lon="-2.1092138">
<ele>1160</ele>
<time>2014-10-05T18:09:39Z</time>
</trkpt>
<trkpt lat="42.87549" lon="-2.1093726">
<ele>1158</ele>
<time>2014-10-05T18:09:41Z</time>
</trkpt>
<trkpt lat="42.875416" lon="-2.109528">
<ele>1156</ele>
<time>2014-10-05T18:09:42Z</time>
</trkpt>
<trkpt lat="42.875317" lon="-2.1096606">
<ele>1154</ele>
<time>2014-10-05T18:09:45Z</time>
</trkpt>
<trkpt lat="42.875244" lon="-2.1098194">
<ele>1153</ele>
<time>2014-10-05T18:09:47Z</time>
</trkpt>
<trkpt lat="42.875168" lon="-2.109946">
<ele>1153</ele>
<time>2014-10-05T18:09:49Z</time>
</trkpt>
<trkpt lat="42.875088" lon="-2.1101284">
<ele>1154</ele>
<time>2014-10-05T18:09:50Z</time>
</trkpt>
<trkpt lat="42.874992" lon="-2.1102178">
<ele>1153</ele>
<time>2014-10-05T18:09:53Z</time>
</trkpt>
<trkpt lat="42.87491" lon="-2.110395">
<ele>1153</ele>
<time>2014-10-05T18:09:55Z</time>
</trkpt>
<trkpt lat="42.87485" lon="-2.1105337">
<ele>1153</ele>
<time>2014-10-05T18:09:56Z</time>
</trkpt>
<trkpt lat="42.874783" lon="-2.1106443">
<ele>1152</ele>
<time>2014-10-05T18:09:59Z</time>
</trkpt>
<trkpt lat="42.8747" lon="-2.1107953">
<ele>1152</ele>
<time>2014-10-05T18:10:01Z</time>
</trkpt>
<trkpt lat="42.874622" lon="-2.1109455">
<ele>1152</ele>
<time>2014-10-05T18:10:03Z</time>
</trkpt>
<trkpt lat="42.874588" lon="-2.1110692">
<ele>1151</ele>
<time>2014-10-05T18:10:05Z</time>
</trkpt>
<trkpt lat="42.87457" lon="-2.1112003">
<ele>1150</ele>
<time>2014-10-05T18:10:07Z</time>
</trkpt>
<trkpt lat="42.874554" lon="-2.1113389">
<ele>1150</ele>
<time>2014-10-05T18:10:09Z</time>
</trkpt>
<trkpt lat="42.874527" lon="-2.1114998">
<ele>1149</ele>
<time>2014-10-05T18:10:11Z</time>
</trkpt>
<trkpt lat="42.874485" lon="-2.1117034">
<ele>1148</ele>
<time>2014-10-05T18:10:12Z</time>
</trkpt>
<trkpt lat="42.87445" lon="-2.111885">
<ele>1150</ele>
<time>2014-10-05T18:10:14Z</time>
</trkpt>
<trkpt lat="42.874504" lon="-2.1119936">
<ele>1149</ele>
<time>2014-10-05T18:10:17Z</time>
</trkpt>
<trkpt lat="42.874557" lon="-2.1120925">
<ele>1149</ele>
<time>2014-10-05T18:10:19Z</time>
</trkpt>
<trkpt lat="42.874588" lon="-2.1122508">
<ele>1148</ele>
<time>2014-10-05T18:10:20Z</time>
</trkpt>
<trkpt lat="42.87459" lon="-2.1123908">
<ele>1150</ele>
<time>2014-10-05T18:10:23Z</time>
</trkpt>
<trkpt lat="42.874588" lon="-2.1124995">
<ele>1150</ele>
<time>2014-10-05T18:10:25Z</time>
</trkpt>
<trkpt lat="42.87457" lon="-2.1126375">
<ele>1151</ele>
<time>2014-10-05T18:10:27Z</time>
</trkpt>
<trkpt lat="42.874535" lon="-2.1127224">
<ele>1152</ele>
<time>2014-10-05T18:10:29Z</time>
</trkpt>
<trkpt lat="42.874485" lon="-2.1128848">
<ele>1151</ele>
<time>2014-10-05T18:10:31Z</time>
</trkpt>
<trkpt lat="42.87446" lon="-2.113052">
<ele>1152</ele>
<time>2014-10-05T18:10:33Z</time>
</trkpt>
<trkpt lat="42.874413" lon="-2.113214">
<ele>1151</ele>
<time>2014-10-05T18:10:35Z</time>
</trkpt>
<trkpt lat="42.87433" lon="-2.1133537">
<ele>1150</ele>
<time>2014-10-05T18:10:37Z</time>
</trkpt>
<trkpt lat="42.87425" lon="-2.1134665">
<ele>1149</ele>
<time>2014-10-05T18:10:39Z</time>
</trkpt>
<trkpt lat="42.874107" lon="-2.1135917">
<ele>1147</ele>
<time>2014-10-05T18:10:41Z</time>
</trkpt>
<trkpt lat="42.874065" lon="-2.113682">
<ele>1144</ele>
<time>2014-10-05T18:10:43Z</time>
</trkpt>
<trkpt lat="42.87396" lon="-2.1138551">
<ele>1141</ele>
<time>2014-10-05T18:10:45Z</time>
</trkpt>
<trkpt lat="42.873898" lon="-2.1139781">
<ele>1141</ele>
<time>2014-10-05T18:10:47Z</time>
</trkpt>
<trkpt lat="42.873825" lon="-2.1140954">
<ele>1141</ele>
<time>2014-10-05T18:10:49Z</time>
</trkpt>
<trkpt lat="42.87373" lon="-2.114176">
<ele>1140</ele>
<time>2014-10-05T18:10:51Z</time>
</trkpt>
<trkpt lat="42.873634" lon="-2.1143162">
<ele>1139</ele>
<time>2014-10-05T18:10:53Z</time>
</trkpt>
<trkpt lat="42.873573" lon="-2.1144168">
<ele>1138</ele>
<time>2014-10-05T18:10:55Z</time>
</trkpt>
<trkpt lat="42.87343" lon="-2.1145835">
<ele>1135</ele>
<time>2014-10-05T18:10:57Z</time>
</trkpt>
<trkpt lat="42.87316" lon="-2.1145978">
<ele>1130</ele>
<time>2014-10-05T18:10:59Z</time>
</trkpt>
<trkpt lat="42.87293" lon="-2.1145031">
<ele>1126</ele>
<time>2014-10-05T18:11:01Z</time>
</trkpt>
<trkpt lat="42.872726" lon="-2.1143086">
<ele>1126</ele>
<time>2014-10-05T18:11:03Z</time>
</trkpt>
<trkpt lat="42.87255" lon="-2.1141145">
<ele>1124</ele>
<time>2014-10-05T18:11:05Z</time>
</trkpt>
<trkpt lat="42.872387" lon="-2.113856">
<ele>1123</ele>
<time>2014-10-05T18:11:07Z</time>
</trkpt>
<trkpt lat="42.87226" lon="-2.113587">
<ele>1122</ele>
<time>2014-10-05T18:11:09Z</time>
</trkpt>
<trkpt lat="42.872158" lon="-2.1133246">
<ele>1123</ele>
<time>2014-10-05T18:11:11Z</time>
</trkpt>
<trkpt lat="42.872063" lon="-2.1130612">
<ele>1122</ele>
<time>2014-10-05T18:11:13Z</time>
</trkpt>
<trkpt lat="42.871975" lon="-2.112773">
<ele>1120</ele>
<time>2014-10-05T18:11:15Z</time>
</trkpt>
<trkpt lat="42.871918" lon="-2.112478">
<ele>1118</ele>
<time>2014-10-05T18:11:16Z</time>
</trkpt>
<trkpt lat="42.87193" lon="-2.1121614">
<ele>1115</ele>
<time>2014-10-05T18:11:18Z</time>
</trkpt>
<trkpt lat="42.871952" lon="-2.111872">
<ele>1114</ele>
<time>2014-10-05T18:11:21Z</time>
</trkpt>
<trkpt lat="42.871998" lon="-2.1116323">
<ele>1111</ele>
<time>2014-10-05T18:11:23Z</time>
</trkpt>
<trkpt lat="42.87204" lon="-2.111364">
<ele>1108</ele>
<time>2014-10-05T18:11:25Z</time>
</trkpt>
<trkpt lat="42.87208" lon="-2.111092">
<ele>1107</ele>
<time>2014-10-05T18:11:27Z</time>
</trkpt>
<trkpt lat="42.87214" lon="-2.1108646">
<ele>1106</ele>
<time>2014-10-05T18:11:29Z</time>
</trkpt>
<trkpt lat="42.87223" lon="-2.1106665">
<ele>1104</ele>
<time>2014-10-05T18:11:31Z</time>
</trkpt>
<trkpt lat="42.872334" lon="-2.1104784">
<ele>1103</ele>
<time>2014-10-05T18:11:33Z</time>
</trkpt>
<trkpt lat="42.872414" lon="-2.1102526">
<ele>1101</ele>
<time>2014-10-05T18:11:35Z</time>
</trkpt>
<trkpt lat="42.872486" lon="-2.110046">
<ele>1102</ele>
<time>2014-10-05T18:11:37Z</time>
</trkpt>
<trkpt lat="42.87256" lon="-2.1098278">
<ele>1101</ele>
<time>2014-10-05T18:11:39Z</time>
</trkpt>
<trkpt lat="42.87263" lon="-2.1095932">
<ele>1102</ele>
<time>2014-10-05T18:11:41Z</time>
</trkpt>
<trkpt lat="42.872692" lon="-2.1093667">
<ele>1103</ele>
<time>2014-10-05T18:11:43Z</time>
</trkpt>
<trkpt lat="42.872734" lon="-2.1091342">
<ele>1103</ele>
<time>2014-10-05T18:11:45Z</time>
</trkpt>
<trkpt lat="42.872776" lon="-2.1088865">
<ele>1104</ele>
<time>2014-10-05T18:11:47Z</time>
</trkpt>
<trkpt lat="42.87281" lon="-2.1086373">
<ele>1105</ele>
<time>2014-10-05T18:11:49Z</time>
</trkpt>
<trkpt lat="42.87287" lon="-2.1084092">
<ele>1106</ele>
<time>2014-10-05T18:11:51Z</time>
</trkpt>
<trkpt lat="42.872944" lon="-2.1081932">
<ele>1106</ele>
<time>2014-10-05T18:11:53Z</time>
</trkpt>
<trkpt lat="42.873005" lon="-2.1079395">
<ele>1108</ele>
<time>2014-10-05T18:11:55Z</time>
</trkpt>
<trkpt lat="42.87304" lon="-2.1077414">
<ele>1110</ele>
<time>2014-10-05T18:11:57Z</time>
</trkpt>
<trkpt lat="42.87306" lon="-2.107517">
<ele>1108</ele>
<time>2014-10-05T18:11:59Z</time>
</trkpt>
<trkpt lat="42.873096" lon="-2.1072948">
<ele>1109</ele>
<time>2014-10-05T18:12:01Z</time>
</trkpt>
<trkpt lat="42.873173" lon="-2.1070955">
<ele>1111</ele>
<time>2014-10-05T18:12:03Z</time>
</trkpt>
<trkpt lat="42.87322" lon="-2.1068676">
<ele>1114</ele>
<time>2014-10-05T18:12:05Z</time>
</trkpt>
<trkpt lat="42.87325" lon="-2.1066658">
<ele>1117</ele>
<time>2014-10-05T18:12:07Z</time>
</trkpt>
<trkpt lat="42.873283" lon="-2.1064749">
<ele>1118</ele>
<time>2014-10-05T18:12:09Z</time>
</trkpt>
<trkpt lat="42.87331" lon="-2.106243">
<ele>1118</ele>
<time>2014-10-05T18:12:11Z</time>
</trkpt>
<trkpt lat="42.873337" lon="-2.1059933">
<ele>1121</ele>
<time>2014-10-05T18:12:13Z</time>
</trkpt>
<trkpt lat="42.873333" lon="-2.105753">
<ele>1122</ele>
<time>2014-10-05T18:12:15Z</time>
</trkpt>
<trkpt lat="42.873383" lon="-2.1055474">
<ele>1123</ele>
<time>2014-10-05T18:12:17Z</time>
</trkpt>
<trkpt lat="42.873383" lon="-2.1053064">
<ele>1126</ele>
<time>2014-10-05T18:12:19Z</time>
</trkpt>
<trkpt lat="42.87341" lon="-2.1050794">
<ele>1128</ele>
<time>2014-10-05T18:12:21Z</time>
</trkpt>
<trkpt lat="42.87347" lon="-2.1048982">
<ele>1129</ele>
<time>2014-10-05T18:12:23Z</time>
</trkpt>
<trkpt lat="42.87352" lon="-2.1047292">
<ele>1129</ele>
<time>2014-10-05T18:12:25Z</time>
</trkpt>
<trkpt lat="42.873558" lon="-2.1045754">
<ele>1128</ele>
<time>2014-10-05T18:12:27Z</time>
</trkpt>
<trkpt lat="42.87368" lon="-2.1043966">
<ele>1128</ele>
<time>2014-10-05T18:12:29Z</time>
</trkpt>
<trkpt lat="42.87372" lon="-2.1041713">
<ele>1132</ele>
<time>2014-10-05T18:12:31Z</time>
</trkpt>
<trkpt lat="42.873787" lon="-2.104017">
<ele>1132</ele>
<time>2014-10-05T18:12:33Z</time>
</trkpt>
<trkpt lat="42.87389" lon="-2.103828">
<ele>1135</ele>
<time>2014-10-05T18:12:35Z</time>
</trkpt>
<trkpt lat="42.873962" lon="-2.1036084">
<ele>1138</ele>
<time>2014-10-05T18:12:37Z</time>
</trkpt>
<trkpt lat="42.87404" lon="-2.1034138">
<ele>1138</ele>
<time>2014-10-05T18:12:39Z</time>
</trkpt>
<trkpt lat="42.874107" lon="-2.1031656">
<ele>1139</ele>
<time>2014-10-05T18:12:41Z</time>
</trkpt>
<trkpt lat="42.87418" lon="-2.1029606">
<ele>1142</ele>
<time>2014-10-05T18:12:43Z</time>
</trkpt>
<trkpt lat="42.874275" lon="-2.10295">
<ele>1141</ele>
<time>2014-10-05T18:12:45Z</time>
</trkpt>
<trkpt lat="42.874363" lon="-2.1030836">
<ele>1140</ele>
<time>2014-10-05T18:12:47Z</time>
</trkpt>
<trkpt lat="42.874348" lon="-2.1032178">
<ele>1141</ele>
<time>2014-10-05T18:12:49Z</time>
</trkpt>
<trkpt lat="42.87437" lon="-2.1033318">
<ele>1141</ele>
<time>2014-10-05T18:12:51Z</time>
</trkpt>
<trkpt lat="42.87444" lon="-2.1034026">
<ele>1146</ele>
<time>2014-10-05T18:12:53Z</time>
</trkpt>
<trkpt lat="42.874466" lon="-2.1035016">
<ele>1148</ele>
<time>2014-10-05T18:12:55Z</time>
</trkpt>
<trkpt lat="42.87453" lon="-2.1035757">
<ele>1148</ele>
<time>2014-10-05T18:12:57Z</time>
</trkpt>
<trkpt lat="42.874588" lon="-2.1036797">
<ele>1149</ele>
<time>2014-10-05T18:12:59Z</time>
</trkpt>
<trkpt lat="42.874645" lon="-2.1038039">
<ele>1148</ele>
<time>2014-10-05T18:13:01Z</time>
</trkpt>
<trkpt lat="42.87469" lon="-2.103919">
<ele>1149</ele>
<time>2014-10-05T18:13:03Z</time>
</trkpt>
<trkpt lat="42.874695" lon="-2.104015">
<ele>1148</ele>
<time>2014-10-05T18:13:05Z</time>
</trkpt>
<trkpt lat="42.87472" lon="-2.104203">
<ele>1148</ele>
<time>2014-10-05T18:13:07Z</time>
</trkpt>
<trkpt lat="42.874725" lon="-2.1042972">
<ele>1149</ele>
<time>2014-10-05T18:13:09Z</time>
</trkpt>
<trkpt lat="42.874798" lon="-2.104383">
<ele>1150</ele>
<time>2014-10-05T18:13:11Z</time>
</trkpt>
<trkpt lat="42.87486" lon="-2.1044805">
<ele>1152</ele>
<time>2014-10-05T18:13:13Z</time>
</trkpt>
<trkpt lat="42.874916" lon="-2.1045702">
<ele>1152</ele>
<time>2014-10-05T18:13:15Z</time>
</trkpt>
<trkpt lat="42.87498" lon="-2.104656">
<ele>1153</ele>
<time>2014-10-05T18:13:17Z</time>
</trkpt>
<trkpt lat="42.87504" lon="-2.1047268">
<ele>1155</ele>
<time>2014-10-05T18:13:19Z</time>
</trkpt>
<trkpt lat="42.87512" lon="-2.1048024">
<ele>1155</ele>
<time>2014-10-05T18:13:21Z</time>
</trkpt>
<trkpt lat="42.875214" lon="-2.1048446">
<ele>1155</ele>
<time>2014-10-05T18:13:23Z</time>
</trkpt>
<trkpt lat="42.875317" lon="-2.1048956">
<ele>1158</ele>
<time>2014-10-05T18:13:25Z</time>
</trkpt>
<trkpt lat="42.875404" lon="-2.1049368">
<ele>1158</ele>
<time>2014-10-05T18:13:27Z</time>
</trkpt>
<trkpt lat="42.8755" lon="-2.1050143">
<ele>1159</ele>
<time>2014-10-05T18:13:29Z</time>
</trkpt>
<trkpt lat="42.875496" lon="-2.1051219">
<ele>1158</ele>
<time>2014-10-05T18:13:31Z</time>
</trkpt>
<trkpt lat="42.875423" lon="-2.1052501">
<ele>1158</ele>
<time>2014-10-05T18:13:33Z</time>
</trkpt>
<trkpt lat="42.875454" lon="-2.105402">
<ele>1158</ele>
<time>2014-10-05T18:13:35Z</time>
</trkpt>
<trkpt lat="42.87545" lon="-2.105545">
<ele>1157</ele>
<time>2014-10-05T18:13:37Z</time>
</trkpt>
<trkpt lat="42.87528" lon="-2.105669">
<ele>1155</ele>
<time>2014-10-05T18:13:39Z</time>
</trkpt>
<trkpt lat="42.87515" lon="-2.1057806">
<ele>1154</ele>
<time>2014-10-05T18:13:41Z</time>
</trkpt>
<trkpt lat="42.875023" lon="-2.105924">
<ele>1154</ele>
<time>2014-10-05T18:13:43Z</time>
</trkpt>
<trkpt lat="42.87492" lon="-2.1060972">
<ele>1154</ele>
<time>2014-10-05T18:13:45Z</time>
</trkpt>
<trkpt lat="42.87483" lon="-2.1062782">
<ele>1154</ele>
<time>2014-10-05T18:13:47Z</time>
</trkpt>
<trkpt lat="42.874775" lon="-2.1064086">
<ele>1154</ele>
<time>2014-10-05T18:13:49Z</time>
</trkpt>
<trkpt lat="42.874714" lon="-2.106546">
<ele>1153</ele>
<time>2014-10-05T18:13:50Z</time>
</trkpt>
<trkpt lat="42.874683" lon="-2.106698">
<ele>1152</ele>
<time>2014-10-05T18:13:53Z</time>
</trkpt>
<trkpt lat="42.874634" lon="-2.1068194">
<ele>1151</ele>
<time>2014-10-05T18:13:55Z</time>
</trkpt>
<trkpt lat="42.87463" lon="-2.1069622">
<ele>1150</ele>
<time>2014-10-05T18:13:57Z</time>
</trkpt>
<trkpt lat="42.87461" lon="-2.1071637">
<ele>1150</ele>
<time>2014-10-05T18:13:58Z</time>
</trkpt>
<trkpt lat="42.874645" lon="-2.107346">
<ele>1151</ele>
<time>2014-10-05T18:14:01Z</time>
</trkpt>
<trkpt lat="42.87468" lon="-2.10751">
<ele>1150</ele>
<time>2014-10-05T18:14:03Z</time>
</trkpt>
<trkpt lat="42.874683" lon="-2.1076105">
<ele>1151</ele>
<time>2014-10-05T18:14:04Z</time>
</trkpt>
<trkpt lat="42.874577" lon="-2.1078053">
<ele>1149</ele>
<time>2014-10-05T18:14:07Z</time>
</trkpt>
<trkpt lat="42.874496" lon="-2.1079688">
<ele>1149</ele>
<time>2014-10-05T18:14:09Z</time>
</trkpt>
<trkpt lat="42.87447" lon="-2.1080606">
<ele>1146</ele>
<time>2014-10-05T18:14:11Z</time>
</trkpt>
<trkpt lat="42.87441" lon="-2.1082103">
<ele>1144</ele>
<time>2014-10-05T18:14:13Z</time>
</trkpt>
<trkpt lat="42.874363" lon="-2.1083179">
<ele>1145</ele>
<time>2014-10-05T18:14:14Z</time>
</trkpt>
<trkpt lat="42.874207" lon="-2.1084335">
<ele>1142</ele>
<time>2014-10-05T18:14:17Z</time>
</trkpt>
<trkpt lat="42.874065" lon="-2.1085832">
<ele>1140</ele>
<time>2014-10-05T18:14:19Z</time>
</trkpt>
<trkpt lat="42.873966" lon="-2.1087914">
<ele>1138</ele>
<time>2014-10-05T18:14:21Z</time>
</trkpt>
<trkpt lat="42.87383" lon="-2.108941">
<ele>1140</ele>
<time>2014-10-05T18:14:22Z</time>
</trkpt>
<trkpt lat="42.873722" lon="-2.1090868">
<ele>1141</ele>
<time>2014-10-05T18:14:25Z</time>
</trkpt>
<trkpt lat="42.87358" lon="-2.109269">
<ele>1140</ele>
<time>2014-10-05T18:14:27Z</time>
</trkpt>
<trkpt lat="42.873516" lon="-2.1094532">
<ele>1140</ele>
<time>2014-10-05T18:14:29Z</time>
</trkpt>
<trkpt lat="42.87338" lon="-2.1096113">
<ele>1138</ele>
<time>2014-10-05T18:14:31Z</time>
</trkpt>
<trkpt lat="42.873287" lon="-2.109764">
<ele>1138</ele>
<time>2014-10-05T18:14:32Z</time>
</trkpt>
<trkpt lat="42.873234" lon="-2.1100261">
<ele>1138</ele>
<time>2014-10-05T18:14:35Z</time>
</trkpt>
<trkpt lat="42.87316" lon="-2.110206">
<ele>1136</ele>
<time>2014-10-05T18:14:36Z</time>
</trkpt>
<trkpt lat="42.87306" lon="-2.1103528">
<ele>1135</ele>
<time>2014-10-05T18:14:39Z</time>
</trkpt>
<trkpt lat="42.873" lon="-2.1105611">
<ele>1133</ele>
<time>2014-10-05T18:14:41Z</time>
</trkpt>
<trkpt lat="42.872955" lon="-2.1107688">
<ele>1133</ele>
<time>2014-10-05T18:14:43Z</time>
</trkpt>
<trkpt lat="42.872913" lon="-2.1109393">
<ele>1132</ele>
<time>2014-10-05T18:14:44Z</time>
</trkpt>
<trkpt lat="42.872856" lon="-2.1110585">
<ele>1130</ele>
<time>2014-10-05T18:14:46Z</time>
</trkpt>
<trkpt lat="42.872826" lon="-2.1112216">
<ele>1132</ele>
<time>2014-10-05T18:14:49Z</time>
</trkpt>
<trkpt lat="42.872765" lon="-2.1114125">
<ele>1132</ele>
<time>2014-10-05T18:14:51Z</time>
</trkpt>
<trkpt lat="42.872616" lon="-2.111632">
<ele>1131</ele>
<time>2014-10-05T18:14:53Z</time>
</trkpt>
<trkpt lat="42.872494" lon="-2.1118488">
<ele>1130</ele>
<time>2014-10-05T18:14:55Z</time>
</trkpt>
<trkpt lat="42.872364" lon="-2.1120298">
<ele>1128</ele>
<time>2014-10-05T18:14:57Z</time>
</trkpt>
<trkpt lat="42.872192" lon="-2.1121917">
<ele>1128</ele>
<time>2014-10-05T18:14:59Z</time>
</trkpt>
<trkpt lat="42.872135" lon="-2.112361">
<ele>1129</ele>
<time>2014-10-05T18:15:01Z</time>
</trkpt>
<trkpt lat="42.87206" lon="-2.1125238">
<ele>1128</ele>
<time>2014-10-05T18:15:03Z</time>
</trkpt>
<trkpt lat="42.87193" lon="-2.1127176">
<ele>1129</ele>
<time>2014-10-05T18:15:05Z</time>
</trkpt>
<trkpt lat="42.871883" lon="-2.112926">
<ele>1128</ele>
<time>2014-10-05T18:15:07Z</time>
</trkpt>
<trkpt lat="42.871857" lon="-2.1130383">
<ele>1128</ele>
<time>2014-10-05T18:15:08Z</time>
</trkpt>
<trkpt lat="42.871876" lon="-2.1131337">
<ele>1127</ele>
<time>2014-10-05T18:15:11Z</time>
</trkpt>
<trkpt lat="42.871864" lon="-2.1132483">
<ele>1127</ele>
<time>2014-10-05T18:15:13Z</time>
</trkpt>
<trkpt lat="42.87195" lon="-2.113322">
<ele>1126</ele>
<time>2014-10-05T18:15:15Z</time>
</trkpt>
<trkpt lat="42.87197" lon="-2.1134648">
<ele>1126</ele>
<time>2014-10-05T18:15:17Z</time>
</trkpt>
<trkpt lat="42.871998" lon="-2.1135902">
<ele>1126</ele>
<time>2014-10-05T18:15:19Z</time>
</trkpt>
<trkpt lat="42.87203" lon="-2.113659">
<ele>1127</ele>
<time>2014-10-05T18:15:21Z</time>
</trkpt>
<trkpt lat="42.872044" lon="-2.113696">
<ele>1122</ele>
<time>2014-10-05T18:15:23Z</time>
</trkpt>
<trkpt lat="42.872116" lon="-2.1137059">
<ele>1120</ele>
<time>2014-10-05T18:15:25Z</time>
</trkpt>
<trkpt lat="42.872208" lon="-2.1137574">
<ele>1120</ele>
<time>2014-10-05T18:15:27Z</time>
</trkpt>
<trkpt lat="42.87227" lon="-2.1138144">
<ele>1116</ele>
<time>2014-10-05T18:15:29Z</time>
</trkpt>
<trkpt lat="42.87232" lon="-2.113565">
<ele>1108</ele>
<time>2014-10-05T18:15:31Z</time>
</trkpt>
<trkpt lat="42.872345" lon="-2.113265">
<ele>1108</ele>
<time>2014-10-05T18:15:33Z</time>
</trkpt>
<trkpt lat="42.87232" lon="-2.1129606">
<ele>1106</ele>
<time>2014-10-05T18:15:35Z</time>
</trkpt>
<trkpt lat="42.872242" lon="-2.1127174">
<ele>1107</ele>
<time>2014-10-05T18:15:37Z</time>
</trkpt>
<trkpt lat="42.872173" lon="-2.112438">
<ele>1108</ele>
<time>2014-10-05T18:15:39Z</time>
</trkpt>
<trkpt lat="42.87211" lon="-2.112179">
<ele>1110</ele>
<time>2014-10-05T18:15:41Z</time>
</trkpt>
<trkpt lat="42.872044" lon="-2.1119328">
<ele>1111</ele>
<time>2014-10-05T18:15:43Z</time>
</trkpt>
<trkpt lat="42.872086" lon="-2.1116388">
<ele>1108</ele>
<time>2014-10-05T18:15:45Z</time>
</trkpt>
<trkpt lat="42.872147" lon="-2.1114235">
<ele>1107</ele>
<time>2014-10-05T18:15:47Z</time>
</trkpt>
<trkpt lat="42.87222" lon="-2.1112545">
<ele>1106</ele>
<time>2014-10-05T18:15:49Z</time>
</trkpt>
<trkpt lat="42.872303" lon="-2.1110697">
<ele>1103</ele>
<time>2014-10-05T18:15:51Z</time>
</trkpt>
<trkpt lat="42.872395" lon="-2.1108773">
<ele>1101</ele>
<time>2014-10-05T18:15:53Z</time>
</trkpt>
<trkpt lat="42.872448" lon="-2.1106558">
<ele>1099</ele>
<time>2014-10-05T18:15:55Z</time>
</trkpt>
<trkpt lat="42.872498" lon="-2.1104536">
<ele>1096</ele>
<time>2014-10-05T18:15:57Z</time>
</trkpt>
<trkpt lat="42.872574" lon="-2.1102686">
<ele>1095</ele>
<time>2014-10-05T18:15:59Z</time>
</trkpt>
<trkpt lat="42.872654" lon="-2.110128">
<ele>1096</ele>
<time>2014-10-05T18:16:01Z</time>
</trkpt>
<trkpt lat="42.87272" lon="-2.1099694">
<ele>1098</ele>
<time>2014-10-05T18:16:03Z</time>
</trkpt>
<trkpt lat="42.87277" lon="-2.1097853">
<ele>1099</ele>
<time>2014-10-05T18:16:05Z</time>
</trkpt>
<trkpt lat="42.87281" lon="-2.109589">
<ele>1100</ele>
<time>2014-10-05T18:16:07Z</time>
</trkpt>
<trkpt lat="42.87281" lon="-2.1093376">
<ele>1102</ele>
<time>2014-10-05T18:16:09Z</time>
</trkpt>
<trkpt lat="42.87282" lon="-2.1091158">
<ele>1104</ele>
<time>2014-10-05T18:16:11Z</time>
</trkpt>
<trkpt lat="42.87285" lon="-2.1088777">
<ele>1105</ele>
<time>2014-10-05T18:16:13Z</time>
</trkpt>
<trkpt lat="42.872894" lon="-2.1086578">
<ele>1105</ele>
<time>2014-10-05T18:16:15Z</time>
</trkpt>
<trkpt lat="42.872932" lon="-2.1084201">
<ele>1108</ele>
<time>2014-10-05T18:16:17Z</time>
</trkpt>
<trkpt lat="42.872955" lon="-2.1081924">
<ele>1110</ele>
<time>2014-10-05T18:16:19Z</time>
</trkpt>
<trkpt lat="42.872997" lon="-2.1079535">
<ele>1112</ele>
<time>2014-10-05T18:16:21Z</time>
</trkpt>
<trkpt lat="42.872997" lon="-2.1077228">
<ele>1115</ele>
<time>2014-10-05T18:16:23Z</time>
</trkpt>
<trkpt lat="42.873" lon="-2.1074946">
<ele>1115</ele>
<time>2014-10-05T18:16:25Z</time>
</trkpt>
<trkpt lat="42.873043" lon="-2.1073015">
<ele>1118</ele>
<time>2014-10-05T18:16:27Z</time>
</trkpt>
<trkpt lat="42.87311" lon="-2.1071284">
<ele>1119</ele>
<time>2014-10-05T18:16:29Z</time>
</trkpt>
<trkpt lat="42.87315" lon="-2.1069765">
<ele>1119</ele>
<time>2014-10-05T18:16:31Z</time>
</trkpt>
<trkpt lat="42.873238" lon="-2.106761">
<ele>1118</ele>
<time>2014-10-05T18:16:33Z</time>
</trkpt>
<trkpt lat="42.87331" lon="-2.1065657">
<ele>1120</ele>
<time>2014-10-05T18:16:35Z</time>
</trkpt>
<trkpt lat="42.87335" lon="-2.1063476">
<ele>1122</ele>
<time>2014-10-05T18:16:37Z</time>
</trkpt>
<trkpt lat="42.87343" lon="-2.1061232">
<ele>1122</ele>
<time>2014-10-05T18:16:39Z</time>
</trkpt>
<trkpt lat="42.873486" lon="-2.1058903">
<ele>1125</ele>
<time>2014-10-05T18:16:41Z</time>
</trkpt>
<trkpt lat="42.873478" lon="-2.105622">
<ele>1129</ele>
<time>2014-10-05T18:16:43Z</time>
</trkpt>
<trkpt lat="42.87351" lon="-2.1053903">
<ele>1130</ele>
<time>2014-10-05T18:16:45Z</time>
</trkpt>
<trkpt lat="42.87358" lon="-2.1052053">
<ele>1130</ele>
<time>2014-10-05T18:16:47Z</time>
</trkpt>
<trkpt lat="42.873665" lon="-2.1052098">
<ele>1129</ele>
<time>2014-10-05T18:16:49Z</time>
</trkpt>
<trkpt lat="42.873734" lon="-2.1053097">
<ele>1130</ele>
<time>2014-10-05T18:16:51Z</time>
</trkpt>
<trkpt lat="42.873756" lon="-2.1054406">
<ele>1130</ele>
<time>2014-10-05T18:16:53Z</time>
</trkpt>
<trkpt lat="42.873806" lon="-2.1055274">
<ele>1130</ele>
<time>2014-10-05T18:16:55Z</time>
</trkpt>
<trkpt lat="42.87389" lon="-2.1056437">
<ele>1132</ele>
<time>2014-10-05T18:16:57Z</time>
</trkpt>
<trkpt lat="42.873928" lon="-2.1057389">
<ele>1134</ele>
<time>2014-10-05T18:16:59Z</time>
</trkpt>
<trkpt lat="42.873997" lon="-2.1058414">
<ele>1132</ele>
<time>2014-10-05T18:17:01Z</time>
</trkpt>
<trkpt lat="42.87407" lon="-2.1059303">
<ele>1134</ele>
<time>2014-10-05T18:17:03Z</time>
</trkpt>
<trkpt lat="42.874157" lon="-2.1060133">
<ele>1136</ele>
<time>2014-10-05T18:17:05Z</time>
</trkpt>
<trkpt lat="42.87416" lon="-2.106136">
<ele>1135</ele>
<time>2014-10-05T18:17:07Z</time>
</trkpt>
<trkpt lat="42.874176" lon="-2.10627">
<ele>1135</ele>
<time>2014-10-05T18:17:09Z</time>
</trkpt>
<trkpt lat="42.874123" lon="-2.106392">
<ele>1135</ele>
<time>2014-10-05T18:17:11Z</time>
</trkpt>
<trkpt lat="42.87398" lon="-2.1065633">
<ele>1136</ele>
<time>2014-10-05T18:17:13Z</time>
</trkpt>
<trkpt lat="42.873894" lon="-2.1066809">
<ele>1136</ele>
<time>2014-10-05T18:17:15Z</time>
</trkpt>
<trkpt lat="42.873787" lon="-2.106775">
<ele>1136</ele>
<time>2014-10-05T18:17:17Z</time>
</trkpt>
<trkpt lat="42.873665" lon="-2.1068704">
<ele>1134</ele>
<time>2014-10-05T18:17:19Z</time>
</trkpt>
<trkpt lat="42.873493" lon="-2.1069605">
<ele>1134</ele>
<time>2014-10-05T18:17:21Z</time>
</trkpt>
<trkpt lat="42.87335" lon="-2.107126">
<ele>1134</ele>
<time>2014-10-05T18:17:23Z</time>
</trkpt>
<trkpt lat="42.873196" lon="-2.1073163">
<ele>1135</ele>
<time>2014-10-05T18:17:25Z</time>
</trkpt>
<trkpt lat="42.87312" lon="-2.1075683">
<ele>1135</ele>
<time>2014-10-05T18:17:27Z</time>
</trkpt>
<trkpt lat="42.87308" lon="-2.10773">
<ele>1135</ele>
<time>2014-10-05T18:17:29Z</time>
</trkpt>
<trkpt lat="42.873024" lon="-2.1079013">
<ele>1135</ele>
<time>2014-10-05T18:17:31Z</time>
</trkpt>
<trkpt lat="42.872936" lon="-2.1080837">
<ele>1135</ele>
<time>2014-10-05T18:17:32Z</time>
</trkpt>
<trkpt lat="42.87293" lon="-2.1082788">
<ele>1135</ele>
<time>2014-10-05T18:17:34Z</time>
</trkpt>
<trkpt lat="42.87296" lon="-2.1084342">
<ele>1135</ele>
<time>2014-10-05T18:17:37Z</time>
</trkpt>
<trkpt lat="42.873" lon="-2.1086245">
<ele>1133</ele>
<time>2014-10-05T18:17:38Z</time>
</trkpt>
<trkpt lat="42.87297" lon="-2.1087554">
<ele>1135</ele>
<time>2014-10-05T18:17:41Z</time>
</trkpt>
<trkpt lat="42.872868" lon="-2.108961">
<ele>1135</ele>
<time>2014-10-05T18:17:43Z</time>
</trkpt>
<trkpt lat="42.87283" lon="-2.1091511">
<ele>1137</ele>
<time>2014-10-05T18:17:45Z</time>
</trkpt>
<trkpt lat="42.872765" lon="-2.1092868">
<ele>1138</ele>
<time>2014-10-05T18:17:46Z</time>
</trkpt>
<trkpt lat="42.87268" lon="-2.1094651">
<ele>1135</ele>
<time>2014-10-05T18:17:49Z</time>
</trkpt>
<trkpt lat="42.87262" lon="-2.1096497">
<ele>1135</ele>
<time>2014-10-05T18:17:51Z</time>
</trkpt>
<trkpt lat="42.87259" lon="-2.1098208">
<ele>1135</ele>
<time>2014-10-05T18:17:53Z</time>
</trkpt>
<trkpt lat="42.872684" lon="-2.1098917">
<ele>1137</ele>
<time>2014-10-05T18:17:55Z</time>
</trkpt>
<trkpt lat="42.87274" lon="-2.109961">
<ele>1139</ele>
<time>2014-10-05T18:17:57Z</time>
</trkpt>
<trkpt lat="42.872787" lon="-2.110043">
<ele>1136</ele>
<time>2014-10-05T18:17:59Z</time>
</trkpt>
<trkpt lat="42.87285" lon="-2.1100764">
<ele>1136</ele>
<time>2014-10-05T18:18:01Z</time>
</trkpt>
<trkpt lat="42.872917" lon="-2.1101277">
<ele>1136</ele>
<time>2014-10-05T18:18:03Z</time>
</trkpt>
<trkpt lat="42.872948" lon="-2.1102154">
<ele>1134</ele>
<time>2014-10-05T18:18:05Z</time>
</trkpt>
<trkpt lat="42.872963" lon="-2.1104152">
<ele>1134</ele>
<time>2014-10-05T18:18:07Z</time>
</trkpt>
<trkpt lat="42.872833" lon="-2.1105537">
<ele>1133</ele>
<time>2014-10-05T18:18:08Z</time>
</trkpt>
<trkpt lat="42.87272" lon="-2.1107352">
<ele>1130</ele>
<time>2014-10-05T18:18:11Z</time>
</trkpt>
<trkpt lat="42.87264" lon="-2.1109147">
<ele>1130</ele>
<time>2014-10-05T18:18:13Z</time>
</trkpt>
<trkpt lat="42.872456" lon="-2.1110723">
<ele>1131</ele>
<time>2014-10-05T18:18:15Z</time>
</trkpt>
<trkpt lat="42.872356" lon="-2.111242">
<ele>1132</ele>
<time>2014-10-05T18:18:17Z</time>
</trkpt>
<trkpt lat="42.87233" lon="-2.1113827">
<ele>1131</ele>
<time>2014-10-05T18:18:19Z</time>
</trkpt>
<trkpt lat="42.872246" lon="-2.1114945">
<ele>1130</ele>
<time>2014-10-05T18:18:20Z</time>
</trkpt>
<trkpt lat="42.87215" lon="-2.11165">
<ele>1129</ele>
<time>2014-10-05T18:18:22Z</time>
</trkpt>
<trkpt lat="42.872177" lon="-2.1117404">
<ele>1127</ele>
<time>2014-10-05T18:18:25Z</time>
</trkpt>
<trkpt lat="42.87214" lon="-2.111869">
<ele>1126</ele>
<time>2014-10-05T18:18:27Z</time>
</trkpt>
<trkpt lat="42.872036" lon="-2.1120522">
<ele>1123</ele>
<time>2014-10-05T18:18:29Z</time>
</trkpt>
<trkpt lat="42.872242" lon="-2.11216">
<ele>1123</ele>
<time>2014-10-05T18:18:31Z</time>
</trkpt>
<trkpt lat="42.872326" lon="-2.1120114">
<ele>1117</ele>
<time>2014-10-05T18:18:33Z</time>
</trkpt>
<trkpt lat="42.87242" lon="-2.111794">
<ele>1116</ele>
<time>2014-10-05T18:18:35Z</time>
</trkpt>
<trkpt lat="42.87249" lon="-2.1115866">
<ele>1118</ele>
<time>2014-10-05T18:18:37Z</time>
</trkpt>
<trkpt lat="42.87256" lon="-2.1113832">
<ele>1116</ele>
<time>2014-10-05T18:18:39Z</time>
</trkpt>
<trkpt lat="42.872665" lon="-2.1111856">
<ele>1117</ele>
<time>2014-10-05T18:18:40Z</time>
</trkpt>
<trkpt lat="42.872765" lon="-2.1110172">
<ele>1116</ele>
<time>2014-10-05T18:18:43Z</time>
</trkpt>
<trkpt lat="42.872753" lon="-2.1107154">
<ele>1114</ele>
<time>2014-10-05T18:18:45Z</time>
</trkpt>
<trkpt lat="42.872753" lon="-2.1104474">
<ele>1115</ele>
<time>2014-10-05T18:18:47Z</time>
</trkpt>
<trkpt lat="42.872715" lon="-2.110207">
<ele>1117</ele>
<time>2014-10-05T18:18:49Z</time>
</trkpt>
<trkpt lat="42.87271" lon="-2.1099608">
<ele>1117</ele>
<time>2014-10-05T18:18:51Z</time>
</trkpt>
<trkpt lat="42.87273" lon="-2.1097078">
<ele>1115</ele>
<time>2014-10-05T18:18:53Z</time>
</trkpt>
<trkpt lat="42.87273" lon="-2.1094623">
<ele>1112</ele>
<time>2014-10-05T18:18:55Z</time>
</trkpt>
<trkpt lat="42.87278" lon="-2.109206">
<ele>1109</ele>
<time>2014-10-05T18:18:56Z</time>
</trkpt>
<trkpt lat="42.872852" lon="-2.1089475">
<ele>1109</ele>
<time>2014-10-05T18:18:59Z</time>
</trkpt>
<trkpt lat="42.87287" lon="-2.1086364">
<ele>1111</ele>
<time>2014-10-05T18:19:01Z</time>
</trkpt>
<trkpt lat="42.87293" lon="-2.108388">
<ele>1111</ele>
<time>2014-10-05T18:19:03Z</time>
</trkpt>
<trkpt lat="42.87301" lon="-2.1081905">
<ele>1111</ele>
<time>2014-10-05T18:19:05Z</time>
</trkpt>
<trkpt lat="42.87308" lon="-2.1079526">
<ele>1111</ele>
<time>2014-10-05T18:19:07Z</time>
</trkpt>
<trkpt lat="42.873146" lon="-2.1077056">
<ele>1113</ele>
<time>2014-10-05T18:19:09Z</time>
</trkpt>
<trkpt lat="42.873177" lon="-2.1074438">
<ele>1112</ele>
<time>2014-10-05T18:19:10Z</time>
</trkpt>
<trkpt lat="42.873196" lon="-2.1071541">
<ele>1114</ele>
<time>2014-10-05T18:19:13Z</time>
</trkpt>
<trkpt lat="42.87321" lon="-2.1068974">
<ele>1115</ele>
<time>2014-10-05T18:19:15Z</time>
</trkpt>
<trkpt lat="42.873245" lon="-2.1066134">
<ele>1116</ele>
<time>2014-10-05T18:19:17Z</time>
</trkpt>
<trkpt lat="42.873272" lon="-2.1063495">
<ele>1119</ele>
<time>2014-10-05T18:19:19Z</time>
</trkpt>
<trkpt lat="42.873306" lon="-2.1061015">
<ele>1122</ele>
<time>2014-10-05T18:19:21Z</time>
</trkpt>
<trkpt lat="42.873333" lon="-2.1058517">
<ele>1122</ele>
<time>2014-10-05T18:19:22Z</time>
</trkpt>
<trkpt lat="42.873344" lon="-2.1056192">
<ele>1126</ele>
<time>2014-10-05T18:19:25Z</time>
</trkpt>
<trkpt lat="42.87338" lon="-2.1054509">
<ele>1127</ele>
<time>2014-10-05T18:19:27Z</time>
</trkpt>
<trkpt lat="42.873478" lon="-2.1052752">
<ele>1129</ele>
<time>2014-10-05T18:19:29Z</time>
</trkpt>
<trkpt lat="42.873547" lon="-2.1050997">
<ele>1131</ele>
<time>2014-10-05T18:19:31Z</time>
</trkpt>
<trkpt lat="42.873566" lon="-2.1048996">
<ele>1131</ele>
<time>2014-10-05T18:19:33Z</time>
</trkpt>
<trkpt lat="42.873596" lon="-2.1046524">
<ele>1131</ele>
<time>2014-10-05T18:19:35Z</time>
</trkpt>
<trkpt lat="42.873615" lon="-2.1043968">
<ele>1132</ele>
<time>2014-10-05T18:19:37Z</time>
</trkpt>
<trkpt lat="42.87365" lon="-2.104215">
<ele>1131</ele>
<time>2014-10-05T18:19:39Z</time>
</trkpt>
<trkpt lat="42.873703" lon="-2.104">
<ele>1130</ele>
<time>2014-10-05T18:19:40Z</time>
</trkpt>
<trkpt lat="42.873783" lon="-2.1037922">
<ele>1133</ele>
<time>2014-10-05T18:19:43Z</time>
</trkpt>
<trkpt lat="42.873844" lon="-2.103598">
<ele>1134</ele>
<time>2014-10-05T18:19:44Z</time>
</trkpt>
<trkpt lat="42.873898" lon="-2.1034245">
<ele>1133</ele>
<time>2014-10-05T18:19:47Z</time>
</trkpt>
<trkpt lat="42.87399" lon="-2.1031976">
<ele>1135</ele>
<time>2014-10-05T18:19:49Z</time>
</trkpt>
<trkpt lat="42.87403" lon="-2.1029987">
<ele>1137</ele>
<time>2014-10-05T18:19:51Z</time>
</trkpt>
<trkpt lat="42.874092" lon="-2.1028259">
<ele>1136</ele>
<time>2014-10-05T18:19:53Z</time>
</trkpt>
<trkpt lat="42.874176" lon="-2.102664">
<ele>1137</ele>
<time>2014-10-05T18:19:55Z</time>
</trkpt>
<trkpt lat="42.87428" lon="-2.1025395">
<ele>1140</ele>
<time>2014-10-05T18:19:57Z</time>
</trkpt>
<trkpt lat="42.87437" lon="-2.1024146">
<ele>1142</ele>
<time>2014-10-05T18:19:59Z</time>
</trkpt>
<trkpt lat="42.874493" lon="-2.102333">
<ele>1143</ele>
<time>2014-10-05T18:20:01Z</time>
</trkpt>
<trkpt lat="42.8746" lon="-2.102254">
<ele>1144</ele>
<time>2014-10-05T18:20:03Z</time>
</trkpt>
<trkpt lat="42.8747" lon="-2.1021721">
<ele>1146</ele>
<time>2014-10-05T18:20:05Z</time>
</trkpt>
<trkpt lat="42.874813" lon="-2.102135">
<ele>1144</ele>
<time>2014-10-05T18:20:07Z</time>
</trkpt>
<trkpt lat="42.874973" lon="-2.1020894">
<ele>1145</ele>
<time>2014-10-05T18:20:09Z</time>
</trkpt>
<trkpt lat="42.87509" lon="-2.1020348">
<ele>1147</ele>
<time>2014-10-05T18:20:11Z</time>
</trkpt>
<trkpt lat="42.87519" lon="-2.1019306">
<ele>1146</ele>
<time>2014-10-05T18:20:13Z</time>
</trkpt>
<trkpt lat="42.87529" lon="-2.1017954">
<ele>1146</ele>
<time>2014-10-05T18:20:15Z</time>
</trkpt>
<trkpt lat="42.875416" lon="-2.1016798">
<ele>1147</ele>
<time>2014-10-05T18:20:17Z</time>
</trkpt>
<trkpt lat="42.87553" lon="-2.1015584">
<ele>1148</ele>
<time>2014-10-05T18:20:19Z</time>
</trkpt>
<trkpt lat="42.875664" lon="-2.1014304">
<ele>1148</ele>
<time>2014-10-05T18:20:21Z</time>
</trkpt>
<trkpt lat="42.875786" lon="-2.1013076">
<ele>1149</ele>
<time>2014-10-05T18:20:23Z</time>
</trkpt>
<trkpt lat="42.875908" lon="-2.1011982">
<ele>1150</ele>
<time>2014-10-05T18:20:25Z</time>
</trkpt>
<trkpt lat="42.876034" lon="-2.1011012">
<ele>1151</ele>
<time>2014-10-05T18:20:27Z</time>
</trkpt>
<trkpt lat="42.87615" lon="-2.1010282">
<ele>1153</ele>
<time>2014-10-05T18:20:29Z</time>
</trkpt>
<trkpt lat="42.87627" lon="-2.1009626">
<ele>1151</ele>
<time>2014-10-05T18:20:31Z</time>
</trkpt>
<trkpt lat="42.8764" lon="-2.1009257">
<ele>1151</ele>
<time>2014-10-05T18:20:33Z</time>
</trkpt>
<trkpt lat="42.876534" lon="-2.1009157">
<ele>1151</ele>
<time>2014-10-05T18:20:35Z</time>
</trkpt>
<trkpt lat="42.876667" lon="-2.100905">
<ele>1152</ele>
<time>2014-10-05T18:20:37Z</time>
</trkpt>
<trkpt lat="42.87679" lon="-2.1008878">
<ele>1153</ele>
<time>2014-10-05T18:20:39Z</time>
</trkpt>
<trkpt lat="42.876923" lon="-2.1008377">
<ele>1153</ele>
<time>2014-10-05T18:20:41Z</time>
</trkpt>
<trkpt lat="42.87706" lon="-2.100765">
<ele>1155</ele>
<time>2014-10-05T18:20:43Z</time>
</trkpt>
<trkpt lat="42.877186" lon="-2.1006804">
<ele>1154</ele>
<time>2014-10-05T18:20:45Z</time>
</trkpt>
<trkpt lat="42.877323" lon="-2.100563">
<ele>1152</ele>
<time>2014-10-05T18:20:47Z</time>
</trkpt>
<trkpt lat="42.877453" lon="-2.1004057">
<ele>1150</ele>
<time>2014-10-05T18:20:49Z</time>
</trkpt>
<trkpt lat="42.877556" lon="-2.1002123">
<ele>1150</ele>
<time>2014-10-05T18:20:51Z</time>
</trkpt>
<trkpt lat="42.87761" lon="-2.0999691">
<ele>1150</ele>
<time>2014-10-05T18:20:53Z</time>
</trkpt>
<trkpt lat="42.87765" lon="-2.0997126">
<ele>1149</ele>
<time>2014-10-05T18:20:55Z</time>
</trkpt>
<trkpt lat="42.87767" lon="-2.0994513">
<ele>1149</ele>
<time>2014-10-05T18:20:57Z</time>
</trkpt>
<trkpt lat="42.87766" lon="-2.099199">
<ele>1149</ele>
<time>2014-10-05T18:20:58Z</time>
</trkpt>
<trkpt lat="42.877655" lon="-2.0989444">
<ele>1148</ele>
<time>2014-10-05T18:21:01Z</time>
</trkpt>
<trkpt lat="42.87766" lon="-2.0986795">
<ele>1149</ele>
<time>2014-10-05T18:21:03Z</time>
</trkpt>
<trkpt lat="42.87767" lon="-2.0984218">
<ele>1146</ele>
<time>2014-10-05T18:21:05Z</time>
</trkpt>
<trkpt lat="42.87765" lon="-2.0981555">
<ele>1146</ele>
<time>2014-10-05T18:21:07Z</time>
</trkpt>
<trkpt lat="42.877613" lon="-2.0978975">
<ele>1145</ele>
<time>2014-10-05T18:21:08Z</time>
</trkpt>
<trkpt lat="42.877567" lon="-2.097625">
<ele>1144</ele>
<time>2014-10-05T18:21:11Z</time>
</trkpt>
<trkpt lat="42.87754" lon="-2.0973594">
<ele>1142</ele>
<time>2014-10-05T18:21:13Z</time>
</trkpt>
<trkpt lat="42.877514" lon="-2.0970964">
<ele>1141</ele>
<time>2014-10-05T18:21:15Z</time>
</trkpt>
<trkpt lat="42.87753" lon="-2.096848">
<ele>1138</ele>
<time>2014-10-05T18:21:17Z</time>
</trkpt>
<trkpt lat="42.877556" lon="-2.096564">
<ele>1136</ele>
<time>2014-10-05T18:21:19Z</time>
</trkpt>
<trkpt lat="42.877594" lon="-2.096292">
<ele>1135</ele>
<time>2014-10-05T18:21:21Z</time>
</trkpt>
<trkpt lat="42.877632" lon="-2.0960412">
<ele>1135</ele>
<time>2014-10-05T18:21:23Z</time>
</trkpt>
<trkpt lat="42.87771" lon="-2.0957716">
<ele>1134</ele>
<time>2014-10-05T18:21:25Z</time>
</trkpt>
<trkpt lat="42.877827" lon="-2.0956051">
<ele>1133</ele>
<time>2014-10-05T18:21:27Z</time>
</trkpt>
<trkpt lat="42.87799" lon="-2.0955148">
<ele>1131</ele>
<time>2014-10-05T18:21:29Z</time>
</trkpt>
<trkpt lat="42.878082" lon="-2.095219">
<ele>1130</ele>
<time>2014-10-05T18:21:31Z</time>
</trkpt>
<trkpt lat="42.878136" lon="-2.0949469">
<ele>1128</ele>
<time>2014-10-05T18:21:33Z</time>
</trkpt>
<trkpt lat="42.878124" lon="-2.0946565">
<ele>1129</ele>
<time>2014-10-05T18:21:35Z</time>
</trkpt>
<trkpt lat="42.878124" lon="-2.0943809">
<ele>1127</ele>
<time>2014-10-05T18:21:37Z</time>
</trkpt>
<trkpt lat="42.878086" lon="-2.0941029">
<ele>1127</ele>
<time>2014-10-05T18:21:39Z</time>
</trkpt>
<trkpt lat="42.878044" lon="-2.0938485">
<ele>1127</ele>
<time>2014-10-05T18:21:41Z</time>
</trkpt>
<trkpt lat="42.877987" lon="-2.0935752">
<ele>1126</ele>
<time>2014-10-05T18:21:43Z</time>
</trkpt>
<trkpt lat="42.87795" lon="-2.0933232">
<ele>1124</ele>
<time>2014-10-05T18:21:45Z</time>
</trkpt>
<trkpt lat="42.877995" lon="-2.0930743">
<ele>1120</ele>
<time>2014-10-05T18:21:47Z</time>
</trkpt>
<trkpt lat="42.878124" lon="-2.0928955">
<ele>1115</ele>
<time>2014-10-05T18:21:49Z</time>
</trkpt>
<trkpt lat="42.878304" lon="-2.0929227">
<ele>1111</ele>
<time>2014-10-05T18:21:51Z</time>
</trkpt>
<trkpt lat="42.878334" lon="-2.0930996">
<ele>1111</ele>
<time>2014-10-05T18:21:53Z</time>
</trkpt>
<trkpt lat="42.8783" lon="-2.093202">
<ele>1110</ele>
<time>2014-10-05T18:21:54Z</time>
</trkpt>
<trkpt lat="42.878273" lon="-2.093318">
<ele>1110</ele>
<time>2014-10-05T18:21:56Z</time>
</trkpt>
<trkpt lat="42.87829" lon="-2.093493">
<ele>1110</ele>
<time>2014-10-05T18:22:00Z</time>
</trkpt>
<trkpt lat="42.8783" lon="-2.093601">
<ele>1110</ele>
<time>2014-10-05T18:22:02Z</time>
</trkpt>
<trkpt lat="42.878437" lon="-2.0937788">
<ele>1110</ele>
<time>2014-10-05T18:22:04Z</time>
</trkpt>
<trkpt lat="42.878487" lon="-2.0939076">
<ele>1111</ele>
<time>2014-10-05T18:22:05Z</time>
</trkpt>
<trkpt lat="42.878548" lon="-2.0940585">
<ele>1108</ele>
<time>2014-10-05T18:22:07Z</time>
</trkpt>
<trkpt lat="42.87862" lon="-2.0943646">
<ele>1109</ele>
<time>2014-10-05T18:22:11Z</time>
</trkpt>
<trkpt lat="42.878662" lon="-2.0945385">
<ele>1109</ele>
<time>2014-10-05T18:22:12Z</time>
</trkpt>
<trkpt lat="42.87866" lon="-2.0947373">
<ele>1108</ele>
<time>2014-10-05T18:22:15Z</time>
</trkpt>
<trkpt lat="42.87869" lon="-2.094933">
<ele>1108</ele>
<time>2014-10-05T18:22:17Z</time>
</trkpt>
<trkpt lat="42.878742" lon="-2.0950954">
<ele>1106</ele>
<time>2014-10-05T18:22:19Z</time>
</trkpt>
<trkpt lat="42.878723" lon="-2.0953507">
<ele>1104</ele>
<time>2014-10-05T18:22:21Z</time>
</trkpt>
<trkpt lat="42.87875" lon="-2.0955634">
<ele>1105</ele>
<time>2014-10-05T18:22:22Z</time>
</trkpt>
<trkpt lat="42.878727" lon="-2.0957732">
<ele>1105</ele>
<time>2014-10-05T18:22:24Z</time>
</trkpt>
<trkpt lat="42.878807" lon="-2.0959718">
<ele>1104</ele>
<time>2014-10-05T18:22:27Z</time>
</trkpt>
<trkpt lat="42.87884" lon="-2.0961614">
<ele>1102</ele>
<time>2014-10-05T18:22:29Z</time>
</trkpt>
<trkpt lat="42.878864" lon="-2.0963292">
<ele>1099</ele>
<time>2014-10-05T18:22:31Z</time>
</trkpt>
<trkpt lat="42.87888" lon="-2.0965626">
<ele>1098</ele>
<time>2014-10-05T18:22:32Z</time>
</trkpt>
<trkpt lat="42.878777" lon="-2.0967517">
<ele>1097</ele>
<time>2014-10-05T18:22:35Z</time>
</trkpt>
<trkpt lat="42.878643" lon="-2.096982">
<ele>1092</ele>
<time>2014-10-05T18:22:37Z</time>
</trkpt>
<trkpt lat="42.878616" lon="-2.0971634">
<ele>1093</ele>
<time>2014-10-05T18:22:39Z</time>
</trkpt>
<trkpt lat="42.878613" lon="-2.0973527">
<ele>1094</ele>
<time>2014-10-05T18:22:41Z</time>
</trkpt>
<trkpt lat="42.878532" lon="-2.097641">
<ele>1091</ele>
<time>2014-10-05T18:22:43Z</time>
</trkpt>
<trkpt lat="42.8785" lon="-2.0978763">
<ele>1090</ele>
<time>2014-10-05T18:22:45Z</time>
</trkpt>
<trkpt lat="42.878414" lon="-2.0980353">
<ele>1087</ele>
<time>2014-10-05T18:22:47Z</time>
</trkpt>
<trkpt lat="42.878384" lon="-2.098212">
<ele>1086</ele>
<time>2014-10-05T18:22:49Z</time>
</trkpt>
<trkpt lat="42.87838" lon="-2.0983603">
<ele>1083</ele>
<time>2014-10-05T18:22:51Z</time>
</trkpt>
<trkpt lat="42.878365" lon="-2.098504">
<ele>1079</ele>
<time>2014-10-05T18:22:52Z</time>
</trkpt>
<trkpt lat="42.87835" lon="-2.0986202">
<ele>1077</ele>
<time>2014-10-05T18:22:55Z</time>
</trkpt>
<trkpt lat="42.87832" lon="-2.0988452">
<ele>1075</ele>
<time>2014-10-05T18:22:57Z</time>
</trkpt>
<trkpt lat="42.87833" lon="-2.0990903">
<ele>1071</ele>
<time>2014-10-05T18:22:59Z</time>
</trkpt>
<trkpt lat="42.878326" lon="-2.099328">
<ele>1069</ele>
<time>2014-10-05T18:23:01Z</time>
</trkpt>
<trkpt lat="42.878326" lon="-2.0995398">
<ele>1066</ele>
<time>2014-10-05T18:23:03Z</time>
</trkpt>
<trkpt lat="42.87833" lon="-2.099753">
<ele>1064</ele>
<time>2014-10-05T18:23:05Z</time>
</trkpt>
<trkpt lat="42.878357" lon="-2.100055">
<ele>1064</ele>
<time>2014-10-05T18:23:08Z</time>
</trkpt>
<trkpt lat="42.878326" lon="-2.100228">
<ele>1064</ele>
<time>2014-10-05T18:23:10Z</time>
</trkpt>
<trkpt lat="42.878227" lon="-2.1004708">
<ele>1063</ele>
<time>2014-10-05T18:23:12Z</time>
</trkpt>
<trkpt lat="42.878223" lon="-2.1006002">
<ele>1061</ele>
<time>2014-10-05T18:23:14Z</time>
</trkpt>
<trkpt lat="42.87812" lon="-2.1007946">
<ele>1060</ele>
<time>2014-10-05T18:23:16Z</time>
</trkpt>
<trkpt lat="42.878002" lon="-2.1009192">
<ele>1059</ele>
<time>2014-10-05T18:23:18Z</time>
</trkpt>
<trkpt lat="42.877922" lon="-2.1010566">
<ele>1057</ele>
<time>2014-10-05T18:23:20Z</time>
</trkpt>
<trkpt lat="42.877823" lon="-2.1012316">
<ele>1057</ele>
<time>2014-10-05T18:23:21Z</time>
</trkpt>
<trkpt lat="42.877705" lon="-2.1013513">
<ele>1058</ele>
<time>2014-10-05T18:23:24Z</time>
</trkpt>
<trkpt lat="42.877644" lon="-2.101507">
<ele>1057</ele>
<time>2014-10-05T18:23:25Z</time>
</trkpt>
<trkpt lat="42.87757" lon="-2.1016912">
<ele>1059</ele>
<time>2014-10-05T18:23:28Z</time>
</trkpt>
<trkpt lat="42.877396" lon="-2.1018472">
<ele>1057</ele>
<time>2014-10-05T18:23:30Z</time>
</trkpt>
<trkpt lat="42.877296" lon="-2.1019886">
<ele>1055</ele>
<time>2014-10-05T18:23:32Z</time>
</trkpt>
<trkpt lat="42.877186" lon="-2.1020353">
<ele>1057</ele>
<time>2014-10-05T18:23:34Z</time>
</trkpt>
<trkpt lat="42.877106" lon="-2.102112">
<ele>1058</ele>
<time>2014-10-05T18:23:36Z</time>
</trkpt>
<trkpt lat="42.876995" lon="-2.102179">
<ele>1057</ele>
<time>2014-10-05T18:23:37Z</time>
</trkpt>
<trkpt lat="42.876907" lon="-2.1023417">
<ele>1058</ele>
<time>2014-10-05T18:23:40Z</time>
</trkpt>
<trkpt lat="42.87682" lon="-2.102488">
<ele>1059</ele>
<time>2014-10-05T18:23:42Z</time>
</trkpt>
<trkpt lat="42.87672" lon="-2.102629">
<ele>1060</ele>
<time>2014-10-05T18:23:44Z</time>
</trkpt>
<trkpt lat="42.876637" lon="-2.1027744">
<ele>1060</ele>
<time>2014-10-05T18:23:45Z</time>
</trkpt>
<trkpt lat="42.876553" lon="-2.1029232">
<ele>1061</ele>
<time>2014-10-05T18:23:47Z</time>
</trkpt>
<trkpt lat="42.876465" lon="-2.103075">
<ele>1064</ele>
<time>2014-10-05T18:23:50Z</time>
</trkpt>
<trkpt lat="42.87631" lon="-2.1030781">
<ele>1062</ele>
<time>2014-10-05T18:23:52Z</time>
</trkpt>
<trkpt lat="42.876125" lon="-2.103113">
<ele>1062</ele>
<time>2014-10-05T18:23:54Z</time>
</trkpt>
<trkpt lat="42.876" lon="-2.1031554">
<ele>1061</ele>
<time>2014-10-05T18:23:56Z</time>
</trkpt>
<trkpt lat="42.875843" lon="-2.1032064">
<ele>1061</ele>
<time>2014-10-05T18:23:58Z</time>
</trkpt>
<trkpt lat="42.875725" lon="-2.103352">
<ele>1060</ele>
<time>2014-10-05T18:24:00Z</time>
</trkpt>
<trkpt lat="42.875626" lon="-2.1035094">
<ele>1060</ele>
<time>2014-10-05T18:24:02Z</time>
</trkpt>
<trkpt lat="42.875523" lon="-2.1036627">
<ele>1063</ele>
<time>2014-10-05T18:24:04Z</time>
</trkpt>
<trkpt lat="42.87541" lon="-2.1037683">
<ele>1063</ele>
<time>2014-10-05T18:24:06Z</time>
</trkpt>
<trkpt lat="42.87528" lon="-2.1038325">
<ele>1064</ele>
<time>2014-10-05T18:24:08Z</time>
</trkpt>
<trkpt lat="42.875126" lon="-2.1039045">
<ele>1064</ele>
<time>2014-10-05T18:24:10Z</time>
</trkpt>
<trkpt lat="42.874973" lon="-2.1039708">
<ele>1065</ele>
<time>2014-10-05T18:24:12Z</time>
</trkpt>
<trkpt lat="42.87481" lon="-2.104114">
<ele>1066</ele>
<time>2014-10-05T18:24:14Z</time>
</trkpt>
<trkpt lat="42.87469" lon="-2.1042128">
<ele>1067</ele>
<time>2014-10-05T18:24:16Z</time>
</trkpt>
<trkpt lat="42.874542" lon="-2.1043446">
<ele>1068</ele>
<time>2014-10-05T18:24:18Z</time>
</trkpt>
<trkpt lat="42.87443" lon="-2.1044228">
<ele>1067</ele>
<time>2014-10-05T18:24:20Z</time>
</trkpt>
<trkpt lat="42.874374" lon="-2.1046076">
<ele>1070</ele>
<time>2014-10-05T18:24:21Z</time>
</trkpt>
<trkpt lat="42.874306" lon="-2.1047745">
<ele>1072</ele>
<time>2014-10-05T18:24:24Z</time>
</trkpt>
<trkpt lat="42.87426" lon="-2.1049054">
<ele>1073</ele>
<time>2014-10-05T18:24:26Z</time>
</trkpt>
<trkpt lat="42.874195" lon="-2.1050568">
<ele>1072</ele>
<time>2014-10-05T18:24:28Z</time>
</trkpt>
<trkpt lat="42.87414" lon="-2.1052327">
<ele>1072</ele>
<time>2014-10-05T18:24:30Z</time>
</trkpt>
<trkpt lat="42.87408" lon="-2.105414">
<ele>1072</ele>
<time>2014-10-05T18:24:32Z</time>
</trkpt>
<trkpt lat="42.874035" lon="-2.1056166">
<ele>1072</ele>
<time>2014-10-05T18:24:34Z</time>
</trkpt>
<trkpt lat="42.873997" lon="-2.105788">
<ele>1072</ele>
<time>2014-10-05T18:24:36Z</time>
</trkpt>
<trkpt lat="42.873962" lon="-2.1059833">
<ele>1072</ele>
<time>2014-10-05T18:24:38Z</time>
</trkpt>
<trkpt lat="42.873917" lon="-2.106124">
<ele>1074</ele>
<time>2014-10-05T18:24:40Z</time>
</trkpt>
<trkpt lat="42.873856" lon="-2.1062582">
<ele>1075</ele>
<time>2014-10-05T18:24:42Z</time>
</trkpt>
<trkpt lat="42.8737" lon="-2.1063857">
<ele>1077</ele>
<time>2014-10-05T18:24:44Z</time>
</trkpt>
<trkpt lat="42.873604" lon="-2.1065583">
<ele>1078</ele>
<time>2014-10-05T18:24:46Z</time>
</trkpt>
<trkpt lat="42.87357" lon="-2.10685">
<ele>1079</ele>
<time>2014-10-05T18:24:49Z</time>
</trkpt>
<trkpt lat="42.873585" lon="-2.1069684">
<ele>1079</ele>
<time>2014-10-05T18:24:51Z</time>
</trkpt>
<trkpt lat="42.873604" lon="-2.1070964">
<ele>1079</ele>
<time>2014-10-05T18:24:52Z</time>
</trkpt>
<trkpt lat="42.873596" lon="-2.1073651">
<ele>1077</ele>
<time>2014-10-05T18:24:54Z</time>
</trkpt>
<trkpt lat="42.873608" lon="-2.1075644">
<ele>1078</ele>
<time>2014-10-05T18:24:57Z</time>
</trkpt>
<trkpt lat="42.873604" lon="-2.1076508">
<ele>1079</ele>
<time>2014-10-05T18:24:58Z</time>
</trkpt>
<trkpt lat="42.873623" lon="-2.1078103">
<ele>1078</ele>
<time>2014-10-05T18:25:00Z</time>
</trkpt>
<trkpt lat="42.87361" lon="-2.1079757">
<ele>1080</ele>
<time>2014-10-05T18:25:03Z</time>
</trkpt>
<trkpt lat="42.873535" lon="-2.1081338">
<ele>1082</ele>
<time>2014-10-05T18:25:05Z</time>
</trkpt>
<trkpt lat="42.873398" lon="-2.1083264">
<ele>1081</ele>
<time>2014-10-05T18:25:07Z</time>
</trkpt>
<trkpt lat="42.87333" lon="-2.1084557">
<ele>1081</ele>
<time>2014-10-05T18:25:09Z</time>
</trkpt>
<trkpt lat="42.873272" lon="-2.1086235">
<ele>1081</ele>
<time>2014-10-05T18:25:11Z</time>
</trkpt>
<trkpt lat="42.873234" lon="-2.1087217">
<ele>1082</ele>
<time>2014-10-05T18:25:13Z</time>
</trkpt>
<trkpt lat="42.873272" lon="-2.1089141">
<ele>1083</ele>
<time>2014-10-05T18:25:15Z</time>
</trkpt>
<trkpt lat="42.87329" lon="-2.1090324">
<ele>1081</ele>
<time>2014-10-05T18:25:17Z</time>
</trkpt>
<trkpt lat="42.873264" lon="-2.1091626">
<ele>1081</ele>
<time>2014-10-05T18:25:19Z</time>
</trkpt>
<trkpt lat="42.87323" lon="-2.1091795">
<ele>1082</ele>
<time>2014-10-05T18:25:21Z</time>
</trkpt>
<trkpt lat="42.873055" lon="-2.1092367">
<ele>1086</ele>
<time>2014-10-05T18:25:23Z</time>
</trkpt>
<trkpt lat="42.872936" lon="-2.1093056">
<ele>1086</ele>
<time>2014-10-05T18:25:25Z</time>
</trkpt>
<trkpt lat="42.87283" lon="-2.109454">
<ele>1083</ele>
<time>2014-10-05T18:25:27Z</time>
</trkpt>
<trkpt lat="42.87272" lon="-2.1096146">
<ele>1083</ele>
<time>2014-10-05T18:25:29Z</time>
</trkpt>
<trkpt lat="42.872864" lon="-2.109767">
<ele>1082</ele>
<time>2014-10-05T18:25:31Z</time>
</trkpt>
<trkpt lat="42.872967" lon="-2.1097996">
<ele>1084</ele>
<time>2014-10-05T18:25:32Z</time>
</trkpt>
<trkpt lat="42.873066" lon="-2.1096966">
<ele>1084</ele>
<time>2014-10-05T18:25:34Z</time>
</trkpt>
<trkpt lat="42.87313" lon="-2.1095448">
<ele>1083</ele>
<time>2014-10-05T18:25:37Z</time>
</trkpt>
<trkpt lat="42.873074" lon="-2.1092172">
<ele>1083</ele>
<time>2014-10-05T18:25:39Z</time>
</trkpt>
<trkpt lat="42.873093" lon="-2.1089978">
<ele>1085</ele>
<time>2014-10-05T18:25:41Z</time>
</trkpt>
<trkpt lat="42.873146" lon="-2.108788">
<ele>1084</ele>
<time>2014-10-05T18:25:43Z</time>
</trkpt>
<trkpt lat="42.87317" lon="-2.108578">
<ele>1083</ele>
<time>2014-10-05T18:25:45Z</time>
</trkpt>
<trkpt lat="42.873188" lon="-2.1083553">
<ele>1083</ele>
<time>2014-10-05T18:25:47Z</time>
</trkpt>
<trkpt lat="42.8732" lon="-2.1081355">
<ele>1085</ele>
<time>2014-10-05T18:25:49Z</time>
</trkpt>
<trkpt lat="42.873196" lon="-2.107914">
<ele>1084</ele>
<time>2014-10-05T18:25:51Z</time>
</trkpt>
<trkpt lat="42.873188" lon="-2.1076593">
<ele>1085</ele>
<time>2014-10-05T18:25:53Z</time>
</trkpt>
<trkpt lat="42.873207" lon="-2.1074457">
<ele>1084</ele>
<time>2014-10-05T18:25:55Z</time>
</trkpt>
<trkpt lat="42.87326" lon="-2.1072166">
<ele>1086</ele>
<time>2014-10-05T18:25:57Z</time>
</trkpt>
<trkpt lat="42.873325" lon="-2.1070182">
<ele>1087</ele>
<time>2014-10-05T18:25:59Z</time>
</trkpt>
<trkpt lat="42.87351" lon="-2.1069105">
<ele>1087</ele>
<time>2014-10-05T18:26:01Z</time>
</trkpt>
<trkpt lat="42.87355" lon="-2.1067421">
<ele>1089</ele>
<time>2014-10-05T18:26:03Z</time>
</trkpt>
<trkpt lat="42.873592" lon="-2.1065724">
<ele>1089</ele>
<time>2014-10-05T18:26:05Z</time>
</trkpt>
<trkpt lat="42.873665" lon="-2.1063564">
<ele>1090</ele>
<time>2014-10-05T18:26:07Z</time>
</trkpt>
<trkpt lat="42.87367" lon="-2.1061425">
<ele>1094</ele>
<time>2014-10-05T18:26:09Z</time>
</trkpt>
<trkpt lat="42.873714" lon="-2.1059377">
<ele>1093</ele>
<time>2014-10-05T18:26:11Z</time>
</trkpt>
<trkpt lat="42.873764" lon="-2.1056988">
<ele>1092</ele>
<time>2014-10-05T18:26:13Z</time>
</trkpt>
<trkpt lat="42.873837" lon="-2.105517">
<ele>1093</ele>
<time>2014-10-05T18:26:15Z</time>
</trkpt>
<trkpt lat="42.87395" lon="-2.1054106">
<ele>1092</ele>
<time>2014-10-05T18:26:17Z</time>
</trkpt>
<trkpt lat="42.874092" lon="-2.1054447">
<ele>1092</ele>
<time>2014-10-05T18:26:19Z</time>
</trkpt>
<trkpt lat="42.874226" lon="-2.105458">
<ele>1093</ele>
<time>2014-10-05T18:26:21Z</time>
</trkpt>
<trkpt lat="42.87435" lon="-2.1054835">
<ele>1093</ele>
<time>2014-10-05T18:26:23Z</time>
</trkpt>
<trkpt lat="42.874462" lon="-2.1055114">
<ele>1093</ele>
<time>2014-10-05T18:26:25Z</time>
</trkpt>
<trkpt lat="42.87458" lon="-2.105492">
<ele>1090</ele>
<time>2014-10-05T18:26:27Z</time>
</trkpt>
<trkpt lat="42.874706" lon="-2.1054757">
<ele>1089</ele>
<time>2014-10-05T18:26:29Z</time>
</trkpt>
<trkpt lat="42.874893" lon="-2.105522">
<ele>1087</ele>
<time>2014-10-05T18:26:31Z</time>
</trkpt>
<trkpt lat="42.875065" lon="-2.1055677">
<ele>1084</ele>
<time>2014-10-05T18:26:33Z</time>
</trkpt>
<trkpt lat="42.87519" lon="-2.1056452">
<ele>1086</ele>
<time>2014-10-05T18:26:35Z</time>
</trkpt>
<trkpt lat="42.87531" lon="-2.1057146">
<ele>1085</ele>
<time>2014-10-05T18:26:37Z</time>
</trkpt>
<trkpt lat="42.875404" lon="-2.105811">
<ele>1084</ele>
<time>2014-10-05T18:26:39Z</time>
</trkpt>
<trkpt lat="42.87554" lon="-2.1058958">
<ele>1083</ele>
<time>2014-10-05T18:26:41Z</time>
</trkpt>
<trkpt lat="42.875652" lon="-2.1059828">
<ele>1085</ele>
<time>2014-10-05T18:26:43Z</time>
</trkpt>
<trkpt lat="42.875732" lon="-2.1060834">
<ele>1084</ele>
<time>2014-10-05T18:26:45Z</time>
</trkpt>
<trkpt lat="42.875885" lon="-2.106214">
<ele>1083</ele>
<time>2014-10-05T18:26:47Z</time>
</trkpt>
<trkpt lat="42.876015" lon="-2.1063058">
<ele>1081</ele>
<time>2014-10-05T18:26:49Z</time>
</trkpt>
<trkpt lat="42.87613" lon="-2.1063552">
<ele>1076</ele>
<time>2014-10-05T18:26:51Z</time>
</trkpt>
<trkpt lat="42.876278" lon="-2.1064386">
<ele>1073</ele>
<time>2014-10-05T18:26:53Z</time>
</trkpt>
<trkpt lat="42.876434" lon="-2.1064978">
<ele>1071</ele>
<time>2014-10-05T18:26:55Z</time>
</trkpt>
<trkpt lat="42.876595" lon="-2.1065297">
<ele>1071</ele>
<time>2014-10-05T18:26:57Z</time>
</trkpt>
<trkpt lat="42.876755" lon="-2.1065314">
<ele>1065</ele>
<time>2014-10-05T18:26:59Z</time>
</trkpt>
<trkpt lat="42.87692" lon="-2.1065621">
<ele>1063</ele>
<time>2014-10-05T18:27:01Z</time>
</trkpt>
<trkpt lat="42.87708" lon="-2.1065834">
<ele>1063</ele>
<time>2014-10-05T18:27:03Z</time>
</trkpt>
<trkpt lat="42.87722" lon="-2.1066275">
<ele>1062</ele>
<time>2014-10-05T18:27:05Z</time>
</trkpt>
<trkpt lat="42.877377" lon="-2.1066554">
<ele>1057</ele>
<time>2014-10-05T18:27:07Z</time>
</trkpt>
<trkpt lat="42.877544" lon="-2.106694">
<ele>1054</ele>
<time>2014-10-05T18:27:09Z</time>
</trkpt>
<trkpt lat="42.877712" lon="-2.1067429">
<ele>1052</ele>
<time>2014-10-05T18:27:11Z</time>
</trkpt>
<trkpt lat="42.87787" lon="-2.1067812">
<ele>1051</ele>
<time>2014-10-05T18:27:13Z</time>
</trkpt>
<trkpt lat="42.878033" lon="-2.1067984">
<ele>1051</ele>
<time>2014-10-05T18:27:15Z</time>
</trkpt>
<trkpt lat="42.878216" lon="-2.1067922">
<ele>1049</ele>
<time>2014-10-05T18:27:17Z</time>
</trkpt>
<trkpt lat="42.8784" lon="-2.1067688">
<ele>1049</ele>
<time>2014-10-05T18:27:19Z</time>
</trkpt>
<trkpt lat="42.878555" lon="-2.1067896">
<ele>1048</ele>
<time>2014-10-05T18:27:21Z</time>
</trkpt>
<trkpt lat="42.878746" lon="-2.1068118">
<ele>1050</ele>
<time>2014-10-05T18:27:23Z</time>
</trkpt>
<trkpt lat="42.878944" lon="-2.1068053">
<ele>1051</ele>
<time>2014-10-05T18:27:25Z</time>
</trkpt>
<trkpt lat="42.879112" lon="-2.10678">
<ele>1048</ele>
<time>2014-10-05T18:27:27Z</time>
</trkpt>
<trkpt lat="42.879272" lon="-2.1067677">
<ele>1047</ele>
<time>2014-10-05T18:27:29Z</time>
</trkpt>
<trkpt lat="42.87948" lon="-2.1067665">
<ele>1046</ele>
<time>2014-10-05T18:27:31Z</time>
</trkpt>
<trkpt lat="42.87966" lon="-2.1067612">
<ele>1047</ele>
<time>2014-10-05T18:27:33Z</time>
</trkpt>
<trkpt lat="42.879837" lon="-2.1067605">
<ele>1045</ele>
<time>2014-10-05T18:27:35Z</time>
</trkpt>
<trkpt lat="42.880013" lon="-2.1067786">
<ele>1041</ele>
<time>2014-10-05T18:27:37Z</time>
</trkpt>
<trkpt lat="42.88016" lon="-2.106789">
<ele>1039</ele>
<time>2014-10-05T18:27:39Z</time>
</trkpt>
<trkpt lat="42.88032" lon="-2.106807">
<ele>1038</ele>
<time>2014-10-05T18:27:41Z</time>
</trkpt>
<trkpt lat="42.88046" lon="-2.1067953">
<ele>1036</ele>
<time>2014-10-05T18:27:43Z</time>
</trkpt>
<trkpt lat="42.88063" lon="-2.1067536">
<ele>1035</ele>
<time>2014-10-05T18:27:45Z</time>
</trkpt>
<trkpt lat="42.880787" lon="-2.1067243">
<ele>1030</ele>
<time>2014-10-05T18:27:47Z</time>
</trkpt>
<trkpt lat="42.880943" lon="-2.1066928">
<ele>1026</ele>
<time>2014-10-05T18:27:49Z</time>
</trkpt>
<trkpt lat="42.88112" lon="-2.1066437">
<ele>1024</ele>
<time>2014-10-05T18:27:51Z</time>
</trkpt>
<trkpt lat="42.881275" lon="-2.106621">
<ele>1022</ele>
<time>2014-10-05T18:27:53Z</time>
</trkpt>
<trkpt lat="42.881435" lon="-2.1066058">
<ele>1020</ele>
<time>2014-10-05T18:27:55Z</time>
</trkpt>
<trkpt lat="42.881588" lon="-2.106551">
<ele>1018</ele>
<time>2014-10-05T18:27:57Z</time>
</trkpt>
<trkpt lat="42.88175" lon="-2.106485">
<ele>1017</ele>
<time>2014-10-05T18:27:59Z</time>
</trkpt>
<trkpt lat="42.881912" lon="-2.1064281">
<ele>1013</ele>
<time>2014-10-05T18:28:01Z</time>
</trkpt>
<trkpt lat="42.882103" lon="-2.106355">
<ele>1011</ele>
<time>2014-10-05T18:28:03Z</time>
</trkpt>
<trkpt lat="42.882294" lon="-2.1063097">
<ele>1010</ele>
<time>2014-10-05T18:28:05Z</time>
</trkpt>
<trkpt lat="42.882465" lon="-2.1062706">
<ele>1005</ele>
<time>2014-10-05T18:28:07Z</time>
</trkpt>
<trkpt lat="42.882656" lon="-2.1062198">
<ele>1003</ele>
<time>2014-10-05T18:28:09Z</time>
</trkpt>
<trkpt lat="42.882835" lon="-2.106191">
<ele>1001</ele>
<time>2014-10-05T18:28:10Z</time>
</trkpt>
<trkpt lat="42.883007" lon="-2.106168">
<ele>998</ele>
<time>2014-10-05T18:28:13Z</time>
</trkpt>
<trkpt lat="42.88319" lon="-2.1061635">
<ele>994</ele>
<time>2014-10-05T18:28:15Z</time>
</trkpt>
<trkpt lat="42.883373" lon="-2.1061637">
<ele>992</ele>
<time>2014-10-05T18:28:17Z</time>
</trkpt>
<trkpt lat="42.88355" lon="-2.1061778">
<ele>992</ele>
<time>2014-10-05T18:28:19Z</time>
</trkpt>
<trkpt lat="42.8837" lon="-2.1061904">
<ele>990</ele>
<time>2014-10-05T18:28:21Z</time>
</trkpt>
<trkpt lat="42.88388" lon="-2.1062062">
<ele>989</ele>
<time>2014-10-05T18:28:23Z</time>
</trkpt>
<trkpt lat="42.88406" lon="-2.1062374">
<ele>988</ele>
<time>2014-10-05T18:28:24Z</time>
</trkpt>
<trkpt lat="42.884216" lon="-2.1061933">
<ele>985</ele>
<time>2014-10-05T18:28:27Z</time>
</trkpt>
<trkpt lat="42.884407" lon="-2.1061292">
<ele>984</ele>
<time>2014-10-05T18:28:29Z</time>
</trkpt>
<trkpt lat="42.88459" lon="-2.106086">
<ele>983</ele>
<time>2014-10-05T18:28:31Z</time>
</trkpt>
<trkpt lat="42.88475" lon="-2.106035">
<ele>982</ele>
<time>2014-10-05T18:28:32Z</time>
</trkpt>
<trkpt lat="42.88492" lon="-2.1059268">
<ele>978</ele>
<time>2014-10-05T18:28:35Z</time>
</trkpt>
<trkpt lat="42.885086" lon="-2.1058214">
<ele>975</ele>
<time>2014-10-05T18:28:37Z</time>
</trkpt>
<trkpt lat="42.885242" lon="-2.1056967">
<ele>974</ele>
<time>2014-10-05T18:28:39Z</time>
</trkpt>
<trkpt lat="42.885403" lon="-2.1055584">
<ele>972</ele>
<time>2014-10-05T18:28:41Z</time>
</trkpt>
<trkpt lat="42.88556" lon="-2.1054277">
<ele>969</ele>
<time>2014-10-05T18:28:43Z</time>
</trkpt>
<trkpt lat="42.885715" lon="-2.105277">
<ele>968</ele>
<time>2014-10-05T18:28:45Z</time>
</trkpt>
<trkpt lat="42.88588" lon="-2.1051378">
<ele>968</ele>
<time>2014-10-05T18:28:47Z</time>
</trkpt>
<trkpt lat="42.88603" lon="-2.1050122">
<ele>968</ele>
<time>2014-10-05T18:28:49Z</time>
</trkpt>
<trkpt lat="42.88618" lon="-2.1048396">
<ele>968</ele>
<time>2014-10-05T18:28:51Z</time>
</trkpt>
<trkpt lat="42.886353" lon="-2.1047328">
<ele>968</ele>
<time>2014-10-05T18:28:52Z</time>
</trkpt>
<trkpt lat="42.886517" lon="-2.104664">
<ele>967</ele>
<time>2014-10-05T18:28:55Z</time>
</trkpt>
<trkpt lat="42.886665" lon="-2.1047838">
<ele>965</ele>
<time>2014-10-05T18:28:57Z</time>
</trkpt>
<trkpt lat="42.886803" lon="-2.104848">
<ele>964</ele>
<time>2014-10-05T18:28:58Z</time>
</trkpt>
<trkpt lat="42.886944" lon="-2.1049716">
<ele>964</ele>
<time>2014-10-05T18:29:01Z</time>
</trkpt>
<trkpt lat="42.887016" lon="-2.1051435">
<ele>963</ele>
<time>2014-10-05T18:29:03Z</time>
</trkpt>
<trkpt lat="42.887077" lon="-2.1053057">
<ele>963</ele>
<time>2014-10-05T18:29:05Z</time>
</trkpt>
<trkpt lat="42.887108" lon="-2.1055467">
<ele>962</ele>
<time>2014-10-05T18:29:07Z</time>
</trkpt>
<trkpt lat="42.88711" lon="-2.1057336">
<ele>962</ele>
<time>2014-10-05T18:29:09Z</time>
</trkpt>
<trkpt lat="42.887188" lon="-2.1058588">
<ele>962</ele>
<time>2014-10-05T18:29:11Z</time>
</trkpt>
<trkpt lat="42.887264" lon="-2.1060476">
<ele>963</ele>
<time>2014-10-05T18:29:13Z</time>
</trkpt>
<trkpt lat="42.887295" lon="-2.1062126">
<ele>963</ele>
<time>2014-10-05T18:29:14Z</time>
</trkpt>
<trkpt lat="42.88739" lon="-2.106275">
<ele>964</ele>
<time>2014-10-05T18:29:17Z</time>
</trkpt>
<trkpt lat="42.887447" lon="-2.1064107">
<ele>964</ele>
<time>2014-10-05T18:29:19Z</time>
</trkpt>
<trkpt lat="42.887356" lon="-2.1066113">
<ele>961</ele>
<time>2014-10-05T18:29:21Z</time>
</trkpt>
<trkpt lat="42.887375" lon="-2.1067386">
<ele>961</ele>
<time>2014-10-05T18:29:23Z</time>
</trkpt>
<trkpt lat="42.887383" lon="-2.106874">
<ele>960</ele>
<time>2014-10-05T18:29:24Z</time>
</trkpt>
<trkpt lat="42.887383" lon="-2.1071131">
<ele>962</ele>
<time>2014-10-05T18:29:28Z</time>
</trkpt>
<trkpt lat="42.887413" lon="-2.1072617">
<ele>962</ele>
<time>2014-10-05T18:29:30Z</time>
</trkpt>
<trkpt lat="42.88751" lon="-2.1074142">
<ele>963</ele>
<time>2014-10-05T18:29:32Z</time>
</trkpt>
<trkpt lat="42.887432" lon="-2.1076221">
<ele>959</ele>
<time>2014-10-05T18:29:34Z</time>
</trkpt>
<trkpt lat="42.887383" lon="-2.1078103">
<ele>956</ele>
<time>2014-10-05T18:29:36Z</time>
</trkpt>
<trkpt lat="42.88741" lon="-2.1079383">
<ele>955</ele>
<time>2014-10-05T18:29:38Z</time>
</trkpt>
<trkpt lat="42.887367" lon="-2.108082">
<ele>951</ele>
<time>2014-10-05T18:29:40Z</time>
</trkpt>
<trkpt lat="42.887386" lon="-2.1082401">
<ele>948</ele>
<time>2014-10-05T18:29:41Z</time>
</trkpt>
<trkpt lat="42.88754" lon="-2.1083434">
<ele>949</ele>
<time>2014-10-05T18:29:44Z</time>
</trkpt>
<trkpt lat="42.887558" lon="-2.108489">
<ele>946</ele>
<time>2014-10-05T18:29:46Z</time>
</trkpt>
<trkpt lat="42.887646" lon="-2.1085994">
<ele>942</ele>
<time>2014-10-05T18:29:48Z</time>
</trkpt>
<trkpt lat="42.887676" lon="-2.108749">
<ele>940</ele>
<time>2014-10-05T18:29:50Z</time>
</trkpt>
<trkpt lat="42.88773" lon="-2.1088634">
<ele>939</ele>
<time>2014-10-05T18:29:52Z</time>
</trkpt>
<trkpt lat="42.887833" lon="-2.1089513">
<ele>937</ele>
<time>2014-10-05T18:29:54Z</time>
</trkpt>
<trkpt lat="42.887917" lon="-2.1090188">
<ele>935</ele>
<time>2014-10-05T18:29:55Z</time>
</trkpt>
<trkpt lat="42.888" lon="-2.109102">
<ele>934</ele>
<time>2014-10-05T18:29:57Z</time>
</trkpt>
<trkpt lat="42.88809" lon="-2.109173">
<ele>936</ele>
<time>2014-10-05T18:30:00Z</time>
</trkpt>
<trkpt lat="42.888035" lon="-2.1093879">
<ele>929</ele>
<time>2014-10-05T18:30:02Z</time>
</trkpt>
<trkpt lat="42.88791" lon="-2.1094806">
<ele>928</ele>
<time>2014-10-05T18:30:04Z</time>
</trkpt>
<trkpt lat="42.887836" lon="-2.1095679">
<ele>925</ele>
<time>2014-10-05T18:30:05Z</time>
</trkpt>
<trkpt lat="42.887787" lon="-2.1097155">
<ele>922</ele>
<time>2014-10-05T18:30:08Z</time>
</trkpt>
<trkpt lat="42.887882" lon="-2.109836">
<ele>920</ele>
<time>2014-10-05T18:30:10Z</time>
</trkpt>
<trkpt lat="42.88805" lon="-2.109802">
<ele>914</ele>
<time>2014-10-05T18:30:12Z</time>
</trkpt>
<trkpt lat="42.88817" lon="-2.1094277">
<ele>908</ele>
<time>2014-10-05T18:30:14Z</time>
</trkpt>
<trkpt lat="42.888226" lon="-2.1092064">
<ele>905</ele>
<time>2014-10-05T18:30:16Z</time>
</trkpt>
<trkpt lat="42.888165" lon="-2.1090326">
<ele>903</ele>
<time>2014-10-05T18:30:18Z</time>
</trkpt>
<trkpt lat="42.888058" lon="-2.108957">
<ele>902</ele>
<time>2014-10-05T18:30:20Z</time>
</trkpt>
<trkpt lat="42.888016" lon="-2.1090965">
<ele>903</ele>
<time>2014-10-05T18:30:21Z</time>
</trkpt>
<trkpt lat="42.888004" lon="-2.1091142">
<ele>899</ele>
<time>2014-10-05T18:30:24Z</time>
</trkpt>
<trkpt lat="42.888145" lon="-2.1091435">
<ele>898</ele>
<time>2014-10-05T18:30:25Z</time>
</trkpt>
<trkpt lat="42.8879" lon="-2.1089697">
<ele>897</ele>
<time>2014-10-05T18:30:28Z</time>
</trkpt>
<trkpt lat="42.887745" lon="-2.1090248">
<ele>895</ele>
<time>2014-10-05T18:30:29Z</time>
</trkpt>
<trkpt lat="42.88765" lon="-2.109038">
<ele>894</ele>
<time>2014-10-05T18:30:32Z</time>
</trkpt>
<trkpt lat="42.88761" lon="-2.1091464">
<ele>893</ele>
<time>2014-10-05T18:30:33Z</time>
</trkpt>
<trkpt lat="42.887936" lon="-2.1092513">
<ele>891</ele>
<time>2014-10-05T18:30:36Z</time>
</trkpt>
<trkpt lat="42.888092" lon="-2.1093524">
<ele>892</ele>
<time>2014-10-05T18:30:38Z</time>
</trkpt>
<trkpt lat="42.888237" lon="-2.1094553">
<ele>891</ele>
<time>2014-10-05T18:30:39Z</time>
</trkpt>
<trkpt lat="42.88845" lon="-2.1096058">
<ele>890</ele>
<time>2014-10-05T18:30:42Z</time>
</trkpt>
<trkpt lat="42.88852" lon="-2.1097605">
<ele>889</ele>
<time>2014-10-05T18:30:43Z</time>
</trkpt>
<trkpt lat="42.888607" lon="-2.1098762">
<ele>887</ele>
<time>2014-10-05T18:30:46Z</time>
</trkpt>
<trkpt lat="42.888725" lon="-2.1099718">
<ele>888</ele>
<time>2014-10-05T18:30:48Z</time>
</trkpt>
<trkpt lat="42.888832" lon="-2.1100597">
<ele>887</ele>
<time>2014-10-05T18:30:49Z</time>
</trkpt>
<trkpt lat="42.88874" lon="-2.1103733">
<ele>887</ele>
<time>2014-10-05T18:30:52Z</time>
</trkpt>
<trkpt lat="42.888412" lon="-2.1106155">
<ele>880</ele>
<time>2014-10-05T18:30:54Z</time>
</trkpt>
<trkpt lat="42.888294" lon="-2.1107085">
<ele>876</ele>
<time>2014-10-05T18:30:56Z</time>
</trkpt>
<trkpt lat="42.88813" lon="-2.1107633">
<ele>874</ele>
<time>2014-10-05T18:30:58Z</time>
</trkpt>
<trkpt lat="42.887955" lon="-2.1107378">
<ele>871</ele>
<time>2014-10-05T18:31:00Z</time>
</trkpt>
<trkpt lat="42.887886" lon="-2.1100929">
<ele>846</ele>
<time>2014-10-05T18:31:02Z</time>
</trkpt>
<trkpt lat="42.8879" lon="-2.1097577">
<ele>837</ele>
<time>2014-10-05T18:31:04Z</time>
</trkpt>
<trkpt lat="42.888058" lon="-2.1095638">
<ele>832</ele>
<time>2014-10-05T18:31:06Z</time>
</trkpt>
<trkpt lat="42.88824" lon="-2.1095066">
<ele>829</ele>
<time>2014-10-05T18:31:08Z</time>
</trkpt>
<trkpt lat="42.888428" lon="-2.1095614">
<ele>826</ele>
<time>2014-10-05T18:31:10Z</time>
</trkpt>
<trkpt lat="42.888466" lon="-2.109707">
<ele>824</ele>
<time>2014-10-05T18:31:12Z</time>
</trkpt>
<trkpt lat="42.88843" lon="-2.1098826">
<ele>823</ele>
<time>2014-10-05T18:31:14Z</time>
</trkpt>
<trkpt lat="42.88841" lon="-2.1100433">
<ele>823</ele>
<time>2014-10-05T18:31:16Z</time>
</trkpt>
<trkpt lat="42.88834" lon="-2.1101801">
<ele>821</ele>
<time>2014-10-05T18:31:18Z</time>
</trkpt>
<trkpt lat="42.888138" lon="-2.110272">
<ele>818</ele>
<time>2014-10-05T18:31:19Z</time>
</trkpt>
<trkpt lat="42.88799" lon="-2.1102889">
<ele>818</ele>
<time>2014-10-05T18:31:22Z</time>
</trkpt>
<trkpt lat="42.887905" lon="-2.1098726">
<ele>813</ele>
<time>2014-10-05T18:31:24Z</time>
</trkpt>
<trkpt lat="42.888004" lon="-2.1096244">
<ele>811</ele>
<time>2014-10-05T18:31:25Z</time>
</trkpt>
<trkpt lat="42.888145" lon="-2.1095266">
<ele>810</ele>
<time>2014-10-05T18:31:27Z</time>
</trkpt>
<trkpt lat="42.888317" lon="-2.1095042">
<ele>808</ele>
<time>2014-10-05T18:31:30Z</time>
</trkpt>
<trkpt lat="42.888493" lon="-2.1095023">
<ele>807</ele>
<time>2014-10-05T18:31:32Z</time>
</trkpt>
<trkpt lat="42.88863" lon="-2.109448">
<ele>805</ele>
<time>2014-10-05T18:31:34Z</time>
</trkpt>
<trkpt lat="42.88874" lon="-2.1093643">
<ele>805</ele>
<time>2014-10-05T18:31:36Z</time>
</trkpt>
<trkpt lat="42.88884" lon="-2.1090915">
<ele>802</ele>
<time>2014-10-05T18:31:38Z</time>
</trkpt>
<trkpt lat="42.88888" lon="-2.1088398">
<ele>800</ele>
<time>2014-10-05T18:31:40Z</time>
</trkpt>
<trkpt lat="42.888905" lon="-2.1085904">
<ele>798</ele>
<time>2014-10-05T18:31:42Z</time>
</trkpt>
<trkpt lat="42.888927" lon="-2.1083045">
<ele>796</ele>
<time>2014-10-05T18:31:43Z</time>
</trkpt>
<trkpt lat="42.888966" lon="-2.1080332">
<ele>794</ele>
<time>2014-10-05T18:31:46Z</time>
</trkpt>
<trkpt lat="42.88902" lon="-2.1077688">
<ele>792</ele>
<time>2014-10-05T18:31:48Z</time>
</trkpt>
<trkpt lat="42.889202" lon="-2.1075904">
<ele>788</ele>
<time>2014-10-05T18:31:50Z</time>
</trkpt>
<trkpt lat="42.889385" lon="-2.1074843">
<ele>787</ele>
<time>2014-10-05T18:31:52Z</time>
</trkpt>
<trkpt lat="42.889446" lon="-2.107618">
<ele>784</ele>
<time>2014-10-05T18:31:54Z</time>
</trkpt>
<trkpt lat="42.889484" lon="-2.1077738">
<ele>781</ele>
<time>2014-10-05T18:31:56Z</time>
</trkpt>
<trkpt lat="42.88939" lon="-2.107918">
<ele>780</ele>
<time>2014-10-05T18:31:58Z</time>
</trkpt>
<trkpt lat="42.889187" lon="-2.107912">
<ele>778</ele>
<time>2014-10-05T18:31:59Z</time>
</trkpt>
<trkpt lat="42.889034" lon="-2.1079288">
<ele>776</ele>
<time>2014-10-05T18:32:02Z</time>
</trkpt>
<trkpt lat="42.888824" lon="-2.1079402">
<ele>775</ele>
<time>2014-10-05T18:32:04Z</time>
</trkpt>
<trkpt lat="42.888683" lon="-2.1079776">
<ele>774</ele>
<time>2014-10-05T18:32:06Z</time>
</trkpt>
<trkpt lat="42.888588" lon="-2.108122">
<ele>774</ele>
<time>2014-10-05T18:32:08Z</time>
</trkpt>
<trkpt lat="42.888554" lon="-2.1083105">
<ele>774</ele>
<time>2014-10-05T18:32:10Z</time>
</trkpt>
<trkpt lat="42.888813" lon="-2.107952">
<ele>772</ele>
<time>2014-10-05T18:32:12Z</time>
</trkpt>
<trkpt lat="42.88895" lon="-2.107717">
<ele>771</ele>
<time>2014-10-05T18:32:14Z</time>
</trkpt>
<trkpt lat="42.888935" lon="-2.1075513">
<ele>770</ele>
<time>2014-10-05T18:32:16Z</time>
</trkpt>
<trkpt lat="42.888874" lon="-2.1074393">
<ele>767</ele>
<time>2014-10-05T18:32:18Z</time>
</trkpt>
<trkpt lat="42.888817" lon="-2.10749">
<ele>766</ele>
<time>2014-10-05T18:32:20Z</time>
</trkpt>
<trkpt lat="42.888767" lon="-2.107632">
<ele>763</ele>
<time>2014-10-05T18:32:22Z</time>
</trkpt>
<trkpt lat="42.889" lon="-2.107778">
<ele>760</ele>
<time>2014-10-05T18:32:24Z</time>
</trkpt>
<trkpt lat="42.88912" lon="-2.1078463">
<ele>759</ele>
<time>2014-10-05T18:32:26Z</time>
</trkpt>
<trkpt lat="42.889244" lon="-2.1079216">
<ele>757</ele>
<time>2014-10-05T18:32:28Z</time>
</trkpt>
<trkpt lat="42.889366" lon="-2.107986">
<ele>754</ele>
<time>2014-10-05T18:32:30Z</time>
</trkpt>
<trkpt lat="42.8894" lon="-2.1080995">
<ele>747</ele>
<time>2014-10-05T18:32:32Z</time>
</trkpt>
<trkpt lat="42.889263" lon="-2.1082766">
<ele>743</ele>
<time>2014-10-05T18:32:34Z</time>
</trkpt>
<trkpt lat="42.889107" lon="-2.108424">
<ele>743</ele>
<time>2014-10-05T18:32:36Z</time>
</trkpt>
<trkpt lat="42.888996" lon="-2.1079898">
<ele>740</ele>
<time>2014-10-05T18:32:37Z</time>
</trkpt>
<trkpt lat="42.888973" lon="-2.1076744">
<ele>737</ele>
<time>2014-10-05T18:32:40Z</time>
</trkpt>
<trkpt lat="42.88919" lon="-2.1076338">
<ele>736</ele>
<time>2014-10-05T18:32:42Z</time>
</trkpt>
<trkpt lat="42.889336" lon="-2.1076176">
<ele>735</ele>
<time>2014-10-05T18:32:44Z</time>
</trkpt>
<trkpt lat="42.889454" lon="-2.1077027">
<ele>733</ele>
<time>2014-10-05T18:32:46Z</time>
</trkpt>
<trkpt lat="42.889538" lon="-2.1078725">
<ele>732</ele>
<time>2014-10-05T18:32:48Z</time>
</trkpt>
<trkpt lat="42.889637" lon="-2.108019">
<ele>733</ele>
<time>2014-10-05T18:32:50Z</time>
</trkpt>
<trkpt lat="42.88975" lon="-2.1080585">
<ele>733</ele>
<time>2014-10-05T18:32:52Z</time>
</trkpt>
<trkpt lat="42.88988" lon="-2.1080737">
<ele>729</ele>
<time>2014-10-05T18:32:53Z</time>
</trkpt>
<trkpt lat="42.890045" lon="-2.1079988">
<ele>724</ele>
<time>2014-10-05T18:32:56Z</time>
</trkpt>
<trkpt lat="42.890102" lon="-2.107888">
<ele>719</ele>
<time>2014-10-05T18:32:58Z</time>
</trkpt>
<trkpt lat="42.89019" lon="-2.1078632">
<ele>715</ele>
<time>2014-10-05T18:33:00Z</time>
</trkpt>
<trkpt lat="42.890327" lon="-2.107855">
<ele>711</ele>
<time>2014-10-05T18:33:02Z</time>
</trkpt>
<trkpt lat="42.890453" lon="-2.1078715">
<ele>709</ele>
<time>2014-10-05T18:33:04Z</time>
</trkpt>
<trkpt lat="42.89056" lon="-2.1079164">
<ele>709</ele>
<time>2014-10-05T18:33:06Z</time>
</trkpt>
<trkpt lat="42.89067" lon="-2.1080453">
<ele>709</ele>
<time>2014-10-05T18:33:08Z</time>
</trkpt>
<trkpt lat="42.890804" lon="-2.1081474">
<ele>710</ele>
<time>2014-10-05T18:33:10Z</time>
</trkpt>
<trkpt lat="42.890846" lon="-2.108213">
<ele>710</ele>
<time>2014-10-05T18:33:12Z</time>
</trkpt>
<trkpt lat="42.890945" lon="-2.1082995">
<ele>710</ele>
<time>2014-10-05T18:33:14Z</time>
</trkpt>
<trkpt lat="42.890896" lon="-2.1084788">
<ele>707</ele>
<time>2014-10-05T18:33:15Z</time>
</trkpt>
<trkpt lat="42.890835" lon="-2.1085463">
<ele>706</ele>
<time>2014-10-05T18:33:18Z</time>
</trkpt>
<trkpt lat="42.89076" lon="-2.1086082">
<ele>705</ele>
<time>2014-10-05T18:33:20Z</time>
</trkpt>
<trkpt lat="42.890465" lon="-2.108411">
<ele>706</ele>
<time>2014-10-05T18:33:22Z</time>
</trkpt>
<trkpt lat="42.890305" lon="-2.1083183">
<ele>702</ele>
<time>2014-10-05T18:33:24Z</time>
</trkpt>
<trkpt lat="42.890102" lon="-2.108224">
<ele>696</ele>
<time>2014-10-05T18:33:26Z</time>
</trkpt>
<trkpt lat="42.889915" lon="-2.1081436">
<ele>694</ele>
<time>2014-10-05T18:33:28Z</time>
</trkpt>
<trkpt lat="42.889748" lon="-2.1080964">
<ele>690</ele>
<time>2014-10-05T18:33:30Z</time>
</trkpt>
<trkpt lat="42.889565" lon="-2.108064">
<ele>687</ele>
<time>2014-10-05T18:33:32Z</time>
</trkpt>
<trkpt lat="42.889397" lon="-2.108022">
<ele>684</ele>
<time>2014-10-05T18:33:34Z</time>
</trkpt>
<trkpt lat="42.889248" lon="-2.1079986">
<ele>683</ele>
<time>2014-10-05T18:33:36Z</time>
</trkpt>
<trkpt lat="42.88909" lon="-2.1080086">
<ele>682</ele>
<time>2014-10-05T18:33:38Z</time>
</trkpt>
<trkpt lat="42.888977" lon="-2.1079636">
<ele>675</ele>
<time>2014-10-05T18:33:40Z</time>
</trkpt>
<trkpt lat="42.88888" lon="-2.1080513">
<ele>673</ele>
<time>2014-10-05T18:33:42Z</time>
</trkpt>
<trkpt lat="42.888954" lon="-2.1082277">
<ele>671</ele>
<time>2014-10-05T18:33:44Z</time>
</trkpt>
<trkpt lat="42.88902" lon="-2.1083705">
<ele>669</ele>
<time>2014-10-05T18:33:46Z</time>
</trkpt>
<trkpt lat="42.889095" lon="-2.1085365">
<ele>670</ele>
<time>2014-10-05T18:33:48Z</time>
</trkpt>
<trkpt lat="42.8892" lon="-2.1086345">
<ele>669</ele>
<time>2014-10-05T18:33:50Z</time>
</trkpt>
<trkpt lat="42.889355" lon="-2.1086652">
<ele>668</ele>
<time>2014-10-05T18:33:52Z</time>
</trkpt>
<trkpt lat="42.889595" lon="-2.1085784">
<ele>661</ele>
<time>2014-10-05T18:33:54Z</time>
</trkpt>
<trkpt lat="42.889698" lon="-2.1084971">
<ele>655</ele>
<time>2014-10-05T18:33:56Z</time>
</trkpt>
<trkpt lat="42.889843" lon="-2.1084445">
<ele>655</ele>
<time>2014-10-05T18:33:58Z</time>
</trkpt>
<trkpt lat="42.889984" lon="-2.108444">
<ele>651</ele>
<time>2014-10-05T18:34:00Z</time>
</trkpt>
<trkpt lat="42.890106" lon="-2.108407">
<ele>648</ele>
<time>2014-10-05T18:34:02Z</time>
</trkpt>
<trkpt lat="42.89027" lon="-2.1083894">
<ele>644</ele>
<time>2014-10-05T18:34:04Z</time>
</trkpt>
<trkpt lat="42.890408" lon="-2.1084044">
<ele>641</ele>
<time>2014-10-05T18:34:06Z</time>
</trkpt>
<trkpt lat="42.890507" lon="-2.108547">
<ele>639</ele>
<time>2014-10-05T18:34:08Z</time>
</trkpt>
<trkpt lat="42.89058" lon="-2.108684">
<ele>639</ele>
<time>2014-10-05T18:34:10Z</time>
</trkpt>
<trkpt lat="42.89068" lon="-2.1087842">
<ele>638</ele>
<time>2014-10-05T18:34:12Z</time>
</trkpt>
<trkpt lat="42.890774" lon="-2.108925">
<ele>637</ele>
<time>2014-10-05T18:34:14Z</time>
</trkpt>
<trkpt lat="42.890892" lon="-2.108972">
<ele>637</ele>
<time>2014-10-05T18:34:15Z</time>
</trkpt>
<trkpt lat="42.8909" lon="-2.1091466">
<ele>636</ele>
<time>2014-10-05T18:34:18Z</time>
</trkpt>
<trkpt lat="42.890694" lon="-2.1092665">
<ele>634</ele>
<time>2014-10-05T18:34:20Z</time>
</trkpt>
<trkpt lat="42.890564" lon="-2.109346">
<ele>633</ele>
<time>2014-10-05T18:34:22Z</time>
</trkpt>
<trkpt lat="42.890476" lon="-2.109412">
<ele>632</ele>
<time>2014-10-05T18:34:24Z</time>
</trkpt>
<trkpt lat="42.89037" lon="-2.1095235">
<ele>632</ele>
<time>2014-10-05T18:34:26Z</time>
</trkpt>
<trkpt lat="42.89029" lon="-2.1096334">
<ele>631</ele>
<time>2014-10-05T18:34:28Z</time>
</trkpt>
<trkpt lat="42.890213" lon="-2.1097202">
<ele>631</ele>
<time>2014-10-05T18:34:30Z</time>
</trkpt>
<trkpt lat="42.89015" lon="-2.1098323">
<ele>631</ele>
<time>2014-10-05T18:34:32Z</time>
</trkpt>
<trkpt lat="42.890087" lon="-2.1099603">
<ele>629</ele>
<time>2014-10-05T18:34:34Z</time>
</trkpt>
<trkpt lat="42.890038" lon="-2.1100118">
<ele>626</ele>
<time>2014-10-05T18:34:36Z</time>
</trkpt>
<trkpt lat="42.889984" lon="-2.1100643">
<ele>622</ele>
<time>2014-10-05T18:34:38Z</time>
</trkpt>
<trkpt lat="42.88996" lon="-2.1101928">
<ele>611</ele>
<time>2014-10-05T18:34:40Z</time>
</trkpt>
<trkpt lat="42.88989" lon="-2.1102805">
<ele>607</ele>
<time>2014-10-05T18:34:42Z</time>
</trkpt>
<trkpt lat="42.88989" lon="-2.110367">
<ele>599</ele>
<time>2014-10-05T18:34:44Z</time>
</trkpt>
<trkpt lat="42.889915" lon="-2.1104932">
<ele>596</ele>
<time>2014-10-05T18:34:46Z</time>
</trkpt>
<trkpt lat="42.890007" lon="-2.1105978">
<ele>593</ele>
<time>2014-10-05T18:34:48Z</time>
</trkpt>
<trkpt lat="42.890163" lon="-2.1106305">
<ele>591</ele>
<time>2014-10-05T18:34:49Z</time>
</trkpt>
<trkpt lat="42.890324" lon="-2.1106205">
<ele>589</ele>
<time>2014-10-05T18:34:52Z</time>
</trkpt>
<trkpt lat="42.89047" lon="-2.1105928">
<ele>587</ele>
<time>2014-10-05T18:34:54Z</time>
</trkpt>
<trkpt lat="42.890533" lon="-2.1107464">
<ele>581</ele>
<time>2014-10-05T18:34:56Z</time>
</trkpt>
<trkpt lat="42.89061" lon="-2.110885">
<ele>577</ele>
<time>2014-10-05T18:34:58Z</time>
</trkpt>
<trkpt lat="42.890656" lon="-2.1110685">
<ele>575</ele>
<time>2014-10-05T18:35:00Z</time>
</trkpt>
<trkpt lat="42.890667" lon="-2.111211">
<ele>574</ele>
<time>2014-10-05T18:35:02Z</time>
</trkpt>
<trkpt lat="42.89067" lon="-2.1113086">
<ele>573</ele>
<time>2014-10-05T18:35:04Z</time>
</trkpt>
<trkpt lat="42.89068" lon="-2.111346">
<ele>572</ele>
<time>2014-10-05T18:35:06Z</time>
</trkpt>
<trkpt lat="42.890682" lon="-2.111377">
<ele>571</ele>
<time>2014-10-05T18:35:08Z</time>
</trkpt>
<trkpt lat="42.890694" lon="-2.11141">
<ele>570</ele>
<time>2014-10-05T18:35:10Z</time>
</trkpt>
<trkpt lat="42.890713" lon="-2.1114564">
<ele>570</ele>
<time>2014-10-05T18:35:12Z</time>
</trkpt>
<trkpt lat="42.890743" lon="-2.1114798">
<ele>568</ele>
<time>2014-10-05T18:35:14Z</time>
</trkpt>
<trkpt lat="42.890755" lon="-2.1114964">
<ele>569</ele>
<time>2014-10-05T18:35:16Z</time>
</trkpt>
<trkpt lat="42.890778" lon="-2.1115">
<ele>570</ele>
<time>2014-10-05T18:35:18Z</time>
</trkpt>
<trkpt lat="42.89079" lon="-2.1115057">
<ele>570</ele>
<time>2014-10-05T18:35:20Z</time>
</trkpt>
<trkpt lat="42.890793" lon="-2.1115227">
<ele>570</ele>
<time>2014-10-05T18:35:22Z</time>
</trkpt>
<trkpt lat="42.890797" lon="-2.1115148">
<ele>569</ele>
<time>2014-10-05T18:35:24Z</time>
</trkpt>
<trkpt lat="42.89079" lon="-2.1115081">
<ele>569</ele>
<time>2014-10-05T18:35:26Z</time>
</trkpt>
<trkpt lat="42.89079" lon="-2.111512">
<ele>570</ele>
<time>2014-10-05T18:35:28Z</time>
</trkpt>
<trkpt lat="42.890793" lon="-2.1115134">
<ele>569</ele>
<time>2014-10-05T18:35:30Z</time>
</trkpt>
<trkpt lat="42.890793" lon="-2.11152">
<ele>569</ele>
<time>2014-10-05T18:35:32Z</time>
</trkpt>
<trkpt lat="42.890797" lon="-2.1115067">
<ele>568</ele>
<time>2014-10-05T18:35:34Z</time>
</trkpt>
<trkpt lat="42.890793" lon="-2.1115048">
<ele>568</ele>
<time>2014-10-05T18:35:36Z</time>
</trkpt>
<trkpt lat="42.890797" lon="-2.111507">
<ele>568</ele>
<time>2014-10-05T18:35:38Z</time>
</trkpt>
<trkpt lat="42.890797" lon="-2.1115031">
<ele>568</ele>
<time>2014-10-05T18:35:40Z</time>
</trkpt>
<trkpt lat="42.890797" lon="-2.111505">
<ele>569</ele>
<time>2014-10-05T18:35:42Z</time>
</trkpt>
<trkpt lat="42.89081" lon="-2.1115031">
<ele>569</ele>
<time>2014-10-05T18:35:44Z</time>
</trkpt>
<trkpt lat="42.89081" lon="-2.1115038">
<ele>569</ele>
<time>2014-10-05T18:35:46Z</time>
</trkpt>
<trkpt lat="42.89081" lon="-2.1114988">
<ele>569</ele>
<time>2014-10-05T18:35:48Z</time>
</trkpt>
<trkpt lat="42.89081" lon="-2.111499">
<ele>569</ele>
<time>2014-10-05T18:35:50Z</time>
</trkpt>
<trkpt lat="42.89081" lon="-2.1115031">
<ele>569</ele>
<time>2014-10-05T18:35:52Z</time>
</trkpt>
<trkpt lat="42.890804" lon="-2.1115227">
<ele>569</ele>
<time>2014-10-05T18:35:54Z</time>
</trkpt>
<trkpt lat="42.890797" lon="-2.1115487">
<ele>569</ele>
<time>2014-10-05T18:35:56Z</time>
</trkpt>
<trkpt lat="42.890778" lon="-2.1115553">
<ele>569</ele>
<time>2014-10-05T18:35:58Z</time>
</trkpt>
<trkpt lat="42.89076" lon="-2.1115687">
<ele>569</ele>
<time>2014-10-05T18:36:00Z</time>
</trkpt>
<trkpt lat="42.890743" lon="-2.1115823">
<ele>569</ele>
<time>2014-10-05T18:36:02Z</time>
</trkpt>
<trkpt lat="42.890736" lon="-2.111593">
<ele>569</ele>
<time>2014-10-05T18:36:04Z</time>
</trkpt>
<trkpt lat="42.890736" lon="-2.1115968">
<ele>569</ele>
<time>2014-10-05T18:36:06Z</time>
</trkpt>
<trkpt lat="42.89074" lon="-2.1115987">
<ele>569</ele>
<time>2014-10-05T18:36:08Z</time>
</trkpt>
<trkpt lat="42.890743" lon="-2.1116009">
<ele>570</ele>
<time>2014-10-05T18:36:10Z</time>
</trkpt>
<trkpt lat="42.890747" lon="-2.1116052">
<ele>570</ele>
<time>2014-10-05T18:36:12Z</time>
</trkpt>
<trkpt lat="42.890747" lon="-2.1116025">
<ele>570</ele>
<time>2014-10-05T18:36:14Z</time>
</trkpt>
<trkpt lat="42.890743" lon="-2.1116023">
<ele>569</ele>
<time>2014-10-05T18:36:16Z</time>
</trkpt>
<trkpt lat="42.890743" lon="-2.1116023">
<ele>569</ele>
<time>2014-10-05T18:36:18Z</time>
</trkpt>
<trkpt lat="42.890743" lon="-2.111602">
<ele>569</ele>
<time>2014-10-05T18:36:20Z</time>
</trkpt>
<trkpt lat="42.890743" lon="-2.111602">
<ele>569</ele>
<time>2014-10-05T18:36:22Z</time>
</trkpt>
<trkpt lat="42.890743" lon="-2.1116023">
<ele>569</ele>
<time>2014-10-05T18:36:24Z</time>
</trkpt>
<trkpt lat="42.890743" lon="-2.1116023">
<ele>569</ele>
<time>2014-10-05T18:36:26Z</time>
</trkpt>
<trkpt lat="42.890743" lon="-2.1116023">
<ele>569</ele>
<time>2014-10-05T18:36:28Z</time>
</trkpt>
<trkpt lat="42.890743" lon="-2.1116023">
<ele>569</ele>
<time>2014-10-05T18:36:30Z</time>
</trkpt>
<trkpt lat="42.890743" lon="-2.1116023">
<ele>569</ele>
<time>2014-10-05T18:36:32Z</time>
</trkpt>
<trkpt lat="42.890743" lon="-2.1116023">
<ele>569</ele>
<time>2014-10-05T18:36:34Z</time>
</trkpt>
<trkpt lat="42.890743" lon="-2.1116023">
<ele>569</ele>
<time>2014-10-05T18:36:36Z</time>
</trkpt>
<trkpt lat="42.890743" lon="-2.1116023">
<ele>569</ele>
<time>2014-10-05T18:36:38Z</time>
</trkpt>
<trkpt lat="42.890743" lon="-2.1116023">
<ele>569</ele>
<time>2014-10-05T18:36:40Z</time>
</trkpt>
<trkpt lat="42.890743" lon="-2.1116023">
<ele>569</ele>
<time>2014-10-05T18:36:41Z</time>
</trkpt>
<trkpt lat="42.890743" lon="-2.1116023">
<ele>569</ele>
<time>2014-10-05T18:36:44Z</time>
</trkpt>
<trkpt lat="42.890743" lon="-2.1116023">
<ele>569</ele>
<time>2014-10-05T18:36:46Z</time>
</trkpt>
<trkpt lat="42.890743" lon="-2.1116023">
<ele>569</ele>
<time>2014-10-05T18:36:48Z</time>
</trkpt>
<trkpt lat="42.890743" lon="-2.1116023">
<ele>569</ele>
<time>2014-10-05T18:36:50Z</time>
</trkpt>
<trkpt lat="42.890743" lon="-2.1116023">
<ele>569</ele>
<time>2014-10-05T18:36:52Z</time>
</trkpt>
		</trkseg>
	</trk>
</gpx>
